<?xml version='1.0' encoding='UTF-8'?>
<gpx version="1.1" creator="https://www.komoot.de" xmlns="http://www.topografix.com/GPX/1/1" xmlns:xsi="http://www.w3.org/2001/XMLSchema-instance" xsi:schemaLocation="http://www.topografix.com/GPX/1/1 http://www.topografix.com/GPX/1/1/gpx.xsd">
  <metadata>
    <name>50_550MuttWartenbGieben</name>
    <author>
      <link href="https://www.komoot.de">
        <text>komoot</text>
        <type>text/html</type>
      </link>
    </author>
  </metadata>
  <trk>
    <name>50_550MuttWartenbGieben</name>
    <trkseg>
      <trkpt lat="47.541953" lon="7.871286">
        <ele>343.139188</ele>
        <time>2021-11-10T20:35:59.922Z</time>
      </trkpt>
      <trkpt lat="47.541953" lon="7.871286">
        <ele>343.139188</ele>
        <time>2021-11-10T20:35:59.936Z</time>
      </trkpt>
      <trkpt lat="47.542039" lon="7.871556">
        <ele>343.139188</ele>
        <time>2021-11-10T20:36:04.805Z</time>
      </trkpt>
      <trkpt lat="47.542067" lon="7.871664">
        <ele>343.139188</ele>
        <time>2021-11-10T20:36:06.498Z</time>
      </trkpt>
      <trkpt lat="47.542091" lon="7.871721">
        <ele>343.139188</ele>
        <time>2021-11-10T20:36:07.147Z</time>
      </trkpt>
      <trkpt lat="47.542218" lon="7.871866">
        <ele>343.139188</ele>
        <time>2021-11-10T20:36:12.709Z</time>
      </trkpt>
      <trkpt lat="47.542394" lon="7.872341">
        <ele>343.139188</ele>
        <time>2021-11-10T20:36:23.449Z</time>
      </trkpt>
      <trkpt lat="47.542436" lon="7.872494">
        <ele>343.473488</ele>
        <time>2021-11-10T20:36:26.942Z</time>
      </trkpt>
      <trkpt lat="47.542537" lon="7.872430">
        <ele>344.053912</ele>
        <time>2021-11-10T20:36:29.124Z</time>
      </trkpt>
      <trkpt lat="47.542635" lon="7.872377">
        <ele>344.605141</ele>
        <time>2021-11-10T20:36:33.785Z</time>
      </trkpt>
      <trkpt lat="47.542714" lon="7.872334">
        <ele>345.049837</ele>
        <time>2021-11-10T20:36:36.369Z</time>
      </trkpt>
      <trkpt lat="47.542814" lon="7.872280">
        <ele>345.612216</ele>
        <time>2021-11-10T20:36:39.325Z</time>
      </trkpt>
      <trkpt lat="47.542919" lon="7.872226">
        <ele>346.199485</ele>
        <time>2021-11-10T20:36:43.228Z</time>
      </trkpt>
      <trkpt lat="47.543013" lon="7.872182">
        <ele>346.720356</ele>
        <time>2021-11-10T20:36:46.858Z</time>
      </trkpt>
      <trkpt lat="47.543233" lon="7.872082">
        <ele>347.936257</ele>
        <time>2021-11-10T20:36:53.956Z</time>
      </trkpt>
      <trkpt lat="47.543251" lon="7.872152">
        <ele>348.203425</ele>
        <time>2021-11-10T20:36:57.371Z</time>
      </trkpt>
      <trkpt lat="47.543332" lon="7.872237">
        <ele>348.727902</ele>
        <time>2021-11-10T20:37:00.781Z</time>
      </trkpt>
      <trkpt lat="47.544390" lon="7.872423">
        <ele>354.868319</ele>
        <time>2021-11-10T20:37:42.412Z</time>
      </trkpt>
      <trkpt lat="47.544883" lon="7.872555">
        <ele>358.304347</ele>
        <time>2021-11-10T20:38:04.755Z</time>
      </trkpt>
      <trkpt lat="47.545131" lon="7.872664">
        <ele>360.078536</ele>
        <time>2021-11-10T20:38:15.759Z</time>
      </trkpt>
      <trkpt lat="47.545375" lon="7.872836">
        <ele>361.931801</ele>
        <time>2021-11-10T20:38:26.700Z</time>
      </trkpt>
      <trkpt lat="47.545478" lon="7.872968">
        <ele>362.865868</ele>
        <time>2021-11-10T20:38:33.507Z</time>
      </trkpt>
      <trkpt lat="47.545515" lon="7.873015">
        <ele>363.200145</ele>
        <time>2021-11-10T20:38:35.464Z</time>
      </trkpt>
      <trkpt lat="47.545746" lon="7.873302">
        <ele>365.214847</ele>
        <time>2021-11-10T20:38:48.664Z</time>
      </trkpt>
      <trkpt lat="47.545934" lon="7.873549">
        <ele>366.622324</ele>
        <time>2021-11-10T20:38:58.764Z</time>
      </trkpt>
      <trkpt lat="47.546077" lon="7.873763">
        <ele>367.760834</ele>
        <time>2021-11-10T20:39:07.960Z</time>
      </trkpt>
      <trkpt lat="47.546135" lon="7.873859">
        <ele>368.247949</ele>
        <time>2021-11-10T20:39:11.199Z</time>
      </trkpt>
      <trkpt lat="47.546309" lon="7.874154">
        <ele>369.729119</ele>
        <time>2021-11-10T20:39:22.314Z</time>
      </trkpt>
      <trkpt lat="47.547126" lon="7.875801">
        <ele>375.879278</ele>
        <time>2021-11-10T20:40:08.075Z</time>
      </trkpt>
      <trkpt lat="47.547574" lon="7.876801">
        <ele>377.438669</ele>
        <time>2021-11-10T20:40:27.071Z</time>
      </trkpt>
      <trkpt lat="47.547992" lon="7.877974">
        <ele>377.444994</ele>
        <time>2021-11-10T20:40:39.871Z</time>
      </trkpt>
      <trkpt lat="47.548234" lon="7.878638">
        <ele>375.821658</ele>
        <time>2021-11-10T20:40:45.135Z</time>
      </trkpt>
      <trkpt lat="47.548422" lon="7.878959">
        <ele>374.907407</ele>
        <time>2021-11-10T20:40:47.905Z</time>
      </trkpt>
      <trkpt lat="47.548718" lon="7.879258">
        <ele>373.765612</ele>
        <time>2021-11-10T20:40:51.321Z</time>
      </trkpt>
      <trkpt lat="47.549140" lon="7.879391">
        <ele>372.255701</ele>
        <time>2021-11-10T20:40:55.390Z</time>
      </trkpt>
      <trkpt lat="47.549318" lon="7.879398">
        <ele>371.493191</ele>
        <time>2021-11-10T20:40:57.003Z</time>
      </trkpt>
      <trkpt lat="47.549426" lon="7.879394">
        <ele>371.030563</ele>
        <time>2021-11-10T20:40:58.046Z</time>
      </trkpt>
      <trkpt lat="47.549694" lon="7.879391">
        <ele>369.882886</ele>
        <time>2021-11-10T20:41:00.571Z</time>
      </trkpt>
      <trkpt lat="47.549920" lon="7.879395">
        <ele>368.915027</ele>
        <time>2021-11-10T20:41:02.766Z</time>
      </trkpt>
      <trkpt lat="47.549993" lon="7.879403">
        <ele>368.601569</ele>
        <time>2021-11-10T20:41:03.441Z</time>
      </trkpt>
      <trkpt lat="47.550458" lon="7.879428">
        <ele>366.609009</ele>
        <time>2021-11-10T20:41:07.940Z</time>
      </trkpt>
      <trkpt lat="47.550948" lon="7.879456">
        <ele>364.800009</ele>
        <time>2021-11-10T20:41:12.849Z</time>
      </trkpt>
      <trkpt lat="47.551453" lon="7.879539">
        <ele>363.731359</ele>
        <time>2021-11-10T20:41:18.470Z</time>
      </trkpt>
      <trkpt lat="47.551499" lon="7.879547">
        <ele>363.633946</ele>
        <time>2021-11-10T20:41:18.990Z</time>
      </trkpt>
      <trkpt lat="47.552616" lon="7.879896">
        <ele>361.207937</ele>
        <time>2021-11-10T20:41:32.009Z</time>
      </trkpt>
      <trkpt lat="47.553292" lon="7.880216">
        <ele>359.139140</ele>
        <time>2021-11-10T20:41:39.679Z</time>
      </trkpt>
      <trkpt lat="47.554555" lon="7.880902">
        <ele>354.907898</ele>
        <time>2021-11-10T20:41:53.105Z</time>
      </trkpt>
      <trkpt lat="47.554711" lon="7.880958">
        <ele>354.266732</ele>
        <time>2021-11-10T20:41:54.715Z</time>
      </trkpt>
      <trkpt lat="47.554840" lon="7.880981">
        <ele>353.747727</ele>
        <time>2021-11-10T20:41:55.932Z</time>
      </trkpt>
      <trkpt lat="47.554892" lon="7.880986">
        <ele>353.539577</ele>
        <time>2021-11-10T20:41:56.427Z</time>
      </trkpt>
      <trkpt lat="47.555165" lon="7.880954">
        <ele>352.445677</ele>
        <time>2021-11-10T20:41:59.106Z</time>
      </trkpt>
      <trkpt lat="47.555425" lon="7.880859">
        <ele>351.376002</ele>
        <time>2021-11-10T20:42:01.713Z</time>
      </trkpt>
      <trkpt lat="47.555605" lon="7.880857">
        <ele>350.656975</ele>
        <time>2021-11-10T20:42:03.417Z</time>
      </trkpt>
      <trkpt lat="47.555842" lon="7.880916">
        <ele>349.697015</ele>
        <time>2021-11-10T20:42:05.805Z</time>
      </trkpt>
      <trkpt lat="47.555895" lon="7.880943">
        <ele>349.473145</ele>
        <time>2021-11-10T20:42:06.327Z</time>
      </trkpt>
      <trkpt lat="47.556017" lon="7.881027">
        <ele>348.935777</ele>
        <time>2021-11-10T20:42:07.608Z</time>
      </trkpt>
      <trkpt lat="47.556273" lon="7.881274">
        <ele>347.811945</ele>
        <time>2021-11-10T20:42:10.596Z</time>
      </trkpt>
      <trkpt lat="47.557683" lon="7.883801">
        <ele>340.223416</ele>
        <time>2021-11-10T20:42:32.652Z</time>
      </trkpt>
      <trkpt lat="47.557899" lon="7.884061">
        <ele>339.407299</ele>
        <time>2021-11-10T20:42:35.513Z</time>
      </trkpt>
      <trkpt lat="47.557948" lon="7.884120">
        <ele>339.222138</ele>
        <time>2021-11-10T20:42:36.176Z</time>
      </trkpt>
      <trkpt lat="47.558177" lon="7.884403">
        <ele>338.347657</ele>
        <time>2021-11-10T20:42:40.664Z</time>
      </trkpt>
      <trkpt lat="47.558217" lon="7.884461">
        <ele>338.183532</ele>
        <time>2021-11-10T20:42:41.252Z</time>
      </trkpt>
      <trkpt lat="47.558492" lon="7.884797">
        <ele>337.138254</ele>
        <time>2021-11-10T20:42:45.062Z</time>
      </trkpt>
      <trkpt lat="47.558762" lon="7.885100">
        <ele>336.440320</ele>
        <time>2021-11-10T20:42:48.705Z</time>
      </trkpt>
      <trkpt lat="47.559366" lon="7.885628">
        <ele>335.085481</ele>
        <time>2021-11-10T20:42:56.444Z</time>
      </trkpt>
      <trkpt lat="47.559578" lon="7.885821">
        <ele>334.604780</ele>
        <time>2021-11-10T20:42:59.306Z</time>
      </trkpt>
      <trkpt lat="47.559831" lon="7.886054">
        <ele>334.029282</ele>
        <time>2021-11-10T20:43:02.679Z</time>
      </trkpt>
      <trkpt lat="47.560259" lon="7.886453">
        <ele>333.143020</ele>
        <time>2021-11-10T20:43:08.274Z</time>
      </trkpt>
      <trkpt lat="47.560668" lon="7.886926">
        <ele>332.328737</ele>
        <time>2021-11-10T20:43:14.150Z</time>
      </trkpt>
      <trkpt lat="47.560792" lon="7.887135">
        <ele>332.033988</ele>
        <time>2021-11-10T20:43:16.175Z</time>
      </trkpt>
      <trkpt lat="47.560813" lon="7.887166">
        <ele>331.987465</ele>
        <time>2021-11-10T20:43:16.523Z</time>
      </trkpt>
      <trkpt lat="47.561031" lon="7.887508">
        <ele>331.489192</ele>
        <time>2021-11-10T20:43:20.068Z</time>
      </trkpt>
      <trkpt lat="47.562511" lon="7.889545">
        <ele>329.408429</ele>
        <time>2021-11-10T20:43:44.617Z</time>
      </trkpt>
      <trkpt lat="47.562675" lon="7.889844">
        <ele>329.186089</ele>
        <time>2021-11-10T20:43:48.343Z</time>
      </trkpt>
      <trkpt lat="47.562802" lon="7.890077">
        <ele>329.233970</ele>
        <time>2021-11-10T20:43:51.220Z</time>
      </trkpt>
      <trkpt lat="47.562868" lon="7.890182">
        <ele>329.264556</ele>
        <time>2021-11-10T20:43:52.722Z</time>
      </trkpt>
      <trkpt lat="47.563039" lon="7.889397">
        <ele>329.440375</ele>
        <time>2021-11-10T20:44:01.163Z</time>
      </trkpt>
      <trkpt lat="47.563560" lon="7.887288">
        <ele>330.515884</ele>
        <time>2021-11-10T20:44:27.652Z</time>
      </trkpt>
      <trkpt lat="47.563657" lon="7.886867">
        <ele>330.931331</ele>
        <time>2021-11-10T20:44:33.648Z</time>
      </trkpt>
      <trkpt lat="47.563909" lon="7.886506">
        <ele>331.416396</ele>
        <time>2021-11-10T20:44:40.937Z</time>
      </trkpt>
      <trkpt lat="47.565560" lon="7.884206">
        <ele>335.892008</ele>
        <time>2021-11-10T20:45:33.319Z</time>
      </trkpt>
      <trkpt lat="47.566604" lon="7.882741">
        <ele>339.757828</ele>
        <time>2021-11-10T20:46:10.813Z</time>
      </trkpt>
      <trkpt lat="47.566690" lon="7.882620">
        <ele>340.082234</ele>
        <time>2021-11-10T20:46:14.198Z</time>
      </trkpt>
      <trkpt lat="47.567774" lon="7.881098">
        <ele>343.213316</ele>
        <time>2021-11-10T20:46:52.827Z</time>
      </trkpt>
      <trkpt lat="47.568855" lon="7.879614">
        <ele>343.943733</ele>
        <time>2021-11-10T20:47:17.229Z</time>
      </trkpt>
      <trkpt lat="47.569889" lon="7.878149">
        <ele>342.597717</ele>
        <time>2021-11-10T20:47:33.522Z</time>
      </trkpt>
      <trkpt lat="47.569974" lon="7.878003">
        <ele>342.393777</ele>
        <time>2021-11-10T20:47:34.957Z</time>
      </trkpt>
      <trkpt lat="47.570440" lon="7.877017">
        <ele>341.120654</ele>
        <time>2021-11-10T20:47:44.154Z</time>
      </trkpt>
      <trkpt lat="47.570733" lon="7.876421">
        <ele>340.369639</ele>
        <time>2021-11-10T20:47:49.960Z</time>
      </trkpt>
      <trkpt lat="47.571754" lon="7.874288">
        <ele>338.284151</ele>
        <time>2021-11-10T20:48:11.051Z</time>
      </trkpt>
      <trkpt lat="47.572765" lon="7.872183">
        <ele>336.900084</ele>
        <time>2021-11-10T20:48:32.730Z</time>
      </trkpt>
      <trkpt lat="47.572867" lon="7.871849">
        <ele>337.056511</ele>
        <time>2021-11-10T20:48:36.180Z</time>
      </trkpt>
      <trkpt lat="47.573081" lon="7.871074">
        <ele>337.457757</ele>
        <time>2021-11-10T20:48:45.277Z</time>
      </trkpt>
      <trkpt lat="47.573242" lon="7.870224">
        <ele>337.880787</ele>
        <time>2021-11-10T20:48:56.758Z</time>
      </trkpt>
      <trkpt lat="47.573270" lon="7.869980">
        <ele>337.999380</ele>
        <time>2021-11-10T20:49:00.204Z</time>
      </trkpt>
      <trkpt lat="47.573327" lon="7.869478">
        <ele>338.223240</ele>
        <time>2021-11-10T20:49:07.699Z</time>
      </trkpt>
      <trkpt lat="47.573388" lon="7.869020">
        <ele>338.387834</ele>
        <time>2021-11-10T20:49:14.636Z</time>
      </trkpt>
      <trkpt lat="47.573580" lon="7.868234">
        <ele>338.682558</ele>
        <time>2021-11-10T20:49:25.889Z</time>
      </trkpt>
      <trkpt lat="47.573902" lon="7.867343">
        <ele>339.038928</ele>
        <time>2021-11-10T20:49:37.072Z</time>
      </trkpt>
      <trkpt lat="47.574034" lon="7.867032">
        <ele>338.618815</ele>
        <time>2021-11-10T20:49:40.129Z</time>
      </trkpt>
      <trkpt lat="47.574854" lon="7.865675">
        <ele>333.485514</ele>
        <time>2021-11-10T20:49:52.467Z</time>
      </trkpt>
      <trkpt lat="47.575475" lon="7.864127">
        <ele>325.447190</ele>
        <time>2021-11-10T20:50:03.191Z</time>
      </trkpt>
      <trkpt lat="47.575527" lon="7.863840">
        <ele>323.830512</ele>
        <time>2021-11-10T20:50:05.011Z</time>
      </trkpt>
      <trkpt lat="47.575529" lon="7.863765">
        <ele>323.422177</ele>
        <time>2021-11-10T20:50:05.433Z</time>
      </trkpt>
      <trkpt lat="47.575529" lon="7.863690">
        <ele>323.014160</ele>
        <time>2021-11-10T20:50:05.861Z</time>
      </trkpt>
      <trkpt lat="47.575296" lon="7.862440">
        <ele>316.380404</ele>
        <time>2021-11-10T20:50:13.540Z</time>
      </trkpt>
      <trkpt lat="47.575288" lon="7.862118">
        <ele>315.280350</ele>
        <time>2021-11-10T20:50:15.421Z</time>
      </trkpt>
      <trkpt lat="47.575373" lon="7.861941">
        <ele>314.538606</ele>
        <time>2021-11-10T20:50:16.780Z</time>
      </trkpt>
      <trkpt lat="47.576083" lon="7.861029">
        <ele>309.784228</ele>
        <time>2021-11-10T20:50:25.709Z</time>
      </trkpt>
      <trkpt lat="47.576292" lon="7.860775">
        <ele>308.416528</ele>
        <time>2021-11-10T20:50:28.541Z</time>
      </trkpt>
      <trkpt lat="47.576060" lon="7.860505">
        <ele>307.910803</ele>
        <time>2021-11-10T20:50:33.604Z</time>
      </trkpt>
      <trkpt lat="47.575661" lon="7.860260">
        <ele>307.752109</ele>
        <time>2021-11-10T20:50:40.986Z</time>
      </trkpt>
      <trkpt lat="47.575482" lon="7.860014">
        <ele>307.662417</ele>
        <time>2021-11-10T20:50:46.019Z</time>
      </trkpt>
      <trkpt lat="47.575090" lon="7.859216">
        <ele>307.417716</ele>
        <time>2021-11-10T20:51:00.911Z</time>
      </trkpt>
      <trkpt lat="47.574369" lon="7.857634">
        <ele>307.515399</ele>
        <time>2021-11-10T20:51:29.586Z</time>
      </trkpt>
      <trkpt lat="47.574089" lon="7.857293">
        <ele>307.580891</ele>
        <time>2021-11-10T20:51:36.516Z</time>
      </trkpt>
      <trkpt lat="47.573544" lon="7.856804">
        <ele>307.565283</ele>
        <time>2021-11-10T20:51:48.670Z</time>
      </trkpt>
      <trkpt lat="47.572923" lon="7.856141">
        <ele>307.290735</ele>
        <time>2021-11-10T20:52:03.812Z</time>
      </trkpt>
      <trkpt lat="47.572248" lon="7.855212">
        <ele>306.878081</ele>
        <time>2021-11-10T20:52:20.825Z</time>
      </trkpt>
      <trkpt lat="47.571837" lon="7.854626">
        <ele>306.313225</ele>
        <time>2021-11-10T20:52:30.875Z</time>
      </trkpt>
      <trkpt lat="47.571655" lon="7.854341">
        <ele>306.050989</ele>
        <time>2021-11-10T20:52:35.302Z</time>
      </trkpt>
      <trkpt lat="47.571552" lon="7.854175">
        <ele>305.900280</ele>
        <time>2021-11-10T20:52:37.941Z</time>
      </trkpt>
      <trkpt lat="47.571426" lon="7.854000">
        <ele>305.729251</ele>
        <time>2021-11-10T20:52:40.833Z</time>
      </trkpt>
      <trkpt lat="47.570995" lon="7.853612">
        <ele>305.229783</ele>
        <time>2021-11-10T20:52:49.577Z</time>
      </trkpt>
      <trkpt lat="47.571006" lon="7.853563">
        <ele>305.207481</ele>
        <time>2021-11-10T20:52:50.088Z</time>
      </trkpt>
      <trkpt lat="47.571040" lon="7.853377">
        <ele>305.130774</ele>
        <time>2021-11-10T20:52:52.254Z</time>
      </trkpt>
      <trkpt lat="47.570248" lon="7.851287">
        <ele>304.176590</ele>
        <time>2021-11-10T20:53:22.064Z</time>
      </trkpt>
      <trkpt lat="47.569969" lon="7.850553">
        <ele>304.026775</ele>
        <time>2021-11-10T20:53:33.355Z</time>
      </trkpt>
      <trkpt lat="47.569218" lon="7.848472">
        <ele>303.560157</ele>
        <time>2021-11-10T20:54:04.231Z</time>
      </trkpt>
      <trkpt lat="47.569190" lon="7.848402">
        <ele>303.535626</ele>
        <time>2021-11-10T20:54:05.214Z</time>
      </trkpt>
      <trkpt lat="47.568515" lon="7.846479">
        <ele>302.899691</ele>
        <time>2021-11-10T20:54:32.210Z</time>
      </trkpt>
      <trkpt lat="47.568494" lon="7.846252">
        <ele>302.875770</ele>
        <time>2021-11-10T20:54:35.230Z</time>
      </trkpt>
      <trkpt lat="47.568507" lon="7.846212">
        <ele>302.871135</ele>
        <time>2021-11-10T20:54:35.729Z</time>
      </trkpt>
      <trkpt lat="47.568447" lon="7.846163">
        <ele>302.860534</ele>
        <time>2021-11-10T20:54:37.085Z</time>
      </trkpt>
      <trkpt lat="47.568380" lon="7.846056">
        <ele>302.845294</ele>
        <time>2021-11-10T20:54:39.036Z</time>
      </trkpt>
      <trkpt lat="47.568337" lon="7.845953">
        <ele>302.832648</ele>
        <time>2021-11-10T20:54:40.644Z</time>
      </trkpt>
      <trkpt lat="47.568270" lon="7.845762">
        <ele>302.810173</ele>
        <time>2021-11-10T20:54:43.454Z</time>
      </trkpt>
      <trkpt lat="47.567488" lon="7.843506">
        <ele>302.495792</ele>
        <time>2021-11-10T20:55:17.639Z</time>
      </trkpt>
      <trkpt lat="47.567439" lon="7.843376">
        <ele>302.471206</ele>
        <time>2021-11-10T20:55:19.608Z</time>
      </trkpt>
      <trkpt lat="47.566996" lon="7.842102">
        <ele>302.234569</ele>
        <time>2021-11-10T20:55:38.337Z</time>
      </trkpt>
      <trkpt lat="47.566903" lon="7.841865">
        <ele>302.188421</ele>
        <time>2021-11-10T20:55:41.702Z</time>
      </trkpt>
      <trkpt lat="47.566452" lon="7.840785">
        <ele>301.826844</ele>
        <time>2021-11-10T20:55:57.390Z</time>
      </trkpt>
      <trkpt lat="47.566401" lon="7.840664">
        <ele>301.786229</ele>
        <time>2021-11-10T20:55:59.146Z</time>
      </trkpt>
      <trkpt lat="47.566359" lon="7.840483">
        <ele>301.731740</ele>
        <time>2021-11-10T20:56:01.658Z</time>
      </trkpt>
      <trkpt lat="47.566350" lon="7.840350">
        <ele>301.693687</ele>
        <time>2021-11-10T20:56:03.420Z</time>
      </trkpt>
      <trkpt lat="47.566450" lon="7.840326">
        <ele>301.650945</ele>
        <time>2021-11-10T20:56:04.810Z</time>
      </trkpt>
      <trkpt lat="47.566515" lon="7.840312">
        <ele>301.623233</ele>
        <time>2021-11-10T20:56:05.658Z</time>
      </trkpt>
      <trkpt lat="47.566592" lon="7.840279">
        <ele>301.589414</ele>
        <time>2021-11-10T20:56:06.805Z</time>
      </trkpt>
      <trkpt lat="47.566826" lon="7.840179">
        <ele>301.486663</ele>
        <time>2021-11-10T20:56:10.159Z</time>
      </trkpt>
      <trkpt lat="47.567111" lon="7.839998">
        <ele>301.367042</ele>
        <time>2021-11-10T20:56:14.475Z</time>
      </trkpt>
      <trkpt lat="47.567406" lon="7.839778">
        <ele>301.248298</ele>
        <time>2021-11-10T20:56:19.019Z</time>
      </trkpt>
      <trkpt lat="47.567481" lon="7.839664">
        <ele>301.209669</ele>
        <time>2021-11-10T20:56:20.452Z</time>
      </trkpt>
      <trkpt lat="47.567510" lon="7.839548">
        <ele>301.179657</ele>
        <time>2021-11-10T20:56:21.660Z</time>
      </trkpt>
      <trkpt lat="47.567530" lon="7.839459">
        <ele>301.156899</ele>
        <time>2021-11-10T20:56:22.510Z</time>
      </trkpt>
      <trkpt lat="47.567564" lon="7.839283">
        <ele>301.112484</ele>
        <time>2021-11-10T20:56:24.143Z</time>
      </trkpt>
      <trkpt lat="47.567626" lon="7.839064">
        <ele>301.054865</ele>
        <time>2021-11-10T20:56:26.409Z</time>
      </trkpt>
      <trkpt lat="47.567634" lon="7.839037">
        <ele>301.047711</ele>
        <time>2021-11-10T20:56:26.642Z</time>
      </trkpt>
      <trkpt lat="47.567823" lon="7.838648">
        <ele>300.931414</ele>
        <time>2021-11-10T20:56:31.248Z</time>
      </trkpt>
      <trkpt lat="47.567846" lon="7.838609">
        <ele>300.918848</ele>
        <time>2021-11-10T20:56:31.683Z</time>
      </trkpt>
      <trkpt lat="47.567936" lon="7.838380">
        <ele>300.854553</ele>
        <time>2021-11-10T20:56:34.142Z</time>
      </trkpt>
      <trkpt lat="47.567961" lon="7.838248">
        <ele>300.821291</ele>
        <time>2021-11-10T20:56:35.512Z</time>
      </trkpt>
      <trkpt lat="47.567944" lon="7.838073">
        <ele>300.772718</ele>
        <time>2021-11-10T20:56:37.091Z</time>
      </trkpt>
      <trkpt lat="47.567822" lon="7.837479">
        <ele>300.490584</ele>
        <time>2021-11-10T20:56:42.506Z</time>
      </trkpt>
      <trkpt lat="47.567670" lon="7.836721">
        <ele>300.131270</ele>
        <time>2021-11-10T20:56:49.128Z</time>
      </trkpt>
      <trkpt lat="47.567647" lon="7.836576">
        <ele>300.063587</ele>
        <time>2021-11-10T20:56:50.389Z</time>
      </trkpt>
      <trkpt lat="47.567583" lon="7.836155">
        <ele>299.867494</ele>
        <time>2021-11-10T20:56:54.087Z</time>
      </trkpt>
      <trkpt lat="47.567562" lon="7.835760">
        <ele>299.687455</ele>
        <time>2021-11-10T20:56:57.542Z</time>
      </trkpt>
      <trkpt lat="47.567566" lon="7.835567">
        <ele>299.599716</ele>
        <time>2021-11-10T20:56:59.202Z</time>
      </trkpt>
      <trkpt lat="47.567674" lon="7.835182">
        <ele>299.451572</ele>
        <time>2021-11-10T20:57:02.852Z</time>
      </trkpt>
      <trkpt lat="47.567558" lon="7.835042">
        <ele>299.376305</ele>
        <time>2021-11-10T20:57:04.836Z</time>
      </trkpt>
      <trkpt lat="47.567516" lon="7.834956">
        <ele>299.340266</ele>
        <time>2021-11-10T20:57:05.781Z</time>
      </trkpt>
      <trkpt lat="47.567179" lon="7.834275">
        <ele>299.053570</ele>
        <time>2021-11-10T20:57:13.182Z</time>
      </trkpt>
      <trkpt lat="47.566744" lon="7.833235">
        <ele>298.668616</ele>
        <time>2021-11-10T20:57:24.414Z</time>
      </trkpt>
      <trkpt lat="47.566366" lon="7.832333">
        <ele>298.668128</ele>
        <time>2021-11-10T20:57:34.688Z</time>
      </trkpt>
      <trkpt lat="47.566013" lon="7.831442">
        <ele>298.667653</ele>
        <time>2021-11-10T20:57:45.319Z</time>
      </trkpt>
      <trkpt lat="47.566008" lon="7.831426">
        <ele>298.667645</ele>
        <time>2021-11-10T20:57:45.546Z</time>
      </trkpt>
      <trkpt lat="47.565741" lon="7.830588">
        <ele>298.759855</ele>
        <time>2021-11-10T20:57:55.105Z</time>
      </trkpt>
      <trkpt lat="47.565639" lon="7.830099">
        <ele>298.861916</ele>
        <time>2021-11-10T20:58:00.666Z</time>
      </trkpt>
      <trkpt lat="47.565511" lon="7.829497">
        <ele>298.987776</ele>
        <time>2021-11-10T20:58:07.561Z</time>
      </trkpt>
      <trkpt lat="47.565384" lon="7.828869">
        <ele>299.118505</ele>
        <time>2021-11-10T20:58:14.571Z</time>
      </trkpt>
      <trkpt lat="47.565225" lon="7.828079">
        <ele>299.688664</ele>
        <time>2021-11-10T20:58:23.267Z</time>
      </trkpt>
      <trkpt lat="47.565215" lon="7.828033">
        <ele>299.744898</ele>
        <time>2021-11-10T20:58:23.780Z</time>
      </trkpt>
      <trkpt lat="47.565115" lon="7.827488">
        <ele>300.402075</ele>
        <time>2021-11-10T20:58:30.577Z</time>
      </trkpt>
      <trkpt lat="47.565054" lon="7.827194">
        <ele>300.759975</ele>
        <time>2021-11-10T20:58:34.550Z</time>
      </trkpt>
      <trkpt lat="47.564863" lon="7.826667">
        <ele>301.456041</ele>
        <time>2021-11-10T20:58:43.906Z</time>
      </trkpt>
      <trkpt lat="47.564836" lon="7.826621">
        <ele>301.526983</ele>
        <time>2021-11-10T20:58:44.883Z</time>
      </trkpt>
      <trkpt lat="47.564805" lon="7.826569">
        <ele>301.607721</ele>
        <time>2021-11-10T20:58:46.092Z</time>
      </trkpt>
      <trkpt lat="47.564837" lon="7.826491">
        <ele>301.713940</ele>
        <time>2021-11-10T20:58:48.081Z</time>
      </trkpt>
      <trkpt lat="47.564804" lon="7.826144">
        <ele>302.121694</ele>
        <time>2021-11-10T20:58:55.959Z</time>
      </trkpt>
      <trkpt lat="47.564761" lon="7.826044">
        <ele>302.259671</ele>
        <time>2021-11-10T20:58:58.586Z</time>
      </trkpt>
      <trkpt lat="47.564726" lon="7.825870">
        <ele>302.646831</ele>
        <time>2021-11-10T20:59:03.069Z</time>
      </trkpt>
      <trkpt lat="47.564632" lon="7.824882">
        <ele>305.006991</ele>
        <time>2021-11-10T20:59:27.245Z</time>
      </trkpt>
      <trkpt lat="47.564621" lon="7.824630">
        <ele>305.604325</ele>
        <time>2021-11-10T20:59:33.875Z</time>
      </trkpt>
      <trkpt lat="47.564603" lon="7.824196">
        <ele>306.632859</ele>
        <time>2021-11-10T20:59:44.461Z</time>
      </trkpt>
      <trkpt lat="47.564596" lon="7.823971">
        <ele>307.165647</ele>
        <time>2021-11-10T20:59:49.688Z</time>
      </trkpt>
      <trkpt lat="47.564551" lon="7.823574">
        <ele>308.117881</ele>
        <time>2021-11-10T20:59:59.927Z</time>
      </trkpt>
      <trkpt lat="47.564531" lon="7.823338">
        <ele>308.625665</ele>
        <time>2021-11-10T21:00:05.297Z</time>
      </trkpt>
      <trkpt lat="47.564338" lon="7.820810">
        <ele>310.216139</ele>
        <time>2021-11-10T21:00:46.086Z</time>
      </trkpt>
      <trkpt lat="47.564264" lon="7.820324">
        <ele>309.877213</ele>
        <time>2021-11-10T21:00:51.617Z</time>
      </trkpt>
      <trkpt lat="47.564207" lon="7.820139">
        <ele>309.680364</ele>
        <time>2021-11-10T21:00:53.820Z</time>
      </trkpt>
      <trkpt lat="47.564083" lon="7.819689">
        <ele>309.209880</ele>
        <time>2021-11-10T21:00:59.101Z</time>
      </trkpt>
      <trkpt lat="47.563846" lon="7.818890">
        <ele>308.365085</ele>
        <time>2021-11-10T21:01:08.545Z</time>
      </trkpt>
      <trkpt lat="47.563292" lon="7.817642">
        <ele>307.160486</ele>
        <time>2021-11-10T21:01:24.702Z</time>
      </trkpt>
      <trkpt lat="47.562585" lon="7.816208">
        <ele>305.978036</ele>
        <time>2021-11-10T21:01:45.896Z</time>
      </trkpt>
      <trkpt lat="47.562165" lon="7.815429">
        <ele>306.266096</ele>
        <time>2021-11-10T21:02:00.187Z</time>
      </trkpt>
      <trkpt lat="47.561915" lon="7.815075">
        <ele>306.463129</ele>
        <time>2021-11-10T21:02:08.175Z</time>
      </trkpt>
      <trkpt lat="47.561796" lon="7.814938">
        <ele>306.548995</ele>
        <time>2021-11-10T21:02:11.790Z</time>
      </trkpt>
      <trkpt lat="47.561285" lon="7.814314">
        <ele>306.926297</ele>
        <time>2021-11-10T21:02:27.861Z</time>
      </trkpt>
      <trkpt lat="47.561222" lon="7.814241">
        <ele>306.953139</ele>
        <time>2021-11-10T21:02:29.988Z</time>
      </trkpt>
      <trkpt lat="47.560566" lon="7.813439">
        <ele>307.128600</ele>
        <time>2021-11-10T21:02:50.571Z</time>
      </trkpt>
      <trkpt lat="47.560089" lon="7.812856">
        <ele>307.256170</ele>
        <time>2021-11-10T21:03:02.090Z</time>
      </trkpt>
      <trkpt lat="47.559685" lon="7.812338">
        <ele>307.149141</ele>
        <time>2021-11-10T21:03:11.566Z</time>
      </trkpt>
      <trkpt lat="47.559556" lon="7.812039">
        <ele>306.995195</ele>
        <time>2021-11-10T21:03:15.874Z</time>
      </trkpt>
      <trkpt lat="47.559352" lon="7.811707">
        <ele>306.800417</ele>
        <time>2021-11-10T21:03:21.062Z</time>
      </trkpt>
      <trkpt lat="47.559226" lon="7.811439">
        <ele>306.658728</ele>
        <time>2021-11-10T21:03:45.358Z</time>
      </trkpt>
      <trkpt lat="47.559209" lon="7.811347">
        <ele>306.617350</ele>
        <time>2021-11-10T21:03:52.432Z</time>
      </trkpt>
      <trkpt lat="47.559195" lon="7.811248">
        <ele>306.573471</ele>
        <time>2021-11-10T21:03:59.467Z</time>
      </trkpt>
      <trkpt lat="47.559169" lon="7.811255">
        <ele>306.556484</ele>
        <time>2021-11-10T21:04:00.254Z</time>
      </trkpt>
      <trkpt lat="47.559109" lon="7.811205">
        <ele>306.512234</ele>
        <time>2021-11-10T21:04:01.190Z</time>
      </trkpt>
      <trkpt lat="47.558535" lon="7.810133">
        <ele>305.943060</ele>
        <time>2021-11-10T21:04:13.196Z</time>
      </trkpt>
      <trkpt lat="47.558370" lon="7.809826">
        <ele>305.790246</ele>
        <time>2021-11-10T21:04:16.779Z</time>
      </trkpt>
      <trkpt lat="47.558021" lon="7.809164">
        <ele>305.463153</ele>
        <time>2021-11-10T21:04:25.153Z</time>
      </trkpt>
      <trkpt lat="47.557309" lon="7.807844">
        <ele>304.190140</ele>
        <time>2021-11-10T21:04:39.030Z</time>
      </trkpt>
      <trkpt lat="47.557003" lon="7.807269">
        <ele>303.347301</ele>
        <time>2021-11-10T21:04:44.567Z</time>
      </trkpt>
      <trkpt lat="47.556616" lon="7.806548">
        <ele>302.286953</ele>
        <time>2021-11-10T21:04:51.243Z</time>
      </trkpt>
      <trkpt lat="47.556451" lon="7.806250">
        <ele>301.791502</ele>
        <time>2021-11-10T21:04:54.112Z</time>
      </trkpt>
      <trkpt lat="47.556315" lon="7.806002">
        <ele>301.332423</ele>
        <time>2021-11-10T21:04:56.449Z</time>
      </trkpt>
      <trkpt lat="47.556119" lon="7.805632">
        <ele>300.656678</ele>
        <time>2021-11-10T21:04:59.890Z</time>
      </trkpt>
      <trkpt lat="47.556046" lon="7.805515">
        <ele>300.427764</ele>
        <time>2021-11-10T21:05:01.075Z</time>
      </trkpt>
      <trkpt lat="47.555971" lon="7.805417">
        <ele>300.214898</ele>
        <time>2021-11-10T21:05:02.155Z</time>
      </trkpt>
      <trkpt lat="47.555886" lon="7.805343">
        <ele>300.005034</ele>
        <time>2021-11-10T21:05:03.208Z</time>
      </trkpt>
      <trkpt lat="47.555741" lon="7.805266">
        <ele>299.677141</ele>
        <time>2021-11-10T21:05:04.928Z</time>
      </trkpt>
      <trkpt lat="47.555230" lon="7.805228">
        <ele>298.587979</ele>
        <time>2021-11-10T21:05:10.448Z</time>
      </trkpt>
      <trkpt lat="47.554916" lon="7.805195">
        <ele>297.988565</ele>
        <time>2021-11-10T21:05:13.847Z</time>
      </trkpt>
      <trkpt lat="47.554809" lon="7.805192">
        <ele>297.813513</ele>
        <time>2021-11-10T21:05:14.996Z</time>
      </trkpt>
      <trkpt lat="47.554810" lon="7.805056">
        <ele>297.663371</ele>
        <time>2021-11-10T21:05:16.498Z</time>
      </trkpt>
      <trkpt lat="47.554808" lon="7.804930">
        <ele>297.524239</ele>
        <time>2021-11-10T21:05:17.772Z</time>
      </trkpt>
      <trkpt lat="47.554769" lon="7.804587">
        <ele>297.140260</ele>
        <time>2021-11-10T21:05:21.484Z</time>
      </trkpt>
      <trkpt lat="47.554726" lon="7.804275">
        <ele>296.788730</ele>
        <time>2021-11-10T21:05:24.880Z</time>
      </trkpt>
      <trkpt lat="47.554639" lon="7.803656">
        <ele>296.090744</ele>
        <time>2021-11-10T21:05:31.906Z</time>
      </trkpt>
      <trkpt lat="47.554459" lon="7.802666">
        <ele>295.231277</ele>
        <time>2021-11-10T21:05:43.493Z</time>
      </trkpt>
      <trkpt lat="47.554402" lon="7.802456">
        <ele>295.192681</ele>
        <time>2021-11-10T21:05:46.512Z</time>
      </trkpt>
      <trkpt lat="47.554367" lon="7.802333">
        <ele>295.169919</ele>
        <time>2021-11-10T21:05:48.271Z</time>
      </trkpt>
      <trkpt lat="47.553823" lon="7.801201">
        <ele>294.932954</ele>
        <time>2021-11-10T21:06:07.292Z</time>
      </trkpt>
      <trkpt lat="47.553782" lon="7.800961">
        <ele>294.890738</ele>
        <time>2021-11-10T21:06:10.955Z</time>
      </trkpt>
      <trkpt lat="47.553794" lon="7.800894">
        <ele>294.878918</ele>
        <time>2021-11-10T21:06:11.732Z</time>
      </trkpt>
      <trkpt lat="47.553712" lon="7.800873">
        <ele>294.857892</ele>
        <time>2021-11-10T21:06:13.445Z</time>
      </trkpt>
      <trkpt lat="47.553618" lon="7.800833">
        <ele>294.833182</ele>
        <time>2021-11-10T21:06:15.679Z</time>
      </trkpt>
      <trkpt lat="47.553550" lon="7.800790">
        <ele>294.770475</ele>
        <time>2021-11-10T21:06:17.488Z</time>
      </trkpt>
      <trkpt lat="47.553424" lon="7.800651">
        <ele>294.586204</ele>
        <time>2021-11-10T21:06:20.334Z</time>
      </trkpt>
      <trkpt lat="47.553292" lon="7.800469">
        <ele>294.374691</ele>
        <time>2021-11-10T21:06:24.431Z</time>
      </trkpt>
      <trkpt lat="47.553160" lon="7.800232">
        <ele>294.131418</ele>
        <time>2021-11-10T21:06:28.167Z</time>
      </trkpt>
      <trkpt lat="47.552829" lon="7.799559">
        <ele>293.472138</ele>
        <time>2021-11-10T21:06:37.867Z</time>
      </trkpt>
      <trkpt lat="47.552439" lon="7.798990">
        <ele>292.830088</ele>
        <time>2021-11-10T21:06:46.682Z</time>
      </trkpt>
      <trkpt lat="47.552289" lon="7.798703">
        <ele>292.222070</ele>
        <time>2021-11-10T21:06:50.307Z</time>
      </trkpt>
      <trkpt lat="47.552186" lon="7.798449">
        <ele>291.555142</ele>
        <time>2021-11-10T21:06:53.269Z</time>
      </trkpt>
      <trkpt lat="47.552152" lon="7.798359">
        <ele>291.323006</ele>
        <time>2021-11-10T21:06:54.219Z</time>
      </trkpt>
      <trkpt lat="47.552120" lon="7.798162">
        <ele>290.866958</ele>
        <time>2021-11-10T21:06:56.262Z</time>
      </trkpt>
      <trkpt lat="47.552084" lon="7.798083">
        <ele>290.652419</ele>
        <time>2021-11-10T21:06:57.170Z</time>
      </trkpt>
      <trkpt lat="47.552152" lon="7.797876">
        <ele>290.134269</ele>
        <time>2021-11-10T21:06:58.690Z</time>
      </trkpt>
      <trkpt lat="47.552191" lon="7.797781">
        <ele>289.884005</ele>
        <time>2021-11-10T21:06:59.452Z</time>
      </trkpt>
      <trkpt lat="47.552493" lon="7.797048">
        <ele>287.951147</ele>
        <time>2021-11-10T21:07:05.094Z</time>
      </trkpt>
      <trkpt lat="47.552762" lon="7.796425">
        <ele>286.464396</ele>
        <time>2021-11-10T21:07:10.058Z</time>
      </trkpt>
      <trkpt lat="47.552817" lon="7.796239">
        <ele>286.195454</ele>
        <time>2021-11-10T21:07:11.488Z</time>
      </trkpt>
      <trkpt lat="47.552886" lon="7.795976">
        <ele>285.821749</ele>
        <time>2021-11-10T21:07:13.477Z</time>
      </trkpt>
      <trkpt lat="47.552911" lon="7.795759">
        <ele>285.530200</ele>
        <time>2021-11-10T21:07:15.169Z</time>
      </trkpt>
      <trkpt lat="47.552930" lon="7.795600">
        <ele>285.316348</ele>
        <time>2021-11-10T21:07:16.394Z</time>
      </trkpt>
      <trkpt lat="47.552917" lon="7.795354">
        <ele>284.989552</ele>
        <time>2021-11-10T21:07:18.320Z</time>
      </trkpt>
      <trkpt lat="47.552909" lon="7.795229">
        <ele>284.823261</ele>
        <time>2021-11-10T21:07:19.322Z</time>
      </trkpt>
      <trkpt lat="47.552892" lon="7.795106">
        <ele>284.656981</ele>
        <time>2021-11-10T21:07:20.245Z</time>
      </trkpt>
      <trkpt lat="47.552861" lon="7.794992">
        <ele>284.494207</ele>
        <time>2021-11-10T21:07:21.131Z</time>
      </trkpt>
      <trkpt lat="47.552837" lon="7.794925">
        <ele>284.393749</ele>
        <time>2021-11-10T21:07:21.709Z</time>
      </trkpt>
      <trkpt lat="47.552826" lon="7.794894">
        <ele>284.347365</ele>
        <time>2021-11-10T21:07:21.976Z</time>
      </trkpt>
      <trkpt lat="47.552786" lon="7.794796">
        <ele>284.195686</ele>
        <time>2021-11-10T21:07:22.823Z</time>
      </trkpt>
      <trkpt lat="47.552763" lon="7.794750">
        <ele>284.119867</ele>
        <time>2021-11-10T21:07:23.354Z</time>
      </trkpt>
      <trkpt lat="47.552644" lon="7.794507">
        <ele>283.722246</ele>
        <time>2021-11-10T21:07:25.610Z</time>
      </trkpt>
      <trkpt lat="47.552532" lon="7.794285">
        <ele>283.355166</ele>
        <time>2021-11-10T21:07:27.796Z</time>
      </trkpt>
      <trkpt lat="47.552494" lon="7.794200">
        <ele>283.220135</ele>
        <time>2021-11-10T21:07:28.597Z</time>
      </trkpt>
      <trkpt lat="47.552384" lon="7.793915">
        <ele>283.071442</ele>
        <time>2021-11-10T21:07:31.352Z</time>
      </trkpt>
      <trkpt lat="47.552369" lon="7.793872">
        <ele>283.052759</ele>
        <time>2021-11-10T21:07:32.001Z</time>
      </trkpt>
      <trkpt lat="47.552292" lon="7.793607">
        <ele>282.941395</ele>
        <time>2021-11-10T21:07:34.379Z</time>
      </trkpt>
      <trkpt lat="47.552233" lon="7.793294">
        <ele>282.815957</ele>
        <time>2021-11-10T21:07:37.794Z</time>
      </trkpt>
      <trkpt lat="47.552216" lon="7.793160">
        <ele>282.763329</ele>
        <time>2021-11-10T21:07:38.953Z</time>
      </trkpt>
      <trkpt lat="47.552198" lon="7.792976">
        <ele>282.691564</ele>
        <time>2021-11-10T21:07:40.687Z</time>
      </trkpt>
      <trkpt lat="47.552184" lon="7.792540">
        <ele>282.523082</ele>
        <time>2021-11-10T21:07:45.095Z</time>
      </trkpt>
      <trkpt lat="47.552180" lon="7.792294">
        <ele>282.428101</ele>
        <time>2021-11-10T21:07:47.614Z</time>
      </trkpt>
      <trkpt lat="47.552182" lon="7.792040">
        <ele>282.330053</ele>
        <time>2021-11-10T21:07:49.780Z</time>
      </trkpt>
      <trkpt lat="47.552201" lon="7.791031">
        <ele>281.849872</ele>
        <time>2021-11-10T21:07:58.278Z</time>
      </trkpt>
      <trkpt lat="47.552135" lon="7.790302">
        <ele>281.449110</ele>
        <time>2021-11-10T21:08:04.706Z</time>
      </trkpt>
      <trkpt lat="47.552036" lon="7.789826">
        <ele>281.177720</ele>
        <time>2021-11-10T21:08:09.036Z</time>
      </trkpt>
      <trkpt lat="47.551858" lon="7.788906">
        <ele>280.633501</ele>
        <time>2021-11-10T21:08:16.964Z</time>
      </trkpt>
      <trkpt lat="47.551712" lon="7.788013">
        <ele>279.914544</ele>
        <time>2021-11-10T21:08:24.398Z</time>
      </trkpt>
      <trkpt lat="47.551694" lon="7.787879">
        <ele>279.807636</ele>
        <time>2021-11-10T21:08:25.512Z</time>
      </trkpt>
      <trkpt lat="47.551690" lon="7.787827">
        <ele>279.766684</ele>
        <time>2021-11-10T21:08:25.938Z</time>
      </trkpt>
      <trkpt lat="47.551672" lon="7.787603">
        <ele>279.590172</ele>
        <time>2021-11-10T21:08:27.691Z</time>
      </trkpt>
      <trkpt lat="47.551629" lon="7.786978">
        <ele>279.098592</ele>
        <time>2021-11-10T21:08:32.724Z</time>
      </trkpt>
      <trkpt lat="47.551498" lon="7.785081">
        <ele>277.879886</ele>
        <time>2021-11-10T21:08:48.096Z</time>
      </trkpt>
      <trkpt lat="47.551479" lon="7.784929">
        <ele>277.791454</ele>
        <time>2021-11-10T21:08:49.345Z</time>
      </trkpt>
      <trkpt lat="47.551510" lon="7.784910">
        <ele>277.763020</ele>
        <time>2021-11-10T21:08:49.821Z</time>
      </trkpt>
      <trkpt lat="47.551531" lon="7.784884">
        <ele>277.739824</ele>
        <time>2021-11-10T21:08:50.180Z</time>
      </trkpt>
      <trkpt lat="47.551548" lon="7.784841">
        <ele>277.711316</ele>
        <time>2021-11-10T21:08:50.663Z</time>
      </trkpt>
      <trkpt lat="47.551554" lon="7.784788">
        <ele>277.680573</ele>
        <time>2021-11-10T21:08:51.149Z</time>
      </trkpt>
      <trkpt lat="47.551547" lon="7.784737">
        <ele>277.650801</ele>
        <time>2021-11-10T21:08:51.612Z</time>
      </trkpt>
      <trkpt lat="47.551525" lon="7.784691">
        <ele>277.618549</ele>
        <time>2021-11-10T21:08:52.129Z</time>
      </trkpt>
      <trkpt lat="47.551500" lon="7.784666">
        <ele>277.592985</ele>
        <time>2021-11-10T21:08:52.514Z</time>
      </trkpt>
      <trkpt lat="47.551472" lon="7.784654">
        <ele>277.568280</ele>
        <time>2021-11-10T21:08:52.884Z</time>
      </trkpt>
      <trkpt lat="47.551437" lon="7.784657">
        <ele>277.538565</ele>
        <time>2021-11-10T21:08:53.315Z</time>
      </trkpt>
      <trkpt lat="47.551439" lon="7.784323">
        <ele>277.347489</ele>
        <time>2021-11-10T21:08:56.309Z</time>
      </trkpt>
      <trkpt lat="47.551416" lon="7.784055">
        <ele>277.192942</ele>
        <time>2021-11-10T21:08:58.610Z</time>
      </trkpt>
      <trkpt lat="47.551302" lon="7.782671">
        <ele>276.936454</ele>
        <time>2021-11-10T21:09:12.062Z</time>
      </trkpt>
      <trkpt lat="47.551230" lon="7.781831">
        <ele>276.824736</ele>
        <time>2021-11-10T21:09:20.233Z</time>
      </trkpt>
      <trkpt lat="47.551198" lon="7.781475">
        <ele>276.777351</ele>
        <time>2021-11-10T21:09:23.772Z</time>
      </trkpt>
      <trkpt lat="47.551270" lon="7.781390">
        <ele>276.759354</ele>
        <time>2021-11-10T21:09:25.553Z</time>
      </trkpt>
      <trkpt lat="47.551208" lon="7.780694">
        <ele>276.595000</ele>
        <time>2021-11-10T21:09:32.311Z</time>
      </trkpt>
      <trkpt lat="47.551085" lon="7.779125">
        <ele>276.200516</ele>
        <time>2021-11-10T21:09:46.810Z</time>
      </trkpt>
      <trkpt lat="47.550982" lon="7.777915">
        <ele>275.979679</ele>
        <time>2021-11-10T21:09:57.376Z</time>
      </trkpt>
      <trkpt lat="47.550963" lon="7.777797">
        <ele>275.963055</ele>
        <time>2021-11-10T21:09:58.385Z</time>
      </trkpt>
      <trkpt lat="47.550809" lon="7.776854">
        <ele>275.830098</ele>
        <time>2021-11-10T21:10:07.555Z</time>
      </trkpt>
      <trkpt lat="47.550782" lon="7.776690">
        <ele>275.806965</ele>
        <time>2021-11-10T21:10:09.153Z</time>
      </trkpt>
      <trkpt lat="47.550607" lon="7.775871">
        <ele>275.782944</ele>
        <time>2021-11-10T21:10:18.502Z</time>
      </trkpt>
      <trkpt lat="47.550598" lon="7.775828">
        <ele>275.798129</ele>
        <time>2021-11-10T21:10:18.987Z</time>
      </trkpt>
      <trkpt lat="47.550505" lon="7.775364">
        <ele>275.961383</ele>
        <time>2021-11-10T21:10:24.501Z</time>
      </trkpt>
      <trkpt lat="47.550320" lon="7.774602">
        <ele>276.234515</ele>
        <time>2021-11-10T21:10:33.960Z</time>
      </trkpt>
      <trkpt lat="47.550090" lon="7.773646">
        <ele>276.576833</ele>
        <time>2021-11-10T21:10:45.833Z</time>
      </trkpt>
      <trkpt lat="47.550061" lon="7.773283">
        <ele>276.671037</ele>
        <time>2021-11-10T21:10:49.971Z</time>
      </trkpt>
      <trkpt lat="47.550203" lon="7.772543">
        <ele>276.841714</ele>
        <time>2021-11-10T21:10:58.181Z</time>
      </trkpt>
      <trkpt lat="47.550199" lon="7.772076">
        <ele>276.945327</ele>
        <time>2021-11-10T21:11:03.156Z</time>
      </trkpt>
      <trkpt lat="47.550069" lon="7.771373">
        <ele>277.107037</ele>
        <time>2021-11-10T21:11:10.714Z</time>
      </trkpt>
      <trkpt lat="47.549845" lon="7.770734">
        <ele>277.375083</ele>
        <time>2021-11-10T21:11:18.771Z</time>
      </trkpt>
      <trkpt lat="47.549714" lon="7.770276">
        <ele>277.683201</ele>
        <time>2021-11-10T21:11:24.562Z</time>
      </trkpt>
      <trkpt lat="47.549678" lon="7.770148">
        <ele>277.769095</ele>
        <time>2021-11-10T21:11:26.280Z</time>
      </trkpt>
      <trkpt lat="47.549426" lon="7.769107">
        <ele>278.454134</ele>
        <time>2021-11-10T21:11:39.847Z</time>
      </trkpt>
      <trkpt lat="47.549363" lon="7.768846">
        <ele>278.625832</ele>
        <time>2021-11-10T21:11:43.576Z</time>
      </trkpt>
      <trkpt lat="47.549184" lon="7.768021">
        <ele>279.137360</ele>
        <time>2021-11-10T21:11:55.913Z</time>
      </trkpt>
      <trkpt lat="47.548990" lon="7.767248">
        <ele>279.605993</ele>
        <time>2021-11-10T21:12:07.751Z</time>
      </trkpt>
      <trkpt lat="47.548565" lon="7.765680">
        <ele>280.124000</ele>
        <time>2021-11-10T21:12:26.810Z</time>
      </trkpt>
      <trkpt lat="47.547909" lon="7.763208">
        <ele>278.098346</ele>
        <time>2021-11-10T21:12:47.684Z</time>
      </trkpt>
      <trkpt lat="47.547891" lon="7.763123">
        <ele>278.004683</ele>
        <time>2021-11-10T21:12:48.313Z</time>
      </trkpt>
      <trkpt lat="47.547848" lon="7.762928">
        <ele>277.789000</ele>
        <time>2021-11-10T21:12:49.832Z</time>
      </trkpt>
      <trkpt lat="47.547778" lon="7.762713">
        <ele>277.538028</ele>
        <time>2021-11-10T21:12:51.646Z</time>
      </trkpt>
      <trkpt lat="47.547577" lon="7.762307">
        <ele>277.008653</ele>
        <time>2021-11-10T21:12:55.417Z</time>
      </trkpt>
      <trkpt lat="47.547194" lon="7.761352">
        <ele>275.840708</ele>
        <time>2021-11-10T21:13:03.919Z</time>
      </trkpt>
      <trkpt lat="47.546989" lon="7.760612">
        <ele>275.726546</ele>
        <time>2021-11-10T21:13:10.399Z</time>
      </trkpt>
      <trkpt lat="47.546948" lon="7.760482">
        <ele>275.744772</ele>
        <time>2021-11-10T21:13:11.647Z</time>
      </trkpt>
      <trkpt lat="47.546870" lon="7.760301">
        <ele>275.772047</ele>
        <time>2021-11-10T21:13:13.548Z</time>
      </trkpt>
      <trkpt lat="47.546804" lon="7.760164">
        <ele>275.793425</ele>
        <time>2021-11-10T21:13:15.000Z</time>
      </trkpt>
      <trkpt lat="47.546552" lon="7.759727">
        <ele>275.866428</ele>
        <time>2021-11-10T21:13:20.984Z</time>
      </trkpt>
      <trkpt lat="47.546312" lon="7.759326">
        <ele>275.934500</ele>
        <time>2021-11-10T21:13:27.463Z</time>
      </trkpt>
      <trkpt lat="47.546264" lon="7.759224">
        <ele>275.950293</ele>
        <time>2021-11-10T21:13:29.055Z</time>
      </trkpt>
      <trkpt lat="47.545911" lon="7.758393">
        <ele>277.438018</ele>
        <time>2021-11-10T21:13:45.484Z</time>
      </trkpt>
      <trkpt lat="47.545677" lon="7.757815">
        <ele>278.844386</ele>
        <time>2021-11-10T21:13:57.888Z</time>
      </trkpt>
      <trkpt lat="47.545676" lon="7.757812">
        <ele>278.851368</ele>
        <time>2021-11-10T21:13:58.135Z</time>
      </trkpt>
      <trkpt lat="47.545429" lon="7.757231">
        <ele>280.284120</ele>
        <time>2021-11-10T21:14:11.282Z</time>
      </trkpt>
      <trkpt lat="47.545360" lon="7.757065">
        <ele>280.690910</ele>
        <time>2021-11-10T21:14:15.874Z</time>
      </trkpt>
      <trkpt lat="47.545326" lon="7.756949">
        <ele>280.954796</ele>
        <time>2021-11-10T21:14:18.582Z</time>
      </trkpt>
      <trkpt lat="47.545304" lon="7.756852">
        <ele>281.168322</ele>
        <time>2021-11-10T21:14:20.968Z</time>
      </trkpt>
      <trkpt lat="47.545260" lon="7.756637">
        <ele>281.627458</ele>
        <time>2021-11-10T21:14:25.911Z</time>
      </trkpt>
      <trkpt lat="47.545021" lon="7.756243">
        <ele>282.614551</ele>
        <time>2021-11-10T21:14:37.001Z</time>
      </trkpt>
      <trkpt lat="47.544022" lon="7.753705">
        <ele>287.376327</ele>
        <time>2021-11-10T21:15:25.202Z</time>
      </trkpt>
      <trkpt lat="47.543798" lon="7.753068">
        <ele>288.109689</ele>
        <time>2021-11-10T21:15:34.940Z</time>
      </trkpt>
      <trkpt lat="47.543488" lon="7.751958">
        <ele>289.267473</ele>
        <time>2021-11-10T21:15:50.544Z</time>
      </trkpt>
      <trkpt lat="47.543319" lon="7.751355">
        <ele>289.491151</ele>
        <time>2021-11-10T21:15:58.171Z</time>
      </trkpt>
      <trkpt lat="47.543222" lon="7.751091">
        <ele>289.594124</ele>
        <time>2021-11-10T21:16:01.400Z</time>
      </trkpt>
      <trkpt lat="47.543115" lon="7.750826">
        <ele>289.699912</ele>
        <time>2021-11-10T21:16:06.209Z</time>
      </trkpt>
      <trkpt lat="47.543033" lon="7.750614">
        <ele>289.783619</ele>
        <time>2021-11-10T21:16:08.731Z</time>
      </trkpt>
      <trkpt lat="47.542693" lon="7.749918">
        <ele>290.077949</ele>
        <time>2021-11-10T21:16:18.418Z</time>
      </trkpt>
      <trkpt lat="47.542614" lon="7.749755">
        <ele>290.145646</ele>
        <time>2021-11-10T21:16:20.377Z</time>
      </trkpt>
      <trkpt lat="47.542390" lon="7.749307">
        <ele>290.154074</ele>
        <time>2021-11-10T21:16:26.218Z</time>
      </trkpt>
      <trkpt lat="47.542347" lon="7.749227">
        <ele>290.155620</ele>
        <time>2021-11-10T21:16:27.780Z</time>
      </trkpt>
      <trkpt lat="47.542132" lon="7.748742">
        <ele>290.164392</ele>
        <time>2021-11-10T21:16:35.352Z</time>
      </trkpt>
      <trkpt lat="47.541758" lon="7.747784">
        <ele>290.181123</ele>
        <time>2021-11-10T21:16:50.008Z</time>
      </trkpt>
      <trkpt lat="47.541583" lon="7.747186">
        <ele>290.195959</ele>
        <time>2021-11-10T21:16:59.186Z</time>
      </trkpt>
      <trkpt lat="47.541511" lon="7.746885">
        <ele>290.205506</ele>
        <time>2021-11-10T21:17:03.657Z</time>
      </trkpt>
      <trkpt lat="47.541432" lon="7.746552">
        <ele>290.216058</ele>
        <time>2021-11-10T21:17:08.768Z</time>
      </trkpt>
      <trkpt lat="47.541167" lon="7.745463">
        <ele>290.250666</ele>
        <time>2021-11-10T21:17:24.579Z</time>
      </trkpt>
      <trkpt lat="47.541160" lon="7.745250">
        <ele>290.257042</ele>
        <time>2021-11-10T21:17:27.433Z</time>
      </trkpt>
      <trkpt lat="47.541148" lon="7.745144">
        <ele>290.260255</ele>
        <time>2021-11-10T21:17:28.962Z</time>
      </trkpt>
      <trkpt lat="47.541130" lon="7.745083">
        <ele>290.262245</ele>
        <time>2021-11-10T21:17:29.884Z</time>
      </trkpt>
      <trkpt lat="47.541038" lon="7.744940">
        <ele>290.266829</ele>
        <time>2021-11-10T21:17:32.267Z</time>
      </trkpt>
      <trkpt lat="47.541019" lon="7.744859">
        <ele>290.268097</ele>
        <time>2021-11-10T21:17:33.503Z</time>
      </trkpt>
      <trkpt lat="47.540913" lon="7.744421">
        <ele>290.274977</ele>
        <time>2021-11-10T21:17:40.054Z</time>
      </trkpt>
      <trkpt lat="47.540738" lon="7.743641">
        <ele>290.287132</ele>
        <time>2021-11-10T21:17:51.882Z</time>
      </trkpt>
      <trkpt lat="47.540617" lon="7.742875">
        <ele>290.298765</ele>
        <time>2021-11-10T21:18:02.833Z</time>
      </trkpt>
      <trkpt lat="47.540589" lon="7.742558">
        <ele>290.303493</ele>
        <time>2021-11-10T21:18:07.207Z</time>
      </trkpt>
      <trkpt lat="47.540552" lon="7.742240">
        <ele>290.189451</ele>
        <time>2021-11-10T21:18:11.465Z</time>
      </trkpt>
      <trkpt lat="47.540548" lon="7.742176">
        <ele>290.156487</ele>
        <time>2021-11-10T21:18:12.321Z</time>
      </trkpt>
      <trkpt lat="47.540438" lon="7.740453">
        <ele>289.268865</ele>
        <time>2021-11-10T21:18:33.319Z</time>
      </trkpt>
      <trkpt lat="47.540374" lon="7.739620">
        <ele>288.795783</ele>
        <time>2021-11-10T21:18:42.773Z</time>
      </trkpt>
      <trkpt lat="47.540372" lon="7.739490">
        <ele>288.700221</ele>
        <time>2021-11-10T21:18:44.321Z</time>
      </trkpt>
      <trkpt lat="47.540387" lon="7.739372">
        <ele>288.611979</ele>
        <time>2021-11-10T21:18:45.806Z</time>
      </trkpt>
      <trkpt lat="47.540394" lon="7.739259">
        <ele>288.528586</ele>
        <time>2021-11-10T21:18:47.135Z</time>
      </trkpt>
      <trkpt lat="47.540388" lon="7.739213">
        <ele>288.494156</ele>
        <time>2021-11-10T21:18:47.527Z</time>
      </trkpt>
      <trkpt lat="47.540032" lon="7.737141">
        <ele>286.991433</ele>
        <time>2021-11-10T21:19:12.050Z</time>
      </trkpt>
      <trkpt lat="47.539305" lon="7.734151">
        <ele>287.662186</ele>
        <time>2021-11-10T21:19:58.843Z</time>
      </trkpt>
      <trkpt lat="47.539263" lon="7.733885">
        <ele>287.803430</ele>
        <time>2021-11-10T21:20:03.244Z</time>
      </trkpt>
      <trkpt lat="47.539178" lon="7.733656">
        <ele>287.938550</ele>
        <time>2021-11-10T21:20:07.394Z</time>
      </trkpt>
      <trkpt lat="47.538887" lon="7.732454">
        <ele>288.598790</ele>
        <time>2021-11-10T21:20:28.081Z</time>
      </trkpt>
      <trkpt lat="47.538512" lon="7.730958">
        <ele>289.181615</ele>
        <time>2021-11-10T21:20:53.665Z</time>
      </trkpt>
      <trkpt lat="47.538339" lon="7.730082">
        <ele>289.487876</ele>
        <time>2021-11-10T21:21:06.986Z</time>
      </trkpt>
      <trkpt lat="47.538275" lon="7.729744">
        <ele>289.605668</ele>
        <time>2021-11-10T21:21:11.841Z</time>
      </trkpt>
      <trkpt lat="47.538248" lon="7.729713">
        <ele>289.622648</ele>
        <time>2021-11-10T21:21:12.457Z</time>
      </trkpt>
      <trkpt lat="47.538168" lon="7.729263">
        <ele>289.277311</ele>
        <time>2021-11-10T21:21:18.539Z</time>
      </trkpt>
      <trkpt lat="47.538148" lon="7.729131">
        <ele>289.172040</ele>
        <time>2021-11-10T21:21:20.210Z</time>
      </trkpt>
      <trkpt lat="47.538123" lon="7.729100">
        <ele>289.134459</ele>
        <time>2021-11-10T21:21:20.804Z</time>
      </trkpt>
      <trkpt lat="47.538087" lon="7.728937">
        <ele>289.001005</ele>
        <time>2021-11-10T21:21:22.961Z</time>
      </trkpt>
      <trkpt lat="47.538083" lon="7.728919">
        <ele>288.986259</ele>
        <time>2021-11-10T21:21:23.156Z</time>
      </trkpt>
      <trkpt lat="47.537932" lon="7.727936">
        <ele>288.201781</ele>
        <time>2021-11-10T21:21:34.984Z</time>
      </trkpt>
      <trkpt lat="47.537861" lon="7.727909">
        <ele>288.117289</ele>
        <time>2021-11-10T21:21:36.149Z</time>
      </trkpt>
      <trkpt lat="47.537824" lon="7.727674">
        <ele>287.929515</ele>
        <time>2021-11-10T21:21:38.004Z</time>
      </trkpt>
      <trkpt lat="47.537675" lon="7.726458">
        <ele>285.776019</ele>
        <time>2021-11-10T21:21:46.945Z</time>
      </trkpt>
      <trkpt lat="47.537323" lon="7.724748">
        <ele>281.558890</ele>
        <time>2021-11-10T21:21:58.686Z</time>
      </trkpt>
      <trkpt lat="47.537127" lon="7.723974">
        <ele>279.825924</ele>
        <time>2021-11-10T21:22:04.122Z</time>
      </trkpt>
      <trkpt lat="47.537106" lon="7.723875">
        <ele>279.613125</ele>
        <time>2021-11-10T21:22:04.806Z</time>
      </trkpt>
      <trkpt lat="47.537075" lon="7.723694">
        <ele>279.230201</ele>
        <time>2021-11-10T21:22:06.035Z</time>
      </trkpt>
      <trkpt lat="47.536854" lon="7.722329">
        <ele>276.351702</ele>
        <time>2021-11-10T21:22:15.948Z</time>
      </trkpt>
      <trkpt lat="47.536667" lon="7.721718">
        <ele>275.114473</ele>
        <time>2021-11-10T21:22:21.071Z</time>
      </trkpt>
      <trkpt lat="47.536590" lon="7.721558">
        <ele>274.778724</ele>
        <time>2021-11-10T21:22:22.588Z</time>
      </trkpt>
      <trkpt lat="47.536471" lon="7.721389">
        <ele>274.361463</ele>
        <time>2021-11-10T21:22:24.517Z</time>
      </trkpt>
      <trkpt lat="47.536092" lon="7.720862">
        <ele>273.045759</ele>
        <time>2021-11-10T21:22:29.904Z</time>
      </trkpt>
      <trkpt lat="47.535988" lon="7.720671">
        <ele>272.626468</ele>
        <time>2021-11-10T21:22:31.564Z</time>
      </trkpt>
      <trkpt lat="47.535897" lon="7.720461">
        <ele>272.200072</ele>
        <time>2021-11-10T21:22:33.267Z</time>
      </trkpt>
      <trkpt lat="47.535876" lon="7.720409">
        <ele>272.096533</ele>
        <time>2021-11-10T21:22:33.684Z</time>
      </trkpt>
      <trkpt lat="47.535806" lon="7.720212">
        <ele>271.716131</ele>
        <time>2021-11-10T21:22:35.212Z</time>
      </trkpt>
      <trkpt lat="47.535746" lon="7.719899">
        <ele>271.182253</ele>
        <time>2021-11-10T21:22:37.514Z</time>
      </trkpt>
      <trkpt lat="47.535713" lon="7.719682">
        <ele>270.891665</ele>
        <time>2021-11-10T21:22:39.058Z</time>
      </trkpt>
      <trkpt lat="47.535661" lon="7.719317">
        <ele>270.404335</ele>
        <time>2021-11-10T21:22:41.776Z</time>
      </trkpt>
      <trkpt lat="47.535608" lon="7.718948">
        <ele>269.911491</ele>
        <time>2021-11-10T21:22:44.544Z</time>
      </trkpt>
      <trkpt lat="47.535572" lon="7.718705">
        <ele>269.586487</ele>
        <time>2021-11-10T21:22:46.249Z</time>
      </trkpt>
      <trkpt lat="47.535558" lon="7.718578">
        <ele>269.418379</ele>
        <time>2021-11-10T21:22:47.336Z</time>
      </trkpt>
      <trkpt lat="47.535516" lon="7.718273">
        <ele>269.011727</ele>
        <time>2021-11-10T21:22:49.569Z</time>
      </trkpt>
      <trkpt lat="47.535494" lon="7.718111">
        <ele>268.795854</ele>
        <time>2021-11-10T21:22:50.727Z</time>
      </trkpt>
      <trkpt lat="47.535490" lon="7.718086">
        <ele>268.762289</ele>
        <time>2021-11-10T21:22:51.254Z</time>
      </trkpt>
      <trkpt lat="47.535419" lon="7.717562">
        <ele>268.064092</ele>
        <time>2021-11-10T21:22:55.275Z</time>
      </trkpt>
      <trkpt lat="47.535384" lon="7.717243">
        <ele>267.848617</ele>
        <time>2021-11-10T21:22:57.900Z</time>
      </trkpt>
      <trkpt lat="47.535370" lon="7.716931">
        <ele>268.081116</ele>
        <time>2021-11-10T21:23:01.176Z</time>
      </trkpt>
      <trkpt lat="47.535347" lon="7.716584">
        <ele>268.340368</ele>
        <time>2021-11-10T21:23:04.795Z</time>
      </trkpt>
      <trkpt lat="47.535313" lon="7.716133">
        <ele>268.677793</ele>
        <time>2021-11-10T21:23:11.945Z</time>
      </trkpt>
      <trkpt lat="47.535254" lon="7.715336">
        <ele>269.273954</ele>
        <time>2021-11-10T21:23:24.495Z</time>
      </trkpt>
      <trkpt lat="47.535269" lon="7.714924">
        <ele>269.580742</ele>
        <time>2021-11-10T21:23:30.627Z</time>
      </trkpt>
      <trkpt lat="47.535269" lon="7.714705">
        <ele>269.743580</ele>
        <time>2021-11-10T21:23:33.887Z</time>
      </trkpt>
      <trkpt lat="47.535269" lon="7.714432">
        <ele>269.945733</ele>
        <time>2021-11-10T21:23:37.537Z</time>
      </trkpt>
      <trkpt lat="47.535222" lon="7.713738">
        <ele>270.462087</ele>
        <time>2021-11-10T21:23:47.045Z</time>
      </trkpt>
      <trkpt lat="47.535202" lon="7.713540">
        <ele>270.610301</ele>
        <time>2021-11-10T21:23:49.734Z</time>
      </trkpt>
      <trkpt lat="47.535174" lon="7.713262">
        <ele>270.818385</ele>
        <time>2021-11-10T21:23:53.193Z</time>
      </trkpt>
      <trkpt lat="47.535128" lon="7.712889">
        <ele>271.099091</ele>
        <time>2021-11-10T21:23:57.987Z</time>
      </trkpt>
      <trkpt lat="47.535110" lon="7.712748">
        <ele>271.205325</ele>
        <time>2021-11-10T21:23:59.729Z</time>
      </trkpt>
      <trkpt lat="47.535067" lon="7.712436">
        <ele>271.441067</ele>
        <time>2021-11-10T21:24:03.763Z</time>
      </trkpt>
      <trkpt lat="47.535045" lon="7.712277">
        <ele>271.561223</ele>
        <time>2021-11-10T21:24:05.630Z</time>
      </trkpt>
      <trkpt lat="47.534965" lon="7.711682">
        <ele>271.833111</ele>
        <time>2021-11-10T21:24:12.832Z</time>
      </trkpt>
      <trkpt lat="47.534909" lon="7.711265">
        <ele>271.951108</ele>
        <time>2021-11-10T21:24:17.860Z</time>
      </trkpt>
      <trkpt lat="47.534768" lon="7.710504">
        <ele>272.170116</ele>
        <time>2021-11-10T21:24:26.959Z</time>
      </trkpt>
      <trkpt lat="47.534734" lon="7.710344">
        <ele>272.216668</ele>
        <time>2021-11-10T21:24:28.838Z</time>
      </trkpt>
      <trkpt lat="47.534641" lon="7.709912">
        <ele>272.342508</ele>
        <time>2021-11-10T21:24:33.677Z</time>
      </trkpt>
      <trkpt lat="47.534615" lon="7.709805">
        <ele>272.374069</ele>
        <time>2021-11-10T21:24:34.869Z</time>
      </trkpt>
      <trkpt lat="47.534577" lon="7.709613">
        <ele>272.429597</ele>
        <time>2021-11-10T21:24:36.946Z</time>
      </trkpt>
      <trkpt lat="47.534509" lon="7.709297">
        <ele>272.420062</ele>
        <time>2021-11-10T21:24:40.110Z</time>
      </trkpt>
      <trkpt lat="47.534390" lon="7.708741">
        <ele>272.285460</ele>
        <time>2021-11-10T21:24:45.507Z</time>
      </trkpt>
      <trkpt lat="47.534357" lon="7.708594">
        <ele>272.249711</ele>
        <time>2021-11-10T21:24:46.897Z</time>
      </trkpt>
      <trkpt lat="47.534132" lon="7.707553">
        <ele>271.997467</ele>
        <time>2021-11-10T21:24:56.706Z</time>
      </trkpt>
      <trkpt lat="47.534017" lon="7.707047">
        <ele>271.874257</ele>
        <time>2021-11-10T21:25:01.730Z</time>
      </trkpt>
      <trkpt lat="47.533747" lon="7.705801">
        <ele>271.465239</ele>
        <time>2021-11-10T21:25:13.464Z</time>
      </trkpt>
      <trkpt lat="47.533715" lon="7.705652">
        <ele>271.415320</ele>
        <time>2021-11-10T21:25:14.867Z</time>
      </trkpt>
      <trkpt lat="47.533704" lon="7.705593">
        <ele>271.395779</ele>
        <time>2021-11-10T21:25:15.414Z</time>
      </trkpt>
      <trkpt lat="47.533527" lon="7.704796">
        <ele>271.127914</ele>
        <time>2021-11-10T21:25:22.817Z</time>
      </trkpt>
      <trkpt lat="47.533301" lon="7.703780">
        <ele>270.815852</ele>
        <time>2021-11-10T21:25:32.604Z</time>
      </trkpt>
      <trkpt lat="47.532835" lon="7.701725">
        <ele>270.208264</ele>
        <time>2021-11-10T21:25:52.397Z</time>
      </trkpt>
      <trkpt lat="47.532793" lon="7.701522">
        <ele>270.137022</ele>
        <time>2021-11-10T21:25:54.275Z</time>
      </trkpt>
      <trkpt lat="47.532428" lon="7.699970">
        <ele>269.585566</ele>
        <time>2021-11-10T21:26:09.244Z</time>
      </trkpt>
      <trkpt lat="47.532407" lon="7.699875">
        <ele>269.552024</ele>
        <time>2021-11-10T21:26:10.137Z</time>
      </trkpt>
      <trkpt lat="47.532378" lon="7.699751">
        <ele>269.507991</ele>
        <time>2021-11-10T21:26:11.298Z</time>
      </trkpt>
      <trkpt lat="47.532326" lon="7.699504">
        <ele>269.421175</ele>
        <time>2021-11-10T21:26:13.659Z</time>
      </trkpt>
      <trkpt lat="47.532317" lon="7.699464">
        <ele>269.407027</ele>
        <time>2021-11-10T21:26:14.013Z</time>
      </trkpt>
      <trkpt lat="47.532234" lon="7.699115">
        <ele>269.141051</ele>
        <time>2021-11-10T21:26:17.207Z</time>
      </trkpt>
      <trkpt lat="47.532082" lon="7.698472">
        <ele>268.553885</ele>
        <time>2021-11-10T21:26:22.831Z</time>
      </trkpt>
      <trkpt lat="47.531987" lon="7.698056">
        <ele>268.175394</ele>
        <time>2021-11-10T21:26:26.340Z</time>
      </trkpt>
      <trkpt lat="47.531820" lon="7.697324">
        <ele>267.509462</ele>
        <time>2021-11-10T21:26:32.315Z</time>
      </trkpt>
      <trkpt lat="47.531503" lon="7.695640">
        <ele>266.177001</ele>
        <time>2021-11-10T21:26:45.560Z</time>
      </trkpt>
      <trkpt lat="47.531279" lon="7.693388">
        <ele>265.511225</ele>
        <time>2021-11-10T21:27:05.794Z</time>
      </trkpt>
      <trkpt lat="47.531252" lon="7.693049">
        <ele>265.653262</ele>
        <time>2021-11-10T21:27:10.366Z</time>
      </trkpt>
      <trkpt lat="47.531247" lon="7.692506">
        <ele>265.879228</ele>
        <time>2021-11-10T21:27:17.886Z</time>
      </trkpt>
      <trkpt lat="47.531250" lon="7.692032">
        <ele>266.076471</ele>
        <time>2021-11-10T21:27:24.363Z</time>
      </trkpt>
      <trkpt lat="47.531253" lon="7.691880">
        <ele>266.139746</ele>
        <time>2021-11-10T21:27:26.398Z</time>
      </trkpt>
      <trkpt lat="47.531254" lon="7.691721">
        <ele>266.205910</ele>
        <time>2021-11-10T21:27:28.399Z</time>
      </trkpt>
      <trkpt lat="47.531257" lon="7.691497">
        <ele>266.271530</ele>
        <time>2021-11-10T21:27:31.208Z</time>
      </trkpt>
      <trkpt lat="47.531218" lon="7.691259">
        <ele>266.297308</ele>
        <time>2021-11-10T21:27:33.979Z</time>
      </trkpt>
      <trkpt lat="47.531228" lon="7.690572">
        <ele>266.369635</ele>
        <time>2021-11-10T21:27:42.440Z</time>
      </trkpt>
      <trkpt lat="47.531244" lon="7.689927">
        <ele>266.437571</ele>
        <time>2021-11-10T21:27:49.020Z</time>
      </trkpt>
      <trkpt lat="47.531254" lon="7.689619">
        <ele>266.470027</ele>
        <time>2021-11-10T21:27:52.032Z</time>
      </trkpt>
      <trkpt lat="47.531264" lon="7.689333">
        <ele>266.500170</ele>
        <time>2021-11-10T21:27:54.706Z</time>
      </trkpt>
      <trkpt lat="47.531265" lon="7.689138">
        <ele>266.520695</ele>
        <time>2021-11-10T21:27:56.358Z</time>
      </trkpt>
      <trkpt lat="47.531267" lon="7.688842">
        <ele>266.510130</ele>
        <time>2021-11-10T21:27:59.057Z</time>
      </trkpt>
      <trkpt lat="47.531309" lon="7.687734">
        <ele>266.101710</ele>
        <time>2021-11-10T21:28:08.066Z</time>
      </trkpt>
      <trkpt lat="47.531311" lon="7.686964">
        <ele>265.818325</ele>
        <time>2021-11-10T21:28:14.646Z</time>
      </trkpt>
      <trkpt lat="47.531302" lon="7.686543">
        <ele>265.663307</ele>
        <time>2021-11-10T21:28:18.899Z</time>
      </trkpt>
      <trkpt lat="47.531297" lon="7.685934">
        <ele>265.664695</ele>
        <time>2021-11-10T21:28:25.426Z</time>
      </trkpt>
      <trkpt lat="47.531296" lon="7.684922">
        <ele>265.975108</ele>
        <time>2021-11-10T21:28:36.869Z</time>
      </trkpt>
      <trkpt lat="47.531277" lon="7.683432">
        <ele>266.477773</ele>
        <time>2021-11-10T21:28:54.031Z</time>
      </trkpt>
      <trkpt lat="47.531276" lon="7.682944">
        <ele>266.756257</ele>
        <time>2021-11-10T21:28:59.782Z</time>
      </trkpt>
      <trkpt lat="47.531275" lon="7.682615">
        <ele>266.944006</ele>
        <time>2021-11-10T21:29:03.762Z</time>
      </trkpt>
      <trkpt lat="47.531257" lon="7.681446">
        <ele>267.611281</ele>
        <time>2021-11-10T21:29:18.555Z</time>
      </trkpt>
      <trkpt lat="47.531222" lon="7.679157">
        <ele>268.627922</ele>
        <time>2021-11-10T21:29:47.103Z</time>
      </trkpt>
      <trkpt lat="47.531218" lon="7.678940">
        <ele>268.716533</ele>
        <time>2021-11-10T21:29:49.413Z</time>
      </trkpt>
      <trkpt lat="47.531215" lon="7.678292">
        <ele>268.981048</ele>
        <time>2021-11-10T21:29:55.928Z</time>
      </trkpt>
      <trkpt lat="47.531238" lon="7.677761">
        <ele>268.969391</ele>
        <time>2021-11-10T21:30:01.085Z</time>
      </trkpt>
      <trkpt lat="47.531253" lon="7.677527">
        <ele>268.961461</ele>
        <time>2021-11-10T21:30:03.461Z</time>
      </trkpt>
      <trkpt lat="47.531275" lon="7.677355">
        <ele>268.955555</ele>
        <time>2021-11-10T21:30:05.140Z</time>
      </trkpt>
      <trkpt lat="47.531314" lon="7.677106">
        <ele>268.946932</ele>
        <time>2021-11-10T21:30:08.004Z</time>
      </trkpt>
      <trkpt lat="47.531325" lon="7.677036">
        <ele>268.944507</ele>
        <time>2021-11-10T21:30:08.715Z</time>
      </trkpt>
      <trkpt lat="47.531397" lon="7.676665">
        <ele>268.931484</ele>
        <time>2021-11-10T21:30:12.671Z</time>
      </trkpt>
      <trkpt lat="47.531455" lon="7.676389">
        <ele>268.921732</ele>
        <time>2021-11-10T21:30:15.570Z</time>
      </trkpt>
      <trkpt lat="47.531545" lon="7.675929">
        <ele>268.905574</ele>
        <time>2021-11-10T21:30:20.769Z</time>
      </trkpt>
      <trkpt lat="47.531606" lon="7.675606">
        <ele>268.864010</ele>
        <time>2021-11-10T21:30:24.020Z</time>
      </trkpt>
      <trkpt lat="47.531635" lon="7.675449">
        <ele>268.797677</ele>
        <time>2021-11-10T21:30:25.355Z</time>
      </trkpt>
      <trkpt lat="47.531719" lon="7.675071">
        <ele>268.635501</ele>
        <time>2021-11-10T21:30:28.562Z</time>
      </trkpt>
      <trkpt lat="47.531825" lon="7.674498">
        <ele>268.393381</ele>
        <time>2021-11-10T21:30:33.350Z</time>
      </trkpt>
      <trkpt lat="47.531884" lon="7.674105">
        <ele>268.229310</ele>
        <time>2021-11-10T21:30:36.988Z</time>
      </trkpt>
      <trkpt lat="47.531942" lon="7.673731">
        <ele>268.072926</ele>
        <time>2021-11-10T21:30:40.598Z</time>
      </trkpt>
      <trkpt lat="47.531990" lon="7.673394">
        <ele>267.932567</ele>
        <time>2021-11-10T21:30:43.565Z</time>
      </trkpt>
      <trkpt lat="47.532036" lon="7.673089">
        <ele>267.813886</ele>
        <time>2021-11-10T21:30:46.477Z</time>
      </trkpt>
      <trkpt lat="47.532065" lon="7.672871">
        <ele>267.851174</ele>
        <time>2021-11-10T21:30:48.354Z</time>
      </trkpt>
      <trkpt lat="47.532344" lon="7.670949">
        <ele>268.181094</ele>
        <time>2021-11-10T21:31:06.493Z</time>
      </trkpt>
      <trkpt lat="47.532378" lon="7.670762">
        <ele>268.213594</ele>
        <time>2021-11-10T21:31:09.459Z</time>
      </trkpt>
      <trkpt lat="47.532450" lon="7.670414">
        <ele>268.365375</ele>
        <time>2021-11-10T21:31:15.369Z</time>
      </trkpt>
      <trkpt lat="47.532528" lon="7.670085">
        <ele>268.750388</ele>
        <time>2021-11-10T21:31:21.466Z</time>
      </trkpt>
      <trkpt lat="47.532604" lon="7.669823">
        <ele>269.065246</ele>
        <time>2021-11-10T21:31:26.601Z</time>
      </trkpt>
      <trkpt lat="47.532727" lon="7.669421">
        <ele>269.552569</ele>
        <time>2021-11-10T21:31:33.755Z</time>
      </trkpt>
      <trkpt lat="47.532897" lon="7.668969">
        <ele>270.123856</ele>
        <time>2021-11-10T21:31:41.548Z</time>
      </trkpt>
      <trkpt lat="47.533053" lon="7.668607">
        <ele>270.598036</ele>
        <time>2021-11-10T21:31:46.844Z</time>
      </trkpt>
      <trkpt lat="47.533159" lon="7.668361">
        <ele>270.920259</ele>
        <time>2021-11-10T21:31:51.140Z</time>
      </trkpt>
      <trkpt lat="47.533253" lon="7.668149">
        <ele>271.199857</ele>
        <time>2021-11-10T21:31:53.826Z</time>
      </trkpt>
      <trkpt lat="47.533486" lon="7.667627">
        <ele>271.170726</ele>
        <time>2021-11-10T21:32:01.449Z</time>
      </trkpt>
      <trkpt lat="47.533740" lon="7.667075">
        <ele>271.139629</ele>
        <time>2021-11-10T21:32:08.972Z</time>
      </trkpt>
      <trkpt lat="47.533835" lon="7.666868">
        <ele>271.127977</ele>
        <time>2021-11-10T21:32:11.042Z</time>
      </trkpt>
      <trkpt lat="47.533775" lon="7.666807">
        <ele>271.122959</ele>
        <time>2021-11-10T21:32:12.363Z</time>
      </trkpt>
      <trkpt lat="47.533696" lon="7.666647">
        <ele>271.113732</ele>
        <time>2021-11-10T21:32:14.324Z</time>
      </trkpt>
      <trkpt lat="47.533398" lon="7.666305">
        <ele>271.087738</ele>
        <time>2021-11-10T21:32:18.831Z</time>
      </trkpt>
      <trkpt lat="47.533116" lon="7.665988">
        <ele>271.138573</ele>
        <time>2021-11-10T21:32:23.055Z</time>
      </trkpt>
      <trkpt lat="47.532925" lon="7.665760">
        <ele>271.223233</ele>
        <time>2021-11-10T21:32:26.144Z</time>
      </trkpt>
      <trkpt lat="47.532786" lon="7.665641">
        <ele>271.278640</ele>
        <time>2021-11-10T21:32:28.289Z</time>
      </trkpt>
      <trkpt lat="47.532672" lon="7.665583">
        <ele>271.320239</ele>
        <time>2021-11-10T21:32:29.922Z</time>
      </trkpt>
      <trkpt lat="47.532292" lon="7.665148">
        <ele>271.485986</ele>
        <time>2021-11-10T21:32:38.418Z</time>
      </trkpt>
      <trkpt lat="47.532140" lon="7.664972">
        <ele>271.552570</ele>
        <time>2021-11-10T21:32:41.858Z</time>
      </trkpt>
      <trkpt lat="47.531991" lon="7.664806">
        <ele>271.616915</ele>
        <time>2021-11-10T21:32:45.740Z</time>
      </trkpt>
      <trkpt lat="47.531765" lon="7.664540">
        <ele>271.814324</ele>
        <time>2021-11-10T21:32:51.476Z</time>
      </trkpt>
      <trkpt lat="47.530899" lon="7.663616">
        <ele>273.988075</ele>
        <time>2021-11-10T21:33:14.951Z</time>
      </trkpt>
      <trkpt lat="47.530793" lon="7.663521">
        <ele>274.240408</ele>
        <time>2021-11-10T21:33:18.478Z</time>
      </trkpt>
      <trkpt lat="47.530719" lon="7.663465">
        <ele>274.409653</ele>
        <time>2021-11-10T21:33:20.853Z</time>
      </trkpt>
      <trkpt lat="47.529792" lon="7.663087">
        <ele>276.573324</ele>
        <time>2021-11-10T21:33:49.975Z</time>
      </trkpt>
      <trkpt lat="47.529676" lon="7.663021">
        <ele>276.877988</ele>
        <time>2021-11-10T21:33:53.696Z</time>
      </trkpt>
      <trkpt lat="47.529624" lon="7.662986">
        <ele>277.018025</ele>
        <time>2021-11-10T21:33:55.096Z</time>
      </trkpt>
      <trkpt lat="47.529576" lon="7.662954">
        <ele>277.147081</ele>
        <time>2021-11-10T21:33:56.467Z</time>
      </trkpt>
      <trkpt lat="47.529502" lon="7.662906">
        <ele>277.345146</ele>
        <time>2021-11-10T21:33:58.625Z</time>
      </trkpt>
      <trkpt lat="47.528985" lon="7.662541">
        <ele>278.749336</ele>
        <time>2021-11-10T21:34:15.905Z</time>
      </trkpt>
      <trkpt lat="47.528693" lon="7.662320">
        <ele>279.553304</ele>
        <time>2021-11-10T21:34:25.644Z</time>
      </trkpt>
      <trkpt lat="47.528592" lon="7.662229">
        <ele>279.825770</ele>
        <time>2021-11-10T21:34:28.758Z</time>
      </trkpt>
      <trkpt lat="47.528425" lon="7.662035">
        <ele>280.223252</ele>
        <time>2021-11-10T21:34:33.565Z</time>
      </trkpt>
      <trkpt lat="47.528226" lon="7.661637">
        <ele>280.849493</ele>
        <time>2021-11-10T21:34:41.341Z</time>
      </trkpt>
      <trkpt lat="47.527912" lon="7.660639">
        <ele>282.241771</ele>
        <time>2021-11-10T21:34:58.512Z</time>
      </trkpt>
      <trkpt lat="47.527673" lon="7.659801">
        <ele>283.138258</ele>
        <time>2021-11-10T21:35:11.797Z</time>
      </trkpt>
      <trkpt lat="47.527666" lon="7.659776">
        <ele>283.138300</ele>
        <time>2021-11-10T21:35:12.233Z</time>
      </trkpt>
      <trkpt lat="47.527370" lon="7.658528">
        <ele>283.140375</ele>
        <time>2021-11-10T21:35:25.752Z</time>
      </trkpt>
      <trkpt lat="47.527241" lon="7.658123">
        <ele>283.141078</ele>
        <time>2021-11-10T21:35:29.594Z</time>
      </trkpt>
      <trkpt lat="47.527139" lon="7.657807">
        <ele>283.141627</ele>
        <time>2021-11-10T21:35:32.590Z</time>
      </trkpt>
      <trkpt lat="47.527042" lon="7.657604">
        <ele>283.142017</ele>
        <time>2021-11-10T21:35:34.725Z</time>
      </trkpt>
      <trkpt lat="47.526917" lon="7.657402">
        <ele>283.081638</ele>
        <time>2021-11-10T21:35:37.073Z</time>
      </trkpt>
      <trkpt lat="47.526859" lon="7.657325">
        <ele>283.048063</ele>
        <time>2021-11-10T21:35:38.010Z</time>
      </trkpt>
      <trkpt lat="47.526880" lon="7.657295">
        <ele>283.035486</ele>
        <time>2021-11-10T21:35:38.363Z</time>
      </trkpt>
      <trkpt lat="47.526883" lon="7.657129">
        <ele>282.987155</ele>
        <time>2021-11-10T21:35:40.000Z</time>
      </trkpt>
      <trkpt lat="47.526863" lon="7.657097">
        <ele>282.974464</ele>
        <time>2021-11-10T21:35:40.335Z</time>
      </trkpt>
      <trkpt lat="47.526840" lon="7.657078">
        <ele>282.963112</ele>
        <time>2021-11-10T21:35:40.657Z</time>
      </trkpt>
      <trkpt lat="47.526789" lon="7.657068">
        <ele>282.940937</ele>
        <time>2021-11-10T21:35:41.279Z</time>
      </trkpt>
      <trkpt lat="47.526764" lon="7.657078">
        <ele>282.929775</ele>
        <time>2021-11-10T21:35:41.591Z</time>
      </trkpt>
      <trkpt lat="47.526741" lon="7.657100">
        <ele>282.917974</ele>
        <time>2021-11-10T21:35:41.935Z</time>
      </trkpt>
      <trkpt lat="47.526722" lon="7.657130">
        <ele>282.906002</ele>
        <time>2021-11-10T21:35:42.255Z</time>
      </trkpt>
      <trkpt lat="47.526710" lon="7.657166">
        <ele>282.894317</ele>
        <time>2021-11-10T21:35:42.581Z</time>
      </trkpt>
      <trkpt lat="47.526706" lon="7.657209">
        <ele>282.881684</ele>
        <time>2021-11-10T21:35:42.934Z</time>
      </trkpt>
      <trkpt lat="47.526723" lon="7.657291">
        <ele>282.856718</ele>
        <time>2021-11-10T21:35:43.703Z</time>
      </trkpt>
      <trkpt lat="47.526743" lon="7.657323">
        <ele>282.844027</ele>
        <time>2021-11-10T21:35:44.222Z</time>
      </trkpt>
      <trkpt lat="47.526694" lon="7.657412">
        <ele>282.810604</ele>
        <time>2021-11-10T21:35:45.611Z</time>
      </trkpt>
      <trkpt lat="47.526672" lon="7.657453">
        <ele>282.795362</ele>
        <time>2021-11-10T21:35:46.177Z</time>
      </trkpt>
      <trkpt lat="47.526339" lon="7.657736">
        <ele>282.629874</ele>
        <time>2021-11-10T21:35:52.975Z</time>
      </trkpt>
      <trkpt lat="47.526194" lon="7.657732">
        <ele>282.567364</ele>
        <time>2021-11-10T21:35:55.426Z</time>
      </trkpt>
      <trkpt lat="47.526129" lon="7.657714">
        <ele>282.538861</ele>
        <time>2021-11-10T21:35:56.729Z</time>
      </trkpt>
      <trkpt lat="47.526058" lon="7.657663">
        <ele>282.504848</ele>
        <time>2021-11-10T21:35:58.175Z</time>
      </trkpt>
      <trkpt lat="47.525992" lon="7.657583">
        <ele>282.468085</ele>
        <time>2021-11-10T21:35:59.746Z</time>
      </trkpt>
      <trkpt lat="47.525949" lon="7.657484">
        <ele>282.433825</ele>
        <time>2021-11-10T21:36:01.405Z</time>
      </trkpt>
      <trkpt lat="47.525879" lon="7.657237">
        <ele>282.461118</ele>
        <time>2021-11-10T21:36:05.411Z</time>
      </trkpt>
      <trkpt lat="47.525864" lon="7.656858">
        <ele>283.408941</ele>
        <time>2021-11-10T21:36:11.531Z</time>
      </trkpt>
      <trkpt lat="47.525910" lon="7.656589">
        <ele>284.101718</ele>
        <time>2021-11-10T21:36:16.277Z</time>
      </trkpt>
      <trkpt lat="47.525936" lon="7.656458">
        <ele>284.442603</ele>
        <time>2021-11-10T21:36:18.803Z</time>
      </trkpt>
      <trkpt lat="47.525829" lon="7.656401">
        <ele>284.863020</ele>
        <time>2021-11-10T21:36:22.674Z</time>
      </trkpt>
      <trkpt lat="47.525684" lon="7.656321">
        <ele>285.435112</ele>
        <time>2021-11-10T21:36:26.023Z</time>
      </trkpt>
      <trkpt lat="47.525670" lon="7.656313">
        <ele>285.490593</ele>
        <time>2021-11-10T21:36:26.368Z</time>
      </trkpt>
      <trkpt lat="47.525472" lon="7.656212">
        <ele>286.264851</ele>
        <time>2021-11-10T21:36:34.355Z</time>
      </trkpt>
      <trkpt lat="47.525397" lon="7.656172">
        <ele>286.559576</ele>
        <time>2021-11-10T21:36:36.195Z</time>
      </trkpt>
      <trkpt lat="47.525220" lon="7.656078">
        <ele>287.254790</ele>
        <time>2021-11-10T21:36:43.767Z</time>
      </trkpt>
      <trkpt lat="47.524818" lon="7.655865">
        <ele>288.833337</ele>
        <time>2021-11-10T21:36:59.891Z</time>
      </trkpt>
      <trkpt lat="47.524761" lon="7.655834">
        <ele>289.098288</ele>
        <time>2021-11-10T21:37:01.736Z</time>
      </trkpt>
      <trkpt lat="47.524698" lon="7.655801">
        <ele>289.588917</ele>
        <time>2021-11-10T21:37:03.842Z</time>
      </trkpt>
      <trkpt lat="47.524663" lon="7.655783">
        <ele>289.860942</ele>
        <time>2021-11-10T21:37:04.996Z</time>
      </trkpt>
      <trkpt lat="47.524616" lon="7.655757">
        <ele>290.229307</ele>
        <time>2021-11-10T21:37:08.365Z</time>
      </trkpt>
      <trkpt lat="47.524572" lon="7.655735">
        <ele>290.570272</ele>
        <time>2021-11-10T21:37:10.083Z</time>
      </trkpt>
      <trkpt lat="47.524519" lon="7.655706">
        <ele>290.985111</ele>
        <time>2021-11-10T21:37:13.599Z</time>
      </trkpt>
      <trkpt lat="47.524305" lon="7.655610">
        <ele>292.626808</ele>
        <time>2021-11-10T21:37:20.896Z</time>
      </trkpt>
      <trkpt lat="47.524277" lon="7.655598">
        <ele>292.840820</ele>
        <time>2021-11-10T21:37:23.564Z</time>
      </trkpt>
      <trkpt lat="47.524199" lon="7.656153">
        <ele>295.651413</ele>
        <time>2021-11-10T21:37:39.905Z</time>
      </trkpt>
      <trkpt lat="47.524136" lon="7.656591">
        <ele>297.871690</ele>
        <time>2021-11-10T21:37:52.937Z</time>
      </trkpt>
      <trkpt lat="47.524059" lon="7.657248">
        <ele>301.177730</ele>
        <time>2021-11-10T21:38:16.520Z</time>
      </trkpt>
      <trkpt lat="47.523992" lon="7.657967">
        <ele>304.787395</ele>
        <time>2021-11-10T21:38:40.247Z</time>
      </trkpt>
      <trkpt lat="47.523959" lon="7.658334">
        <ele>306.631021</ele>
        <time>2021-11-10T21:38:49.910Z</time>
      </trkpt>
      <trkpt lat="47.523922" lon="7.658360">
        <ele>306.933020</ele>
        <time>2021-11-10T21:38:52.169Z</time>
      </trkpt>
      <trkpt lat="47.523798" lon="7.658569">
        <ele>308.318375</ele>
        <time>2021-11-10T21:38:59.073Z</time>
      </trkpt>
      <trkpt lat="47.523708" lon="7.658759">
        <ele>309.474053</ele>
        <time>2021-11-10T21:39:05.799Z</time>
      </trkpt>
      <trkpt lat="47.523568" lon="7.659348">
        <ele>312.583413</ele>
        <time>2021-11-10T21:39:23.636Z</time>
      </trkpt>
      <trkpt lat="47.523458" lon="7.659795">
        <ele>314.952484</ele>
        <time>2021-11-10T21:39:38.010Z</time>
      </trkpt>
      <trkpt lat="47.523087" lon="7.660471">
        <ele>319.791141</ele>
        <time>2021-11-10T21:40:05.116Z</time>
      </trkpt>
      <trkpt lat="47.522955" lon="7.660555">
        <ele>320.990079</ele>
        <time>2021-11-10T21:40:12.244Z</time>
      </trkpt>
      <trkpt lat="47.522825" lon="7.660552">
        <ele>322.075056</ele>
        <time>2021-11-10T21:40:18.128Z</time>
      </trkpt>
      <trkpt lat="47.522637" lon="7.660591">
        <ele>323.659228</ele>
        <time>2021-11-10T21:40:26.904Z</time>
      </trkpt>
      <trkpt lat="47.522462" lon="7.660628">
        <ele>325.134407</ele>
        <time>2021-11-10T21:40:35.406Z</time>
      </trkpt>
      <trkpt lat="47.521792" lon="7.660718">
        <ele>330.771935</ele>
        <time>2021-11-10T21:41:09.572Z</time>
      </trkpt>
      <trkpt lat="47.521401" lon="7.660922">
        <ele>334.551821</ele>
        <time>2021-11-10T21:41:32.016Z</time>
      </trkpt>
      <trkpt lat="47.521300" lon="7.660911">
        <ele>335.475209</ele>
        <time>2021-11-10T21:41:37.570Z</time>
      </trkpt>
      <trkpt lat="47.520800" lon="7.660492">
        <ele>340.713526</ele>
        <time>2021-11-10T21:42:07.359Z</time>
      </trkpt>
      <trkpt lat="47.520669" lon="7.660482">
        <ele>341.909547</ele>
        <time>2021-11-10T21:42:13.810Z</time>
      </trkpt>
      <trkpt lat="47.520066" lon="7.660745">
        <ele>347.747638</ele>
        <time>2021-11-10T21:42:45.088Z</time>
      </trkpt>
      <trkpt lat="47.519677" lon="7.660675">
        <ele>351.830586</ele>
        <time>2021-11-10T21:43:04.656Z</time>
      </trkpt>
      <trkpt lat="47.519249" lon="7.660964">
        <ele>356.731856</ele>
        <time>2021-11-10T21:43:28.943Z</time>
      </trkpt>
      <trkpt lat="47.519047" lon="7.661794">
        <ele>362.939937</ele>
        <time>2021-11-10T21:44:06.329Z</time>
      </trkpt>
      <trkpt lat="47.518890" lon="7.662032">
        <ele>365.281023</ele>
        <time>2021-11-10T21:44:20.634Z</time>
      </trkpt>
      <trkpt lat="47.518745" lon="7.662142">
        <ele>367.143762</ele>
        <time>2021-11-10T21:44:31.427Z</time>
      </trkpt>
      <trkpt lat="47.518615" lon="7.662152">
        <ele>368.666962</ele>
        <time>2021-11-10T21:44:39.414Z</time>
      </trkpt>
      <trkpt lat="47.518439" lon="7.662040">
        <ele>370.908495</ele>
        <time>2021-11-10T21:44:51.061Z</time>
      </trkpt>
      <trkpt lat="47.518232" lon="7.661838">
        <ele>373.809336</ele>
        <time>2021-11-10T21:45:06.932Z</time>
      </trkpt>
      <trkpt lat="47.518206" lon="7.661745">
        <ele>374.604743</ele>
        <time>2021-11-10T21:45:10.835Z</time>
      </trkpt>
      <trkpt lat="47.518196" lon="7.661624">
        <ele>375.568070</ele>
        <time>2021-11-10T21:45:17.042Z</time>
      </trkpt>
      <trkpt lat="47.518612" lon="7.660430">
        <ele>386.185147</ele>
        <time>2021-11-10T21:46:12.419Z</time>
      </trkpt>
      <trkpt lat="47.519170" lon="7.659709">
        <ele>393.801710</ele>
        <time>2021-11-10T21:46:53.874Z</time>
      </trkpt>
      <trkpt lat="47.519286" lon="7.659483">
        <ele>395.756809</ele>
        <time>2021-11-10T21:47:05.598Z</time>
      </trkpt>
      <trkpt lat="47.519400" lon="7.659051">
        <ele>398.951256</ele>
        <time>2021-11-10T21:47:20.915Z</time>
      </trkpt>
      <trkpt lat="47.519302" lon="7.658439">
        <ele>403.283226</ele>
        <time>2021-11-10T21:47:45.803Z</time>
      </trkpt>
      <trkpt lat="47.519480" lon="7.658016">
        <ele>406.445072</ele>
        <time>2021-11-10T21:48:03.821Z</time>
      </trkpt>
      <trkpt lat="47.519476" lon="7.657899">
        <ele>407.122683</ele>
        <time>2021-11-10T21:48:07.273Z</time>
      </trkpt>
      <trkpt lat="47.519469" lon="7.657858">
        <ele>407.367293</ele>
        <time>2021-11-10T21:48:08.976Z</time>
      </trkpt>
      <trkpt lat="47.519450" lon="7.657775">
        <ele>407.874207</ele>
        <time>2021-11-10T21:48:11.812Z</time>
      </trkpt>
      <trkpt lat="47.519395" lon="7.657676">
        <ele>408.615696</ele>
        <time>2021-11-10T21:48:15.839Z</time>
      </trkpt>
      <trkpt lat="47.519338" lon="7.657614">
        <ele>409.221450</ele>
        <time>2021-11-10T21:48:19.261Z</time>
      </trkpt>
      <trkpt lat="47.519298" lon="7.657596">
        <ele>409.579512</ele>
        <time>2021-11-10T21:48:23.416Z</time>
      </trkpt>
      <trkpt lat="47.519105" lon="7.657673">
        <ele>411.291465</ele>
        <time>2021-11-10T21:48:32.447Z</time>
      </trkpt>
      <trkpt lat="47.518551" lon="7.657564">
        <ele>416.078059</ele>
        <time>2021-11-10T21:49:01.736Z</time>
      </trkpt>
      <trkpt lat="47.518547" lon="7.657366">
        <ele>417.223851</ele>
        <time>2021-11-10T21:49:07.349Z</time>
      </trkpt>
      <trkpt lat="47.518934" lon="7.656766">
        <ele>420.932479</ele>
        <time>2021-11-10T21:49:34.243Z</time>
      </trkpt>
      <trkpt lat="47.518933" lon="7.656687">
        <ele>421.076598</ele>
        <time>2021-11-10T21:49:35.695Z</time>
      </trkpt>
      <trkpt lat="47.518890" lon="7.656625">
        <ele>421.238696</ele>
        <time>2021-11-10T21:49:37.351Z</time>
      </trkpt>
      <trkpt lat="47.518431" lon="7.656460">
        <ele>422.514369</ele>
        <time>2021-11-10T21:49:49.767Z</time>
      </trkpt>
      <trkpt lat="47.518291" lon="7.656407">
        <ele>422.904643</ele>
        <time>2021-11-10T21:49:53.328Z</time>
      </trkpt>
      <trkpt lat="47.518235" lon="7.656474">
        <ele>423.099090</ele>
        <time>2021-11-10T21:49:54.681Z</time>
      </trkpt>
      <trkpt lat="47.517558" lon="7.656982">
        <ele>425.148910</ele>
        <time>2021-11-10T21:50:09.093Z</time>
      </trkpt>
      <trkpt lat="47.517404" lon="7.657170">
        <ele>425.092364</ele>
        <time>2021-11-10T21:50:12.232Z</time>
      </trkpt>
      <trkpt lat="47.516801" lon="7.657775">
        <ele>424.129966</ele>
        <time>2021-11-10T21:50:21.296Z</time>
      </trkpt>
      <trkpt lat="47.516645" lon="7.657944">
        <ele>423.874572</ele>
        <time>2021-11-10T21:50:23.627Z</time>
      </trkpt>
      <trkpt lat="47.516402" lon="7.658185">
        <ele>423.488137</ele>
        <time>2021-11-10T21:50:27.108Z</time>
      </trkpt>
      <trkpt lat="47.515996" lon="7.658814">
        <ele>422.205514</ele>
        <time>2021-11-10T21:50:33.157Z</time>
      </trkpt>
      <trkpt lat="47.515528" lon="7.659851">
        <ele>418.273028</ele>
        <time>2021-11-10T21:50:41.301Z</time>
      </trkpt>
      <trkpt lat="47.515439" lon="7.660052">
        <ele>417.515209</ele>
        <time>2021-11-10T21:50:42.803Z</time>
      </trkpt>
      <trkpt lat="47.515317" lon="7.660261">
        <ele>416.644199</ele>
        <time>2021-11-10T21:50:44.518Z</time>
      </trkpt>
      <trkpt lat="47.514880" lon="7.660956">
        <ele>413.662256</ele>
        <time>2021-11-10T21:50:50.443Z</time>
      </trkpt>
      <trkpt lat="47.514659" lon="7.661283">
        <ele>412.224049</ele>
        <time>2021-11-10T21:50:53.322Z</time>
      </trkpt>
      <trkpt lat="47.514531" lon="7.661634">
        <ele>410.983891</ele>
        <time>2021-11-10T21:50:55.800Z</time>
      </trkpt>
      <trkpt lat="47.514462" lon="7.661927">
        <ele>410.019173</ele>
        <time>2021-11-10T21:50:57.736Z</time>
      </trkpt>
      <trkpt lat="47.514342" lon="7.664129">
        <ele>404.920383</ele>
        <time>2021-11-10T21:51:12.826Z</time>
      </trkpt>
      <trkpt lat="47.514221" lon="7.664480">
        <ele>404.398092</ele>
        <time>2021-11-10T21:51:15.950Z</time>
      </trkpt>
      <trkpt lat="47.513877" lon="7.665099">
        <ele>403.335679</ele>
        <time>2021-11-10T21:51:22.292Z</time>
      </trkpt>
      <trkpt lat="47.513816" lon="7.665165">
        <ele>403.187423</ele>
        <time>2021-11-10T21:51:23.362Z</time>
      </trkpt>
      <trkpt lat="47.513553" lon="7.665082">
        <ele>402.733258</ele>
        <time>2021-11-10T21:51:26.490Z</time>
      </trkpt>
      <trkpt lat="47.513423" lon="7.665985">
        <ele>403.466655</ele>
        <time>2021-11-10T21:51:34.375Z</time>
      </trkpt>
      <trkpt lat="47.513312" lon="7.667099">
        <ele>404.361123</ele>
        <time>2021-11-10T21:51:48.932Z</time>
      </trkpt>
      <trkpt lat="47.513060" lon="7.668110">
        <ele>407.699623</ele>
        <time>2021-11-10T21:52:09.777Z</time>
      </trkpt>
      <trkpt lat="47.513038" lon="7.668278">
        <ele>408.687480</ele>
        <time>2021-11-10T21:52:15.979Z</time>
      </trkpt>
      <trkpt lat="47.513022" lon="7.668624">
        <ele>410.689479</ele>
        <time>2021-11-10T21:52:25.574Z</time>
      </trkpt>
      <trkpt lat="47.513007" lon="7.669561">
        <ele>416.099934</ele>
        <time>2021-11-10T21:53:00.110Z</time>
      </trkpt>
      <trkpt lat="47.512915" lon="7.670234">
        <ele>420.063677</ele>
        <time>2021-11-10T21:53:27.333Z</time>
      </trkpt>
      <trkpt lat="47.512908" lon="7.670264">
        <ele>420.267120</ele>
        <time>2021-11-10T21:53:29.650Z</time>
      </trkpt>
      <trkpt lat="47.512552" lon="7.671184">
        <ele>428.702618</ele>
        <time>2021-11-10T21:54:15.506Z</time>
      </trkpt>
      <trkpt lat="47.512171" lon="7.672236">
        <ele>438.199521</ele>
        <time>2021-11-10T21:55:08.965Z</time>
      </trkpt>
      <trkpt lat="47.511865" lon="7.672746">
        <ele>442.574757</ele>
        <time>2021-11-10T21:55:33.892Z</time>
      </trkpt>
      <trkpt lat="47.511647" lon="7.673015">
        <ele>444.352518</ele>
        <time>2021-11-10T21:55:47.119Z</time>
      </trkpt>
      <trkpt lat="47.511583" lon="7.673092">
        <ele>444.869126</ele>
        <time>2021-11-10T21:55:50.784Z</time>
      </trkpt>
      <trkpt lat="47.511264" lon="7.673741">
        <ele>448.265332</ele>
        <time>2021-11-10T21:56:12.052Z</time>
      </trkpt>
      <trkpt lat="47.511147" lon="7.674737">
        <ele>452.542908</ele>
        <time>2021-11-10T21:56:34.370Z</time>
      </trkpt>
      <trkpt lat="47.511042" lon="7.675029">
        <ele>452.934807</ele>
        <time>2021-11-10T21:56:40.957Z</time>
      </trkpt>
      <trkpt lat="47.510866" lon="7.675314">
        <ele>453.297709</ele>
        <time>2021-11-10T21:56:45.962Z</time>
      </trkpt>
      <trkpt lat="47.510805" lon="7.675403">
        <ele>453.416867</ele>
        <time>2021-11-10T21:56:47.839Z</time>
      </trkpt>
      <trkpt lat="47.510739" lon="7.675475">
        <ele>453.530930</ele>
        <time>2021-11-10T21:56:49.178Z</time>
      </trkpt>
      <trkpt lat="47.510330" lon="7.675929">
        <ele>454.242166</ele>
        <time>2021-11-10T21:56:59.159Z</time>
      </trkpt>
      <trkpt lat="47.510114" lon="7.676177">
        <ele>454.622475</ele>
        <time>2021-11-10T21:57:04.344Z</time>
      </trkpt>
      <trkpt lat="47.509879" lon="7.676596">
        <ele>455.134293</ele>
        <time>2021-11-10T21:57:10.688Z</time>
      </trkpt>
      <trkpt lat="47.509821" lon="7.676771">
        <ele>454.764815</ele>
        <time>2021-11-10T21:57:13.224Z</time>
      </trkpt>
      <trkpt lat="47.509746" lon="7.677084">
        <ele>454.049737</ele>
        <time>2021-11-10T21:57:15.804Z</time>
      </trkpt>
      <trkpt lat="47.509545" lon="7.677432">
        <ele>453.063862</ele>
        <time>2021-11-10T21:57:19.429Z</time>
      </trkpt>
      <trkpt lat="47.509362" lon="7.677972">
        <ele>451.763037</ele>
        <time>2021-11-10T21:57:23.698Z</time>
      </trkpt>
      <trkpt lat="47.509271" lon="7.678316">
        <ele>450.967578</ele>
        <time>2021-11-10T21:57:26.397Z</time>
      </trkpt>
      <trkpt lat="47.509244" lon="7.678419">
        <ele>450.729689</ele>
        <time>2021-11-10T21:57:27.059Z</time>
      </trkpt>
      <trkpt lat="47.509059" lon="7.680504">
        <ele>439.804552</ele>
        <time>2021-11-10T21:57:39.734Z</time>
      </trkpt>
      <trkpt lat="47.509095" lon="7.680864">
        <ele>437.461467</ele>
        <time>2021-11-10T21:57:41.837Z</time>
      </trkpt>
      <trkpt lat="47.509233" lon="7.681400">
        <ele>433.768308</ele>
        <time>2021-11-10T21:57:45.094Z</time>
      </trkpt>
      <trkpt lat="47.509450" lon="7.681851">
        <ele>429.154556</ele>
        <time>2021-11-10T21:57:48.245Z</time>
      </trkpt>
      <trkpt lat="47.509678" lon="7.682278">
        <ele>423.873755</ele>
        <time>2021-11-10T21:57:51.299Z</time>
      </trkpt>
      <trkpt lat="47.509706" lon="7.682330">
        <ele>423.228569</ele>
        <time>2021-11-10T21:57:51.669Z</time>
      </trkpt>
      <trkpt lat="47.509848" lon="7.682678">
        <ele>419.284062</ele>
        <time>2021-11-10T21:57:53.962Z</time>
      </trkpt>
      <trkpt lat="47.509852" lon="7.682696">
        <ele>419.100220</ele>
        <time>2021-11-10T21:57:54.068Z</time>
      </trkpt>
      <trkpt lat="47.509891" lon="7.682887">
        <ele>417.164339</ele>
        <time>2021-11-10T21:57:55.189Z</time>
      </trkpt>
      <trkpt lat="47.509894" lon="7.683204">
        <ele>414.088534</ele>
        <time>2021-11-10T21:57:56.972Z</time>
      </trkpt>
      <trkpt lat="47.509852" lon="7.683665">
        <ele>409.575456</ele>
        <time>2021-11-10T21:57:59.585Z</time>
      </trkpt>
      <trkpt lat="47.509798" lon="7.683903">
        <ele>407.139614</ele>
        <time>2021-11-10T21:58:00.990Z</time>
      </trkpt>
      <trkpt lat="47.509798" lon="7.684144">
        <ele>404.809865</ele>
        <time>2021-11-10T21:58:02.340Z</time>
      </trkpt>
      <trkpt lat="47.509939" lon="7.685485">
        <ele>391.710637</ele>
        <time>2021-11-10T21:58:10.016Z</time>
      </trkpt>
      <trkpt lat="47.509884" lon="7.686341">
        <ele>383.411225</ele>
        <time>2021-11-10T21:58:14.832Z</time>
      </trkpt>
      <trkpt lat="47.510117" lon="7.687677">
        <ele>370.439622</ele>
        <time>2021-11-10T21:58:22.625Z</time>
      </trkpt>
      <trkpt lat="47.510130" lon="7.688042">
        <ele>367.026568</ele>
        <time>2021-11-10T21:58:24.682Z</time>
      </trkpt>
      <trkpt lat="47.510127" lon="7.688247">
        <ele>365.111857</ele>
        <time>2021-11-10T21:58:25.856Z</time>
      </trkpt>
      <trkpt lat="47.510147" lon="7.688532">
        <ele>362.436244</ele>
        <time>2021-11-10T21:58:27.466Z</time>
      </trkpt>
      <trkpt lat="47.510209" lon="7.688788">
        <ele>359.896738</ele>
        <time>2021-11-10T21:58:29.002Z</time>
      </trkpt>
      <trkpt lat="47.510313" lon="7.689084">
        <ele>356.781165</ele>
        <time>2021-11-10T21:58:30.886Z</time>
      </trkpt>
      <trkpt lat="47.510403" lon="7.689323">
        <ele>354.581230</ele>
        <time>2021-11-10T21:58:32.432Z</time>
      </trkpt>
      <trkpt lat="47.510602" lon="7.690223">
        <ele>347.648245</ele>
        <time>2021-11-10T21:58:37.823Z</time>
      </trkpt>
      <trkpt lat="47.510606" lon="7.690494">
        <ele>345.663773</ele>
        <time>2021-11-10T21:58:39.392Z</time>
      </trkpt>
      <trkpt lat="47.510637" lon="7.690723">
        <ele>343.953921</ele>
        <time>2021-11-10T21:58:40.735Z</time>
      </trkpt>
      <trkpt lat="47.510633" lon="7.690805">
        <ele>343.352034</ele>
        <time>2021-11-10T21:58:41.219Z</time>
      </trkpt>
      <trkpt lat="47.510865" lon="7.691084">
        <ele>340.112414</ele>
        <time>2021-11-10T21:58:43.804Z</time>
      </trkpt>
      <trkpt lat="47.511185" lon="7.691269">
        <ele>336.388978</ele>
        <time>2021-11-10T21:58:48.116Z</time>
      </trkpt>
      <trkpt lat="47.511548" lon="7.691477">
        <ele>333.813954</ele>
        <time>2021-11-10T21:58:53.053Z</time>
      </trkpt>
      <trkpt lat="47.511667" lon="7.691581">
        <ele>332.901619</ele>
        <time>2021-11-10T21:58:54.830Z</time>
      </trkpt>
      <trkpt lat="47.511838" lon="7.691791">
        <ele>331.434795</ele>
        <time>2021-11-10T21:58:57.573Z</time>
      </trkpt>
      <trkpt lat="47.512475" lon="7.692907">
        <ele>324.919111</ele>
        <time>2021-11-10T21:59:10.605Z</time>
      </trkpt>
      <trkpt lat="47.512654" lon="7.693072">
        <ele>323.915033</ele>
        <time>2021-11-10T21:59:13.421Z</time>
      </trkpt>
      <trkpt lat="47.512753" lon="7.693164">
        <ele>323.450875</ele>
        <time>2021-11-10T21:59:15.013Z</time>
      </trkpt>
      <trkpt lat="47.513623" lon="7.693653">
        <ele>319.755492</ele>
        <time>2021-11-10T21:59:28.369Z</time>
      </trkpt>
      <trkpt lat="47.513936" lon="7.693997">
        <ele>318.207541</ele>
        <time>2021-11-10T21:59:33.914Z</time>
      </trkpt>
      <trkpt lat="47.514389" lon="7.694538">
        <ele>315.602574</ele>
        <time>2021-11-10T21:59:42.236Z</time>
      </trkpt>
      <trkpt lat="47.514592" lon="7.694781">
        <ele>314.357584</ele>
        <time>2021-11-10T21:59:45.897Z</time>
      </trkpt>
      <trkpt lat="47.514725" lon="7.694795">
        <ele>313.721676</ele>
        <time>2021-11-10T21:59:47.663Z</time>
      </trkpt>
      <trkpt lat="47.514816" lon="7.694816">
        <ele>313.282437</ele>
        <time>2021-11-10T21:59:48.960Z</time>
      </trkpt>
      <trkpt lat="47.515054" lon="7.694872">
        <ele>312.133118</ele>
        <time>2021-11-10T21:59:52.200Z</time>
      </trkpt>
      <trkpt lat="47.515285" lon="7.694889">
        <ele>311.030068</ele>
        <time>2021-11-10T21:59:55.307Z</time>
      </trkpt>
      <trkpt lat="47.515415" lon="7.694867">
        <ele>310.406032</ele>
        <time>2021-11-10T21:59:57.002Z</time>
      </trkpt>
      <trkpt lat="47.515594" lon="7.694838">
        <ele>309.547245</ele>
        <time>2021-11-10T21:59:59.411Z</time>
      </trkpt>
      <trkpt lat="47.515914" lon="7.694689">
        <ele>308.244397</ele>
        <time>2021-11-10T22:00:03.871Z</time>
      </trkpt>
      <trkpt lat="47.516061" lon="7.694636">
        <ele>307.780195</ele>
        <time>2021-11-10T22:00:05.918Z</time>
      </trkpt>
      <trkpt lat="47.516171" lon="7.694629">
        <ele>307.442384</ele>
        <time>2021-11-10T22:00:07.318Z</time>
      </trkpt>
      <trkpt lat="47.516457" lon="7.694583">
        <ele>306.559723</ele>
        <time>2021-11-10T22:00:11.249Z</time>
      </trkpt>
      <trkpt lat="47.516523" lon="7.694583">
        <ele>306.357223</ele>
        <time>2021-11-10T22:00:12.112Z</time>
      </trkpt>
      <trkpt lat="47.516556" lon="7.694611">
        <ele>306.240527</ele>
        <time>2021-11-10T22:00:12.620Z</time>
      </trkpt>
      <trkpt lat="47.516677" lon="7.694863">
        <ele>305.599819</ele>
        <time>2021-11-10T22:00:15.840Z</time>
      </trkpt>
      <trkpt lat="47.516717" lon="7.694874">
        <ele>305.474993</ele>
        <time>2021-11-10T22:00:16.373Z</time>
      </trkpt>
      <trkpt lat="47.516661" lon="7.695043">
        <ele>305.084917</ele>
        <time>2021-11-10T22:00:18.123Z</time>
      </trkpt>
      <trkpt lat="47.516457" lon="7.695483">
        <ele>303.978995</ele>
        <time>2021-11-10T22:00:24.108Z</time>
      </trkpt>
      <trkpt lat="47.516381" lon="7.695563">
        <ele>303.692892</ele>
        <time>2021-11-10T22:00:26.649Z</time>
      </trkpt>
      <trkpt lat="47.516442" lon="7.695755">
        <ele>303.268436</ele>
        <time>2021-11-10T22:00:28.547Z</time>
      </trkpt>
      <trkpt lat="47.516675" lon="7.696120">
        <ele>304.135106</ele>
        <time>2021-11-10T22:00:35.699Z</time>
      </trkpt>
      <trkpt lat="47.516813" lon="7.696232">
        <ele>304.537195</ele>
        <time>2021-11-10T22:00:39.041Z</time>
      </trkpt>
      <trkpt lat="47.516769" lon="7.696355">
        <ele>304.777378</ele>
        <time>2021-11-10T22:00:42.713Z</time>
      </trkpt>
      <trkpt lat="47.516764" lon="7.696451">
        <ele>304.943528</ele>
        <time>2021-11-10T22:00:44.758Z</time>
      </trkpt>
      <trkpt lat="47.516782" lon="7.696820">
        <ele>305.581934</ele>
        <time>2021-11-10T22:00:53.386Z</time>
      </trkpt>
      <trkpt lat="47.516786" lon="7.696939">
        <ele>305.787535</ele>
        <time>2021-11-10T22:00:56.074Z</time>
      </trkpt>
      <trkpt lat="47.516816" lon="7.697757">
        <ele>307.201157</ele>
        <time>2021-11-10T22:01:14.921Z</time>
      </trkpt>
      <trkpt lat="47.516837" lon="7.698201">
        <ele>308.006199</ele>
        <time>2021-11-10T22:01:24.910Z</time>
      </trkpt>
      <trkpt lat="47.516858" lon="7.698414">
        <ele>308.500254</ele>
        <time>2021-11-10T22:01:29.921Z</time>
      </trkpt>
      <trkpt lat="47.516944" lon="7.698857">
        <ele>309.558188</ele>
        <time>2021-11-10T22:01:39.854Z</time>
      </trkpt>
      <trkpt lat="47.517055" lon="7.699367">
        <ele>310.788007</ele>
        <time>2021-11-10T22:01:50.838Z</time>
      </trkpt>
      <trkpt lat="47.517271" lon="7.700224">
        <ele>312.887471</ele>
        <time>2021-11-10T22:02:10.980Z</time>
      </trkpt>
      <trkpt lat="47.517302" lon="7.700251">
        <ele>313.009696</ele>
        <time>2021-11-10T22:02:11.973Z</time>
      </trkpt>
      <trkpt lat="47.517287" lon="7.700296">
        <ele>313.124873</ele>
        <time>2021-11-10T22:02:13.109Z</time>
      </trkpt>
      <trkpt lat="47.517479" lon="7.701386">
        <ele>317.666303</ele>
        <time>2021-11-10T22:02:38.697Z</time>
      </trkpt>
      <trkpt lat="47.517516" lon="7.701729">
        <ele>319.359352</ele>
        <time>2021-11-10T22:02:48.836Z</time>
      </trkpt>
      <trkpt lat="47.517522" lon="7.701805">
        <ele>319.732315</ele>
        <time>2021-11-10T22:02:50.636Z</time>
      </trkpt>
      <trkpt lat="47.517519" lon="7.701866">
        <ele>320.030429</ele>
        <time>2021-11-10T22:02:52.339Z</time>
      </trkpt>
      <trkpt lat="47.517510" lon="7.701940">
        <ele>320.396923</ele>
        <time>2021-11-10T22:02:54.603Z</time>
      </trkpt>
      <trkpt lat="47.517495" lon="7.701974">
        <ele>320.594872</ele>
        <time>2021-11-10T22:02:57.078Z</time>
      </trkpt>
      <trkpt lat="47.517412" lon="7.702061">
        <ele>321.328803</ele>
        <time>2021-11-10T22:03:01.432Z</time>
      </trkpt>
      <trkpt lat="47.517231" lon="7.702215">
        <ele>322.835417</ele>
        <time>2021-11-10T22:03:10.599Z</time>
      </trkpt>
      <trkpt lat="47.516723" lon="7.702621">
        <ele>327.005466</ele>
        <time>2021-11-10T22:03:41.146Z</time>
      </trkpt>
      <trkpt lat="47.516538" lon="7.702808">
        <ele>328.740546</ele>
        <time>2021-11-10T22:03:53.798Z</time>
      </trkpt>
      <trkpt lat="47.516419" lon="7.702927">
        <ele>329.852845</ele>
        <time>2021-11-10T22:04:01.118Z</time>
      </trkpt>
      <trkpt lat="47.516272" lon="7.703033">
        <ele>331.119349</ele>
        <time>2021-11-10T22:04:09.605Z</time>
      </trkpt>
      <trkpt lat="47.516154" lon="7.703082">
        <ele>332.068635</ele>
        <time>2021-11-10T22:04:16.639Z</time>
      </trkpt>
      <trkpt lat="47.516104" lon="7.703098">
        <ele>332.464873</ele>
        <time>2021-11-10T22:04:19.238Z</time>
      </trkpt>
      <trkpt lat="47.516014" lon="7.703140">
        <ele>333.195813</ele>
        <time>2021-11-10T22:04:23.765Z</time>
      </trkpt>
      <trkpt lat="47.515843" lon="7.703186">
        <ele>334.542050</ele>
        <time>2021-11-10T22:04:31.925Z</time>
      </trkpt>
      <trkpt lat="47.515591" lon="7.703343">
        <ele>336.659788</ele>
        <time>2021-11-10T22:04:43.760Z</time>
      </trkpt>
      <trkpt lat="47.515436" lon="7.703718">
        <ele>338.959839</ele>
        <time>2021-11-10T22:04:56.480Z</time>
      </trkpt>
      <trkpt lat="47.515041" lon="7.704901">
        <ele>343.913996</ele>
        <time>2021-11-10T22:05:26.604Z</time>
      </trkpt>
      <trkpt lat="47.514902" lon="7.705363">
        <ele>345.524198</ele>
        <time>2021-11-10T22:05:37.241Z</time>
      </trkpt>
      <trkpt lat="47.514894" lon="7.705674">
        <ele>346.515043</ele>
        <time>2021-11-10T22:05:44.441Z</time>
      </trkpt>
      <trkpt lat="47.514825" lon="7.706411">
        <ele>348.883861</ele>
        <time>2021-11-10T22:06:00.592Z</time>
      </trkpt>
      <trkpt lat="47.514814" lon="7.706527">
        <ele>349.256792</ele>
        <time>2021-11-10T22:06:03.242Z</time>
      </trkpt>
      <trkpt lat="47.514743" lon="7.706635">
        <ele>349.617074</ele>
        <time>2021-11-10T22:06:07.158Z</time>
      </trkpt>
      <trkpt lat="47.514666" lon="7.706740">
        <ele>349.953354</ele>
        <time>2021-11-10T22:06:10.590Z</time>
      </trkpt>
      <trkpt lat="47.514343" lon="7.706915">
        <ele>351.058250</ele>
        <time>2021-11-10T22:06:22.420Z</time>
      </trkpt>
      <trkpt lat="47.513734" lon="7.707203">
        <ele>353.111976</ele>
        <time>2021-11-10T22:06:41.450Z</time>
      </trkpt>
      <trkpt lat="47.513611" lon="7.707363">
        <ele>353.637942</ele>
        <time>2021-11-10T22:06:45.481Z</time>
      </trkpt>
      <trkpt lat="47.513371" lon="7.707878">
        <ele>354.995511</ele>
        <time>2021-11-10T22:06:55.727Z</time>
      </trkpt>
      <trkpt lat="47.513290" lon="7.708040">
        <ele>354.911984</ele>
        <time>2021-11-10T22:06:58.285Z</time>
      </trkpt>
      <trkpt lat="47.513067" lon="7.708501">
        <ele>353.959504</ele>
        <time>2021-11-10T22:07:04.310Z</time>
      </trkpt>
      <trkpt lat="47.512389" lon="7.709762">
        <ele>351.252132</ele>
        <time>2021-11-10T22:07:15.464Z</time>
      </trkpt>
      <trkpt lat="47.511227" lon="7.711226">
        <ele>342.864553</ele>
        <time>2021-11-10T22:07:29.268Z</time>
      </trkpt>
      <trkpt lat="47.511160" lon="7.711279">
        <ele>342.405199</ele>
        <time>2021-11-10T22:07:29.912Z</time>
      </trkpt>
      <trkpt lat="47.511059" lon="7.711359">
        <ele>341.712537</ele>
        <time>2021-11-10T22:07:30.978Z</time>
      </trkpt>
      <trkpt lat="47.510849" lon="7.711435">
        <ele>340.405277</ele>
        <time>2021-11-10T22:07:33.005Z</time>
      </trkpt>
      <trkpt lat="47.509650" lon="7.711307">
        <ele>336.578019</ele>
        <time>2021-11-10T22:07:44.609Z</time>
      </trkpt>
      <trkpt lat="47.508867" lon="7.711685">
        <ele>334.553013</ele>
        <time>2021-11-10T22:07:55.583Z</time>
      </trkpt>
      <trkpt lat="47.508298" lon="7.712040">
        <ele>334.618730</ele>
        <time>2021-11-10T22:08:05.506Z</time>
      </trkpt>
      <trkpt lat="47.507634" lon="7.712013">
        <ele>334.689425</ele>
        <time>2021-11-10T22:08:16.449Z</time>
      </trkpt>
      <trkpt lat="47.506970" lon="7.712224">
        <ele>334.569849</ele>
        <time>2021-11-10T22:08:26.757Z</time>
      </trkpt>
      <trkpt lat="47.506809" lon="7.712355">
        <ele>334.466781</ele>
        <time>2021-11-10T22:08:29.210Z</time>
      </trkpt>
      <trkpt lat="47.506715" lon="7.712479">
        <ele>334.396146</ele>
        <time>2021-11-10T22:08:30.699Z</time>
      </trkpt>
      <trkpt lat="47.506266" lon="7.713149">
        <ele>334.038484</ele>
        <time>2021-11-10T22:08:38.718Z</time>
      </trkpt>
      <trkpt lat="47.505875" lon="7.713513">
        <ele>333.779357</ele>
        <time>2021-11-10T22:08:44.586Z</time>
      </trkpt>
      <trkpt lat="47.505683" lon="7.713648">
        <ele>333.700300</ele>
        <time>2021-11-10T22:08:47.446Z</time>
      </trkpt>
      <trkpt lat="47.505568" lon="7.713717">
        <ele>333.675862</ele>
        <time>2021-11-10T22:08:48.947Z</time>
      </trkpt>
      <trkpt lat="47.505140" lon="7.713870">
        <ele>333.589146</ele>
        <time>2021-11-10T22:08:54.683Z</time>
      </trkpt>
      <trkpt lat="47.505012" lon="7.713973">
        <ele>333.560453</ele>
        <time>2021-11-10T22:08:56.408Z</time>
      </trkpt>
      <trkpt lat="47.504968" lon="7.714063">
        <ele>333.545673</ele>
        <time>2021-11-10T22:08:57.542Z</time>
      </trkpt>
      <trkpt lat="47.504908" lon="7.714006">
        <ele>333.531632</ele>
        <time>2021-11-10T22:08:58.790Z</time>
      </trkpt>
      <trkpt lat="47.504863" lon="7.713967">
        <ele>333.521362</ele>
        <time>2021-11-10T22:08:59.698Z</time>
      </trkpt>
      <trkpt lat="47.504602" lon="7.713646">
        <ele>333.454534</ele>
        <time>2021-11-10T22:09:04.917Z</time>
      </trkpt>
      <trkpt lat="47.504446" lon="7.713401">
        <ele>333.409741</ele>
        <time>2021-11-10T22:09:07.802Z</time>
      </trkpt>
      <trkpt lat="47.504394" lon="7.713320">
        <ele>333.394874</ele>
        <time>2021-11-10T22:09:09.224Z</time>
      </trkpt>
      <trkpt lat="47.504303" lon="7.713177">
        <ele>333.368737</ele>
        <time>2021-11-10T22:09:12.018Z</time>
      </trkpt>
      <trkpt lat="47.504169" lon="7.713015">
        <ele>333.173888</ele>
        <time>2021-11-10T22:09:14.480Z</time>
      </trkpt>
      <trkpt lat="47.504095" lon="7.712929">
        <ele>333.065479</ele>
        <time>2021-11-10T22:09:16.608Z</time>
      </trkpt>
      <trkpt lat="47.504032" lon="7.712855">
        <ele>332.972807</ele>
        <time>2021-11-10T22:09:18.261Z</time>
      </trkpt>
      <trkpt lat="47.503857" lon="7.712710">
        <ele>332.741715</ele>
        <time>2021-11-10T22:09:21.132Z</time>
      </trkpt>
      <trkpt lat="47.503726" lon="7.712859">
        <ele>332.551350</ele>
        <time>2021-11-10T22:09:24.595Z</time>
      </trkpt>
      <trkpt lat="47.503602" lon="7.712990">
        <ele>332.375809</ele>
        <time>2021-11-10T22:09:26.488Z</time>
      </trkpt>
      <trkpt lat="47.503553" lon="7.713042">
        <ele>332.306336</ele>
        <time>2021-11-10T22:09:27.305Z</time>
      </trkpt>
      <trkpt lat="47.503496" lon="7.713114">
        <ele>332.219992</ele>
        <time>2021-11-10T22:09:28.706Z</time>
      </trkpt>
      <trkpt lat="47.503454" lon="7.713337">
        <ele>332.039783</ele>
        <time>2021-11-10T22:09:30.570Z</time>
      </trkpt>
      <trkpt lat="47.503475" lon="7.713452">
        <ele>331.947050</ele>
        <time>2021-11-10T22:09:31.414Z</time>
      </trkpt>
      <trkpt lat="47.503477" lon="7.713788">
        <ele>331.685488</ele>
        <time>2021-11-10T22:09:33.854Z</time>
      </trkpt>
      <trkpt lat="47.503465" lon="7.713906">
        <ele>331.592599</ele>
        <time>2021-11-10T22:09:34.664Z</time>
      </trkpt>
      <trkpt lat="47.503446" lon="7.714080">
        <ele>331.455394</ele>
        <time>2021-11-10T22:09:35.947Z</time>
      </trkpt>
      <trkpt lat="47.503376" lon="7.714303">
        <ele>331.144861</ele>
        <time>2021-11-10T22:09:37.627Z</time>
      </trkpt>
      <trkpt lat="47.503352" lon="7.714379">
        <ele>330.830686</ele>
        <time>2021-11-10T22:09:38.161Z</time>
      </trkpt>
      <trkpt lat="47.503243" lon="7.714676">
        <ele>329.564906</ele>
        <time>2021-11-10T22:09:40.415Z</time>
      </trkpt>
      <trkpt lat="47.503143" lon="7.714824">
        <ele>328.781005</ele>
        <time>2021-11-10T22:09:41.653Z</time>
      </trkpt>
      <trkpt lat="47.503112" lon="7.714858">
        <ele>328.567124</ele>
        <time>2021-11-10T22:09:42.029Z</time>
      </trkpt>
      <trkpt lat="47.503047" lon="7.714929">
        <ele>328.119312</ele>
        <time>2021-11-10T22:09:42.800Z</time>
      </trkpt>
      <trkpt lat="47.502947" lon="7.715052">
        <ele>327.398558</ele>
        <time>2021-11-10T22:09:44.048Z</time>
      </trkpt>
      <trkpt lat="47.502878" lon="7.715120">
        <ele>326.939036</ele>
        <time>2021-11-10T22:09:44.781Z</time>
      </trkpt>
      <trkpt lat="47.502840" lon="7.715168">
        <ele>326.662110</ele>
        <time>2021-11-10T22:09:45.212Z</time>
      </trkpt>
      <trkpt lat="47.502768" lon="7.715262">
        <ele>326.129915</ele>
        <time>2021-11-10T22:09:46.123Z</time>
      </trkpt>
      <trkpt lat="47.502701" lon="7.715349">
        <ele>325.635846</ele>
        <time>2021-11-10T22:09:46.975Z</time>
      </trkpt>
      <trkpt lat="47.502765" lon="7.715436">
        <ele>325.154154</ele>
        <time>2021-11-10T22:09:47.758Z</time>
      </trkpt>
      <trkpt lat="47.503037" lon="7.715711">
        <ele>323.328173</ele>
        <time>2021-11-10T22:09:50.769Z</time>
      </trkpt>
      <trkpt lat="47.503190" lon="7.715883">
        <ele>322.263147</ele>
        <time>2021-11-10T22:09:52.495Z</time>
      </trkpt>
      <trkpt lat="47.503374" lon="7.716090">
        <ele>320.991807</ele>
        <time>2021-11-10T22:09:54.605Z</time>
      </trkpt>
      <trkpt lat="47.503385" lon="7.716103">
        <ele>320.916015</ele>
        <time>2021-11-10T22:09:54.717Z</time>
      </trkpt>
      <trkpt lat="47.504638" lon="7.717428">
        <ele>312.624412</ele>
        <time>2021-11-10T22:10:08.962Z</time>
      </trkpt>
      <trkpt lat="47.504768" lon="7.717551">
        <ele>311.793644</ele>
        <time>2021-11-10T22:10:10.491Z</time>
      </trkpt>
      <trkpt lat="47.505110" lon="7.717878">
        <ele>310.459732</ele>
        <time>2021-11-10T22:10:14.682Z</time>
      </trkpt>
      <trkpt lat="47.505450" lon="7.718130">
        <ele>309.274637</ele>
        <time>2021-11-10T22:10:18.675Z</time>
      </trkpt>
      <trkpt lat="47.505555" lon="7.718218">
        <ele>308.898572</ele>
        <time>2021-11-10T22:10:19.958Z</time>
      </trkpt>
      <trkpt lat="47.505679" lon="7.718354">
        <ele>308.417581</ele>
        <time>2021-11-10T22:10:21.544Z</time>
      </trkpt>
      <trkpt lat="47.505743" lon="7.718437">
        <ele>308.152390</ele>
        <time>2021-11-10T22:10:22.458Z</time>
      </trkpt>
      <trkpt lat="47.505779" lon="7.718480">
        <ele>308.008218</ele>
        <time>2021-11-10T22:10:22.951Z</time>
      </trkpt>
      <trkpt lat="47.505956" lon="7.718729">
        <ele>307.247188</ele>
        <time>2021-11-10T22:10:25.456Z</time>
      </trkpt>
      <trkpt lat="47.505997" lon="7.718795">
        <ele>307.058407</ele>
        <time>2021-11-10T22:10:26.108Z</time>
      </trkpt>
      <trkpt lat="47.506068" lon="7.718917">
        <ele>306.719372</ele>
        <time>2021-11-10T22:10:27.281Z</time>
      </trkpt>
      <trkpt lat="47.506270" lon="7.719795">
        <ele>304.276186</ele>
        <time>2021-11-10T22:10:33.626Z</time>
      </trkpt>
      <trkpt lat="47.506301" lon="7.720052">
        <ele>303.513793</ele>
        <time>2021-11-10T22:10:35.315Z</time>
      </trkpt>
      <trkpt lat="47.506392" lon="7.720766">
        <ele>301.391900</ele>
        <time>2021-11-10T22:10:40.034Z</time>
      </trkpt>
      <trkpt lat="47.506430" lon="7.721111">
        <ele>300.371087</ele>
        <time>2021-11-10T22:10:42.320Z</time>
      </trkpt>
      <trkpt lat="47.506444" lon="7.721258">
        <ele>299.937556</ele>
        <time>2021-11-10T22:10:43.237Z</time>
      </trkpt>
      <trkpt lat="47.506487" lon="7.721251">
        <ele>299.750541</ele>
        <time>2021-11-10T22:10:43.645Z</time>
      </trkpt>
      <trkpt lat="47.506629" lon="7.721483">
        <ele>298.836279</ele>
        <time>2021-11-10T22:10:46.549Z</time>
      </trkpt>
      <trkpt lat="47.506792" lon="7.721716">
        <ele>297.847609</ele>
        <time>2021-11-10T22:10:49.539Z</time>
      </trkpt>
      <trkpt lat="47.506899" lon="7.721894">
        <ele>297.135975</ele>
        <time>2021-11-10T22:10:51.684Z</time>
      </trkpt>
      <trkpt lat="47.507172" lon="7.722216">
        <ele>295.592687</ele>
        <time>2021-11-10T22:10:56.325Z</time>
      </trkpt>
      <trkpt lat="47.507374" lon="7.722336">
        <ele>294.630355</ele>
        <time>2021-11-10T22:10:59.223Z</time>
      </trkpt>
      <trkpt lat="47.507569" lon="7.722425">
        <ele>293.728153</ele>
        <time>2021-11-10T22:11:01.976Z</time>
      </trkpt>
      <trkpt lat="47.507580" lon="7.722540">
        <ele>293.381271</ele>
        <time>2021-11-10T22:11:02.716Z</time>
      </trkpt>
      <trkpt lat="47.507757" lon="7.722978">
        <ele>291.856940</ele>
        <time>2021-11-10T22:11:06.046Z</time>
      </trkpt>
      <trkpt lat="47.507789" lon="7.723088">
        <ele>291.499248</ele>
        <time>2021-11-10T22:11:06.833Z</time>
      </trkpt>
      <trkpt lat="47.507799" lon="7.723186">
        <ele>291.203244</ele>
        <time>2021-11-10T22:11:07.504Z</time>
      </trkpt>
      <trkpt lat="47.507806" lon="7.723886">
        <ele>290.221532</ele>
        <time>2021-11-10T22:11:12.706Z</time>
      </trkpt>
      <trkpt lat="47.507810" lon="7.724326">
        <ele>290.129231</ele>
        <time>2021-11-10T22:11:16.081Z</time>
      </trkpt>
      <trkpt lat="47.507661" lon="7.724333">
        <ele>290.082939</ele>
        <time>2021-11-10T22:11:18.763Z</time>
      </trkpt>
      <trkpt lat="47.507444" lon="7.724343">
        <ele>290.015523</ele>
        <time>2021-11-10T22:11:22.574Z</time>
      </trkpt>
      <trkpt lat="47.507064" lon="7.724278">
        <ele>289.896738</ele>
        <time>2021-11-10T22:11:31.023Z</time>
      </trkpt>
      <trkpt lat="47.506945" lon="7.724261">
        <ele>289.859614</ele>
        <time>2021-11-10T22:11:34.096Z</time>
      </trkpt>
      <trkpt lat="47.506921" lon="7.724257">
        <ele>289.852114</ele>
        <time>2021-11-10T22:11:34.700Z</time>
      </trkpt>
      <trkpt lat="47.506607" lon="7.724268">
        <ele>289.754582</ele>
        <time>2021-11-10T22:11:42.790Z</time>
      </trkpt>
      <trkpt lat="47.506453" lon="7.724284">
        <ele>290.010112</ele>
        <time>2021-11-10T22:11:47.129Z</time>
      </trkpt>
      <trkpt lat="47.505930" lon="7.724337">
        <ele>291.077857</ele>
        <time>2021-11-10T22:12:02.771Z</time>
      </trkpt>
      <trkpt lat="47.505891" lon="7.724339">
        <ele>291.157341</ele>
        <time>2021-11-10T22:12:03.956Z</time>
      </trkpt>
      <trkpt lat="47.505851" lon="7.724341">
        <ele>291.238860</ele>
        <time>2021-11-10T22:12:05.168Z</time>
      </trkpt>
      <trkpt lat="47.505783" lon="7.724344">
        <ele>291.377424</ele>
        <time>2021-11-10T22:12:07.115Z</time>
      </trkpt>
      <trkpt lat="47.505646" lon="7.724350">
        <ele>291.656589</ele>
        <time>2021-11-10T22:12:11.436Z</time>
      </trkpt>
      <trkpt lat="47.505365" lon="7.724317">
        <ele>292.230732</ele>
        <time>2021-11-10T22:12:19.918Z</time>
      </trkpt>
      <trkpt lat="47.505161" lon="7.724267">
        <ele>292.651898</ele>
        <time>2021-11-10T22:12:25.463Z</time>
      </trkpt>
      <trkpt lat="47.505073" lon="7.724246">
        <ele>292.833451</ele>
        <time>2021-11-10T22:12:27.886Z</time>
      </trkpt>
      <trkpt lat="47.505012" lon="7.724231">
        <ele>292.959399</ele>
        <time>2021-11-10T22:12:30.076Z</time>
      </trkpt>
      <trkpt lat="47.504856" lon="7.724220">
        <ele>293.277502</ele>
        <time>2021-11-10T22:12:34.201Z</time>
      </trkpt>
      <trkpt lat="47.504610" lon="7.724250">
        <ele>293.544551</ele>
        <time>2021-11-10T22:12:41.105Z</time>
      </trkpt>
      <trkpt lat="47.504514" lon="7.724269">
        <ele>293.616144</ele>
        <time>2021-11-10T22:12:43.475Z</time>
      </trkpt>
      <trkpt lat="47.504396" lon="7.724291">
        <ele>293.704056</ele>
        <time>2021-11-10T22:12:46.408Z</time>
      </trkpt>
      <trkpt lat="47.504048" lon="7.724357">
        <ele>293.963392</ele>
        <time>2021-11-10T22:12:55.279Z</time>
      </trkpt>
      <trkpt lat="47.503945" lon="7.724377">
        <ele>294.040180</ele>
        <time>2021-11-10T22:12:58.013Z</time>
      </trkpt>
      <trkpt lat="47.503494" lon="7.724462">
        <ele>294.376241</ele>
        <time>2021-11-10T22:13:08.373Z</time>
      </trkpt>
      <trkpt lat="47.503457" lon="7.724469">
        <ele>294.403813</ele>
        <time>2021-11-10T22:13:09.076Z</time>
      </trkpt>
      <trkpt lat="47.503333" lon="7.724502">
        <ele>294.496940</ele>
        <time>2021-11-10T22:13:11.566Z</time>
      </trkpt>
      <trkpt lat="47.503201" lon="7.724541">
        <ele>294.596436</ele>
        <time>2021-11-10T22:13:14.128Z</time>
      </trkpt>
      <trkpt lat="47.502794" lon="7.724635">
        <ele>294.919147</ele>
        <time>2021-11-10T22:13:21.548Z</time>
      </trkpt>
      <trkpt lat="47.502584" lon="7.724671">
        <ele>295.093087</ele>
        <time>2021-11-10T22:13:25.265Z</time>
      </trkpt>
      <trkpt lat="47.502283" lon="7.724703">
        <ele>295.341385</ele>
        <time>2021-11-10T22:13:30.994Z</time>
      </trkpt>
      <trkpt lat="47.502205" lon="7.724690">
        <ele>295.405969</ele>
        <time>2021-11-10T22:13:32.612Z</time>
      </trkpt>
      <trkpt lat="47.502179" lon="7.724686">
        <ele>295.427476</ele>
        <time>2021-11-10T22:13:33.162Z</time>
      </trkpt>
      <trkpt lat="47.502172" lon="7.724685">
        <ele>295.433263</ele>
        <time>2021-11-10T22:13:33.299Z</time>
      </trkpt>
      <trkpt lat="47.502055" lon="7.724669">
        <ele>295.529939</ele>
        <time>2021-11-10T22:13:35.954Z</time>
      </trkpt>
      <trkpt lat="47.502040" lon="7.724902">
        <ele>295.660038</ele>
        <time>2021-11-10T22:13:39.203Z</time>
      </trkpt>
      <trkpt lat="47.502029" lon="7.725074">
        <ele>295.756071</ele>
        <time>2021-11-10T22:13:41.305Z</time>
      </trkpt>
      <trkpt lat="47.502031" lon="7.725298">
        <ele>295.880592</ele>
        <time>2021-11-10T22:13:44.349Z</time>
      </trkpt>
      <trkpt lat="47.502031" lon="7.725427">
        <ele>295.952297</ele>
        <time>2021-11-10T22:13:46.241Z</time>
      </trkpt>
      <trkpt lat="47.502048" lon="7.725782">
        <ele>296.150118</ele>
        <time>2021-11-10T22:13:51.571Z</time>
      </trkpt>
      <trkpt lat="47.502115" lon="7.726246">
        <ele>297.511645</ele>
        <time>2021-11-10T22:13:59.993Z</time>
      </trkpt>
      <trkpt lat="47.502122" lon="7.726303">
        <ele>297.725935</ele>
        <time>2021-11-10T22:14:01.200Z</time>
      </trkpt>
      <trkpt lat="47.502177" lon="7.726706">
        <ele>299.246686</ele>
        <time>2021-11-10T22:14:09.874Z</time>
      </trkpt>
      <trkpt lat="47.502189" lon="7.726824">
        <ele>299.688068</ele>
        <time>2021-11-10T22:14:12.523Z</time>
      </trkpt>
      <trkpt lat="47.502204" lon="7.726964">
        <ele>300.212379</ele>
        <time>2021-11-10T22:14:15.982Z</time>
      </trkpt>
      <trkpt lat="47.502370" lon="7.726942">
        <ele>301.124901</ele>
        <time>2021-11-10T22:14:21.983Z</time>
      </trkpt>
      <trkpt lat="47.502557" lon="7.726941">
        <ele>302.148774</ele>
        <time>2021-11-10T22:14:29.179Z</time>
      </trkpt>
      <trkpt lat="47.502785" lon="7.727007">
        <ele>303.420770</ele>
        <time>2021-11-10T22:14:38.550Z</time>
      </trkpt>
      <trkpt lat="47.502897" lon="7.727052">
        <ele>304.056182</ele>
        <time>2021-11-10T22:14:43.797Z</time>
      </trkpt>
      <trkpt lat="47.503012" lon="7.727124">
        <ele>304.739835</ele>
        <time>2021-11-10T22:14:49.415Z</time>
      </trkpt>
      <trkpt lat="47.503612" lon="7.727532">
        <ele>309.710920</ele>
        <time>2021-11-10T22:15:20.904Z</time>
      </trkpt>
      <trkpt lat="47.504330" lon="7.727938">
        <ele>316.413802</ele>
        <time>2021-11-10T22:15:59.393Z</time>
      </trkpt>
      <trkpt lat="47.504693" lon="7.728164">
        <ele>319.848074</ele>
        <time>2021-11-10T22:16:21.938Z</time>
      </trkpt>
      <trkpt lat="47.504979" lon="7.728357">
        <ele>322.480575</ele>
        <time>2021-11-10T22:16:36.650Z</time>
      </trkpt>
      <trkpt lat="47.505256" lon="7.728654">
        <ele>325.075719</ele>
        <time>2021-11-10T22:16:52.976Z</time>
      </trkpt>
      <trkpt lat="47.505279" lon="7.728682">
        <ele>325.301665</ele>
        <time>2021-11-10T22:16:54.406Z</time>
      </trkpt>
      <trkpt lat="47.505304" lon="7.728712">
        <ele>325.545850</ele>
        <time>2021-11-10T22:16:57.295Z</time>
      </trkpt>
      <trkpt lat="47.505472" lon="7.729028">
        <ele>327.606977</ele>
        <time>2021-11-10T22:17:07.756Z</time>
      </trkpt>
      <trkpt lat="47.505554" lon="7.729431">
        <ele>329.764242</ele>
        <time>2021-11-10T22:17:19.529Z</time>
      </trkpt>
      <trkpt lat="47.505566" lon="7.729659">
        <ele>330.936407</ele>
        <time>2021-11-10T22:17:26.914Z</time>
      </trkpt>
      <trkpt lat="47.505576" lon="7.729777">
        <ele>331.545962</ele>
        <time>2021-11-10T22:17:29.733Z</time>
      </trkpt>
      <trkpt lat="47.505600" lon="7.729862">
        <ele>332.018159</ele>
        <time>2021-11-10T22:17:31.598Z</time>
      </trkpt>
      <trkpt lat="47.505610" lon="7.729883">
        <ele>332.149851</ele>
        <time>2021-11-10T22:17:32.473Z</time>
      </trkpt>
      <trkpt lat="47.505698" lon="7.729940">
        <ele>332.878676</ele>
        <time>2021-11-10T22:17:36.054Z</time>
      </trkpt>
      <trkpt lat="47.505786" lon="7.729995">
        <ele>333.603452</ele>
        <time>2021-11-10T22:17:40.970Z</time>
      </trkpt>
      <trkpt lat="47.505964" lon="7.730090">
        <ele>335.039133</ele>
        <time>2021-11-10T22:17:48.923Z</time>
      </trkpt>
      <trkpt lat="47.506098" lon="7.730161">
        <ele>336.293042</ele>
        <time>2021-11-10T22:17:55.687Z</time>
      </trkpt>
      <trkpt lat="47.506263" lon="7.730221">
        <ele>337.894530</ele>
        <time>2021-11-10T22:18:03.728Z</time>
      </trkpt>
      <trkpt lat="47.506380" lon="7.730243">
        <ele>339.006207</ele>
        <time>2021-11-10T22:18:09.303Z</time>
      </trkpt>
      <trkpt lat="47.506380" lon="7.730243">
        <ele>339.006207</ele>
        <time>2021-11-10T22:18:09.328Z</time>
      </trkpt>
      <trkpt lat="47.506380" lon="7.730243">
        <ele>339.006207</ele>
        <time>2021-11-10T22:18:09.577Z</time>
      </trkpt>
      <trkpt lat="47.506471" lon="7.730276">
        <ele>339.889314</ele>
        <time>2021-11-10T22:18:14.549Z</time>
      </trkpt>
      <trkpt lat="47.506756" lon="7.730348">
        <ele>342.614497</ele>
        <time>2021-11-10T22:18:28.586Z</time>
      </trkpt>
      <trkpt lat="47.506937" lon="7.730311">
        <ele>344.336752</ele>
        <time>2021-11-10T22:18:38.186Z</time>
      </trkpt>
      <trkpt lat="47.507701" lon="7.730399">
        <ele>351.559813</ele>
        <time>2021-11-10T22:19:20.508Z</time>
      </trkpt>
      <trkpt lat="47.507939" lon="7.730423">
        <ele>354.145035</ele>
        <time>2021-11-10T22:19:35.435Z</time>
      </trkpt>
      <trkpt lat="47.508551" lon="7.730458">
        <ele>361.254718</ele>
        <time>2021-11-10T22:20:14.090Z</time>
      </trkpt>
      <trkpt lat="47.508949" lon="7.730515">
        <ele>365.896457</ele>
        <time>2021-11-10T22:20:39.374Z</time>
      </trkpt>
      <trkpt lat="47.509109" lon="7.730536">
        <ele>367.761098</ele>
        <time>2021-11-10T22:20:50.728Z</time>
      </trkpt>
      <trkpt lat="47.509299" lon="7.730556">
        <ele>369.972275</ele>
        <time>2021-11-10T22:21:01.920Z</time>
      </trkpt>
      <trkpt lat="47.509971" lon="7.730436">
        <ele>377.182526</ele>
        <time>2021-11-10T22:21:41.551Z</time>
      </trkpt>
      <trkpt lat="47.510248" lon="7.730401">
        <ele>379.955303</ele>
        <time>2021-11-10T22:21:56.679Z</time>
      </trkpt>
      <trkpt lat="47.510439" lon="7.730517">
        <ele>382.014354</ele>
        <time>2021-11-10T22:22:06.612Z</time>
      </trkpt>
      <trkpt lat="47.510529" lon="7.730600">
        <ele>383.071904</ele>
        <time>2021-11-10T22:22:13.553Z</time>
      </trkpt>
      <trkpt lat="47.510582" lon="7.730653">
        <ele>383.709803</ele>
        <time>2021-11-10T22:22:17.208Z</time>
      </trkpt>
      <trkpt lat="47.510894" lon="7.730938">
        <ele>387.366270</ele>
        <time>2021-11-10T22:22:35.499Z</time>
      </trkpt>
      <trkpt lat="47.511169" lon="7.731160">
        <ele>390.490303</ele>
        <time>2021-11-10T22:22:51.256Z</time>
      </trkpt>
      <trkpt lat="47.511556" lon="7.731396">
        <ele>394.100684</ele>
        <time>2021-11-10T22:23:15.109Z</time>
      </trkpt>
      <trkpt lat="47.511744" lon="7.731418">
        <ele>395.677737</ele>
        <time>2021-11-10T22:23:24.912Z</time>
      </trkpt>
      <trkpt lat="47.511927" lon="7.731386">
        <ele>397.218710</ele>
        <time>2021-11-10T22:23:35.994Z</time>
      </trkpt>
      <trkpt lat="47.511976" lon="7.731370">
        <ele>397.638320</ele>
        <time>2021-11-10T22:23:38.066Z</time>
      </trkpt>
      <trkpt lat="47.512002" lon="7.731362">
        <ele>397.860391</ele>
        <time>2021-11-10T22:23:39.282Z</time>
      </trkpt>
      <trkpt lat="47.512392" lon="7.731255">
        <ele>401.177289</ele>
        <time>2021-11-10T22:23:58.314Z</time>
      </trkpt>
      <trkpt lat="47.512650" lon="7.731136">
        <ele>403.437087</ele>
        <time>2021-11-10T22:24:10.746Z</time>
      </trkpt>
      <trkpt lat="47.512937" lon="7.731121">
        <ele>405.838618</ele>
        <time>2021-11-10T22:24:23.709Z</time>
      </trkpt>
      <trkpt lat="47.513227" lon="7.731116">
        <ele>406.971333</ele>
        <time>2021-11-10T22:24:35.179Z</time>
      </trkpt>
      <trkpt lat="47.514180" lon="7.731076">
        <ele>409.916143</ele>
        <time>2021-11-10T22:25:02.990Z</time>
      </trkpt>
      <trkpt lat="47.514358" lon="7.731113">
        <ele>410.471342</ele>
        <time>2021-11-10T22:25:06.988Z</time>
      </trkpt>
      <trkpt lat="47.515097" lon="7.731253">
        <ele>410.544658</ele>
        <time>2021-11-10T22:25:17.550Z</time>
      </trkpt>
      <trkpt lat="47.515284" lon="7.731353">
        <ele>409.794180</ele>
        <time>2021-11-10T22:25:20.322Z</time>
      </trkpt>
      <trkpt lat="47.515400" lon="7.731439">
        <ele>409.304503</ele>
        <time>2021-11-10T22:25:21.778Z</time>
      </trkpt>
      <trkpt lat="47.515516" lon="7.731602">
        <ele>408.700856</ele>
        <time>2021-11-10T22:25:23.377Z</time>
      </trkpt>
      <trkpt lat="47.515609" lon="7.731738">
        <ele>408.207465</ele>
        <time>2021-11-10T22:25:24.753Z</time>
      </trkpt>
      <trkpt lat="47.515656" lon="7.731823">
        <ele>407.927414</ele>
        <time>2021-11-10T22:25:25.497Z</time>
      </trkpt>
      <trkpt lat="47.515788" lon="7.732081">
        <ele>407.102276</ele>
        <time>2021-11-10T22:25:27.516Z</time>
      </trkpt>
      <trkpt lat="47.516143" lon="7.733008">
        <ele>403.588183</ele>
        <time>2021-11-10T22:25:33.940Z</time>
      </trkpt>
      <trkpt lat="47.516252" lon="7.733231">
        <ele>401.946187</ele>
        <time>2021-11-10T22:25:35.595Z</time>
      </trkpt>
      <trkpt lat="47.516307" lon="7.733325">
        <ele>401.204331</ele>
        <time>2021-11-10T22:25:36.309Z</time>
      </trkpt>
      <trkpt lat="47.516479" lon="7.733615">
        <ele>398.902166</ele>
        <time>2021-11-10T22:25:38.654Z</time>
      </trkpt>
      <trkpt lat="47.516777" lon="7.734159">
        <ele>394.724075</ele>
        <time>2021-11-10T22:25:42.742Z</time>
      </trkpt>
      <trkpt lat="47.517043" lon="7.734808">
        <ele>390.195785</ele>
        <time>2021-11-10T22:25:47.149Z</time>
      </trkpt>
      <trkpt lat="47.517532" lon="7.736243">
        <ele>382.469892</ele>
        <time>2021-11-10T22:25:56.580Z</time>
      </trkpt>
      <trkpt lat="47.517709" lon="7.736646">
        <ele>380.231411</ele>
        <time>2021-11-10T22:25:59.592Z</time>
      </trkpt>
      <trkpt lat="47.517827" lon="7.736889">
        <ele>378.837762</ele>
        <time>2021-11-10T22:26:01.505Z</time>
      </trkpt>
      <trkpt lat="47.518829" lon="7.738474">
        <ele>373.946420</ele>
        <time>2021-11-10T22:26:16.778Z</time>
      </trkpt>
      <trkpt lat="47.519284" lon="7.738961">
        <ele>372.611242</ele>
        <time>2021-11-10T22:26:23.725Z</time>
      </trkpt>
      <trkpt lat="47.519623" lon="7.739293">
        <ele>371.253182</ele>
        <time>2021-11-10T22:26:28.223Z</time>
      </trkpt>
      <trkpt lat="47.519931" lon="7.739563">
        <ele>369.970193</ele>
        <time>2021-11-10T22:26:32.018Z</time>
      </trkpt>
      <trkpt lat="47.520226" lon="7.739816">
        <ele>368.748214</ele>
        <time>2021-11-10T22:26:35.514Z</time>
      </trkpt>
      <trkpt lat="47.520523" lon="7.740087">
        <ele>367.497728</ele>
        <time>2021-11-10T22:26:40.416Z</time>
      </trkpt>
      <trkpt lat="47.520998" lon="7.740513">
        <ele>364.944210</ele>
        <time>2021-11-10T22:26:47.818Z</time>
      </trkpt>
      <trkpt lat="47.521267" lon="7.740757">
        <ele>362.435753</ele>
        <time>2021-11-10T22:26:51.872Z</time>
      </trkpt>
      <trkpt lat="47.522060" lon="7.741467">
        <ele>355.066922</ele>
        <time>2021-11-10T22:27:03.456Z</time>
      </trkpt>
      <trkpt lat="47.522380" lon="7.741760">
        <ele>352.075191</ele>
        <time>2021-11-10T22:27:08.083Z</time>
      </trkpt>
      <trkpt lat="47.522575" lon="7.741928">
        <ele>350.061331</ele>
        <time>2021-11-10T22:27:10.840Z</time>
      </trkpt>
      <trkpt lat="47.522769" lon="7.742227">
        <ele>347.481310</ele>
        <time>2021-11-10T22:27:14.347Z</time>
      </trkpt>
      <trkpt lat="47.522802" lon="7.742354">
        <ele>346.634607</ele>
        <time>2021-11-10T22:27:15.440Z</time>
      </trkpt>
      <trkpt lat="47.522809" lon="7.742436">
        <ele>346.120325</ele>
        <time>2021-11-10T22:27:16.127Z</time>
      </trkpt>
      <trkpt lat="47.522797" lon="7.742883">
        <ele>343.336798</ele>
        <time>2021-11-10T22:27:19.794Z</time>
      </trkpt>
      <trkpt lat="47.522763" lon="7.743129">
        <ele>341.774402</ele>
        <time>2021-11-10T22:27:21.914Z</time>
      </trkpt>
      <trkpt lat="47.522741" lon="7.743405">
        <ele>340.045146</ele>
        <time>2021-11-10T22:27:24.146Z</time>
      </trkpt>
      <trkpt lat="47.522718" lon="7.743713">
        <ele>338.117019</ele>
        <time>2021-11-10T22:27:26.760Z</time>
      </trkpt>
      <trkpt lat="47.522759" lon="7.744390">
        <ele>334.311374</ele>
        <time>2021-11-10T22:27:32.478Z</time>
      </trkpt>
      <trkpt lat="47.522842" lon="7.744668">
        <ele>333.084422</ele>
        <time>2021-11-10T22:27:35.154Z</time>
      </trkpt>
      <trkpt lat="47.522934" lon="7.744789">
        <ele>332.348907</ele>
        <time>2021-11-10T22:27:36.702Z</time>
      </trkpt>
      <trkpt lat="47.523159" lon="7.744998">
        <ele>330.761273</ele>
        <time>2021-11-10T22:27:40.374Z</time>
      </trkpt>
      <trkpt lat="47.523167" lon="7.745068">
        <ele>330.474697</ele>
        <time>2021-11-10T22:27:40.973Z</time>
      </trkpt>
      <trkpt lat="47.523193" lon="7.745320">
        <ele>329.445682</ele>
        <time>2021-11-10T22:27:43.244Z</time>
      </trkpt>
      <trkpt lat="47.523198" lon="7.745377">
        <ele>329.213665</ele>
        <time>2021-11-10T22:27:43.798Z</time>
      </trkpt>
      <trkpt lat="47.523204" lon="7.745491">
        <ele>328.752103</ele>
        <time>2021-11-10T22:27:44.886Z</time>
      </trkpt>
      <trkpt lat="47.523239" lon="7.745774">
        <ele>327.590760</ele>
        <time>2021-11-10T22:27:47.438Z</time>
      </trkpt>
      <trkpt lat="47.523291" lon="7.746042">
        <ele>326.465197</ele>
        <time>2021-11-10T22:27:49.993Z</time>
      </trkpt>
      <trkpt lat="47.523619" lon="7.747020">
        <ele>323.475026</ele>
        <time>2021-11-10T22:27:59.756Z</time>
      </trkpt>
      <trkpt lat="47.523642" lon="7.747090">
        <ele>323.355735</ele>
        <time>2021-11-10T22:28:00.616Z</time>
      </trkpt>
      <trkpt lat="47.523682" lon="7.747182">
        <ele>323.188061</ele>
        <time>2021-11-10T22:28:01.670Z</time>
      </trkpt>
      <trkpt lat="47.523736" lon="7.747262">
        <ele>323.014728</ele>
        <time>2021-11-10T22:28:02.923Z</time>
      </trkpt>
      <trkpt lat="47.523866" lon="7.747399">
        <ele>322.652651</ele>
        <time>2021-11-10T22:28:05.371Z</time>
      </trkpt>
      <trkpt lat="47.524008" lon="7.747563">
        <ele>322.244006</ele>
        <time>2021-11-10T22:28:08.445Z</time>
      </trkpt>
      <trkpt lat="47.524137" lon="7.747681">
        <ele>321.899930</ele>
        <time>2021-11-10T22:28:10.979Z</time>
      </trkpt>
      <trkpt lat="47.524148" lon="7.747688">
        <ele>321.872761</ele>
        <time>2021-11-10T22:28:11.129Z</time>
      </trkpt>
      <trkpt lat="47.524248" lon="7.747742">
        <ele>321.631220</ele>
        <time>2021-11-10T22:28:13.031Z</time>
      </trkpt>
      <trkpt lat="47.524334" lon="7.747786">
        <ele>321.424746</ele>
        <time>2021-11-10T22:28:14.575Z</time>
      </trkpt>
      <trkpt lat="47.524410" lon="7.747828">
        <ele>321.240666</ele>
        <time>2021-11-10T22:28:16.182Z</time>
      </trkpt>
      <trkpt lat="47.524463" lon="7.747889">
        <ele>321.088343</ele>
        <time>2021-11-10T22:28:17.492Z</time>
      </trkpt>
      <trkpt lat="47.524570" lon="7.748090">
        <ele>320.696140</ele>
        <time>2021-11-10T22:28:20.331Z</time>
      </trkpt>
      <trkpt lat="47.524712" lon="7.748378">
        <ele>320.391685</ele>
        <time>2021-11-10T22:28:24.999Z</time>
      </trkpt>
      <trkpt lat="47.524786" lon="7.748513">
        <ele>320.704710</ele>
        <time>2021-11-10T22:28:26.818Z</time>
      </trkpt>
      <trkpt lat="47.525255" lon="7.749393">
        <ele>322.722888</ele>
        <time>2021-11-10T22:28:40.417Z</time>
      </trkpt>
      <trkpt lat="47.525385" lon="7.749630">
        <ele>323.272567</ele>
        <time>2021-11-10T22:28:46.580Z</time>
      </trkpt>
      <trkpt lat="47.525429" lon="7.749531">
        <ele>323.485928</ele>
        <time>2021-11-10T22:28:49.202Z</time>
      </trkpt>
      <trkpt lat="47.525444" lon="7.749458">
        <ele>323.623294</ele>
        <time>2021-11-10T22:28:51.068Z</time>
      </trkpt>
      <trkpt lat="47.525304" lon="7.748899">
        <ele>324.696603</ele>
        <time>2021-11-10T22:29:07.541Z</time>
      </trkpt>
      <trkpt lat="47.525317" lon="7.748722">
        <ele>325.017122</ele>
        <time>2021-11-10T22:29:12.739Z</time>
      </trkpt>
      <trkpt lat="47.525947" lon="7.747470">
        <ele>331.536367</ele>
        <time>2021-11-10T22:30:04.547Z</time>
      </trkpt>
      <trkpt lat="47.526073" lon="7.747279">
        <ele>332.660148</ele>
        <time>2021-11-10T22:30:10.886Z</time>
      </trkpt>
      <trkpt lat="47.526114" lon="7.747216">
        <ele>333.028387</ele>
        <time>2021-11-10T22:30:14.758Z</time>
      </trkpt>
      <trkpt lat="47.526249" lon="7.747111">
        <ele>333.978778</ele>
        <time>2021-11-10T22:30:22.157Z</time>
      </trkpt>
      <trkpt lat="47.526743" lon="7.747167">
        <ele>336.595992</ele>
        <time>2021-11-10T22:30:42.186Z</time>
      </trkpt>
      <trkpt lat="47.526878" lon="7.747117">
        <ele>336.953211</ele>
        <time>2021-11-10T22:30:50.363Z</time>
      </trkpt>
      <trkpt lat="47.526986" lon="7.747029">
        <ele>337.269640</ele>
        <time>2021-11-10T22:30:53.615Z</time>
      </trkpt>
      <trkpt lat="47.527104" lon="7.746939">
        <ele>337.610358</ele>
        <time>2021-11-10T22:30:58.107Z</time>
      </trkpt>
      <trkpt lat="47.527234" lon="7.746843">
        <ele>337.983255</ele>
        <time>2021-11-10T22:31:05.480Z</time>
      </trkpt>
      <trkpt lat="47.527234" lon="7.746739">
        <ele>338.163523</ele>
        <time>2021-11-10T22:31:06.257Z</time>
      </trkpt>
      <trkpt lat="47.527272" lon="7.746452">
        <ele>338.670467</ele>
        <time>2021-11-10T22:31:11.649Z</time>
      </trkpt>
      <trkpt lat="47.527663" lon="7.745368">
        <ele>340.800682</ele>
        <time>2021-11-10T22:31:29.142Z</time>
      </trkpt>
      <trkpt lat="47.527803" lon="7.744786">
        <ele>340.521244</ele>
        <time>2021-11-10T22:31:33.390Z</time>
      </trkpt>
      <trkpt lat="47.527847" lon="7.744575">
        <ele>340.380917</ele>
        <time>2021-11-10T22:31:35.103Z</time>
      </trkpt>
      <trkpt lat="47.527877" lon="7.744397">
        <ele>340.264338</ele>
        <time>2021-11-10T22:31:36.481Z</time>
      </trkpt>
      <trkpt lat="47.527974" lon="7.743612">
        <ele>339.757232</ele>
        <time>2021-11-10T22:31:42.678Z</time>
      </trkpt>
      <trkpt lat="47.527999" lon="7.742832">
        <ele>339.261029</ele>
        <time>2021-11-10T22:31:49.704Z</time>
      </trkpt>
      <trkpt lat="47.527982" lon="7.742599">
        <ele>339.253619</ele>
        <time>2021-11-10T22:31:51.527Z</time>
      </trkpt>
      <trkpt lat="47.528103" lon="7.742593">
        <ele>339.344502</ele>
        <time>2021-11-10T22:31:54.198Z</time>
      </trkpt>
      <trkpt lat="47.528416" lon="7.742548">
        <ele>339.580570</ele>
        <time>2021-11-10T22:31:59.210Z</time>
      </trkpt>
      <trkpt lat="47.528573" lon="7.742445">
        <ele>339.709473</ele>
        <time>2021-11-10T22:32:02.453Z</time>
      </trkpt>
      <trkpt lat="47.529662" lon="7.740909">
        <ele>340.947617</ele>
        <time>2021-11-10T22:32:31.442Z</time>
      </trkpt>
      <trkpt lat="47.529727" lon="7.740791">
        <ele>341.053161</ele>
        <time>2021-11-10T22:32:33.333Z</time>
      </trkpt>
      <trkpt lat="47.530189" lon="7.741149">
        <ele>341.588367</ele>
        <time>2021-11-10T22:32:44.125Z</time>
      </trkpt>
      <trkpt lat="47.530274" lon="7.741330">
        <ele>341.741168</ele>
        <time>2021-11-10T22:32:46.781Z</time>
      </trkpt>
      <trkpt lat="47.530319" lon="7.741826">
        <ele>342.088014</ele>
        <time>2021-11-10T22:32:53.105Z</time>
      </trkpt>
      <trkpt lat="47.530354" lon="7.742323">
        <ele>342.343080</ele>
        <time>2021-11-10T22:32:59.098Z</time>
      </trkpt>
      <trkpt lat="47.530358" lon="7.742595">
        <ele>342.166210</ele>
        <time>2021-11-10T22:33:02.513Z</time>
      </trkpt>
      <trkpt lat="47.530398" lon="7.742881">
        <ele>341.976334</ele>
        <time>2021-11-10T22:33:05.196Z</time>
      </trkpt>
      <trkpt lat="47.530465" lon="7.743033">
        <ele>341.858325</ele>
        <time>2021-11-10T22:33:07.674Z</time>
      </trkpt>
      <trkpt lat="47.530789" lon="7.742930">
        <ele>341.539262</ele>
        <time>2021-11-10T22:33:12.236Z</time>
      </trkpt>
      <trkpt lat="47.531312" lon="7.742714">
        <ele>341.016489</ele>
        <time>2021-11-10T22:33:18.717Z</time>
      </trkpt>
      <trkpt lat="47.531799" lon="7.742604">
        <ele>340.020861</ele>
        <time>2021-11-10T22:33:23.911Z</time>
      </trkpt>
      <trkpt lat="47.532305" lon="7.742591">
        <ele>337.291377</ele>
        <time>2021-11-10T22:33:28.794Z</time>
      </trkpt>
      <trkpt lat="47.532788" lon="7.742758">
        <ele>334.616311</ele>
        <time>2021-11-10T22:33:33.435Z</time>
      </trkpt>
      <trkpt lat="47.533553" lon="7.743593">
        <ele>329.475561</ele>
        <time>2021-11-10T22:33:41.871Z</time>
      </trkpt>
      <trkpt lat="47.534012" lon="7.744242">
        <ele>326.016975</ele>
        <time>2021-11-10T22:33:47.716Z</time>
      </trkpt>
      <trkpt lat="47.534097" lon="7.744343">
        <ele>325.423046</ele>
        <time>2021-11-10T22:33:48.655Z</time>
      </trkpt>
      <trkpt lat="47.534179" lon="7.744495">
        <ele>324.707097</ele>
        <time>2021-11-10T22:33:49.983Z</time>
      </trkpt>
      <trkpt lat="47.534370" lon="7.744709">
        <ele>323.401803</ele>
        <time>2021-11-10T22:33:52.193Z</time>
      </trkpt>
      <trkpt lat="47.534429" lon="7.744856">
        <ele>322.772516</ele>
        <time>2021-11-10T22:33:53.435Z</time>
      </trkpt>
      <trkpt lat="47.534874" lon="7.746551">
        <ele>319.900824</ele>
        <time>2021-11-10T22:34:06.196Z</time>
      </trkpt>
      <trkpt lat="47.535912" lon="7.749669">
        <ele>319.248495</ele>
        <time>2021-11-10T22:34:44.536Z</time>
      </trkpt>
      <trkpt lat="47.537134" lon="7.752309">
        <ele>319.875868</ele>
        <time>2021-11-10T22:35:18.689Z</time>
      </trkpt>
      <trkpt lat="47.537371" lon="7.752851">
        <ele>320.666881</ele>
        <time>2021-11-10T22:35:25.337Z</time>
      </trkpt>
      <trkpt lat="47.537564" lon="7.753073">
        <ele>321.110252</ele>
        <time>2021-11-10T22:35:29.152Z</time>
      </trkpt>
      <trkpt lat="47.537715" lon="7.753194">
        <ele>321.421752</ele>
        <time>2021-11-10T22:35:32.997Z</time>
      </trkpt>
      <trkpt lat="47.538052" lon="7.753460">
        <ele>322.114609</ele>
        <time>2021-11-10T22:35:42.082Z</time>
      </trkpt>
      <trkpt lat="47.538359" lon="7.753900">
        <ele>322.889698</ele>
        <time>2021-11-10T22:35:53.313Z</time>
      </trkpt>
      <trkpt lat="47.538494" lon="7.754103">
        <ele>323.574587</ele>
        <time>2021-11-10T22:35:59.118Z</time>
      </trkpt>
      <trkpt lat="47.538723" lon="7.754445">
        <ele>325.286602</ele>
        <time>2021-11-10T22:36:09.311Z</time>
      </trkpt>
      <trkpt lat="47.538792" lon="7.754549">
        <ele>325.804856</ele>
        <time>2021-11-10T22:36:13.173Z</time>
      </trkpt>
      <trkpt lat="47.539079" lon="7.754976">
        <ele>327.946391</ele>
        <time>2021-11-10T22:36:28.871Z</time>
      </trkpt>
      <trkpt lat="47.539230" lon="7.755294">
        <ele>329.328182</ele>
        <time>2021-11-10T22:36:39.531Z</time>
      </trkpt>
      <trkpt lat="47.539346" lon="7.755736">
        <ele>331.013631</ele>
        <time>2021-11-10T22:36:52.822Z</time>
      </trkpt>
      <trkpt lat="47.539595" lon="7.757548">
        <ele>335.377124</ele>
        <time>2021-11-10T22:37:36.744Z</time>
      </trkpt>
      <trkpt lat="47.539722" lon="7.758107">
        <ele>336.557353</ele>
        <time>2021-11-10T22:37:45.752Z</time>
      </trkpt>
      <trkpt lat="47.539949" lon="7.758688">
        <ele>337.817200</ele>
        <time>2021-11-10T22:37:52.964Z</time>
      </trkpt>
      <trkpt lat="47.540447" lon="7.759585">
        <ele>335.004941</ele>
        <time>2021-11-10T22:38:01.488Z</time>
      </trkpt>
      <trkpt lat="47.540567" lon="7.759901">
        <ele>334.126999</ele>
        <time>2021-11-10T22:38:03.874Z</time>
      </trkpt>
      <trkpt lat="47.540921" lon="7.761599">
        <ele>327.584010</ele>
        <time>2021-11-10T22:38:14.997Z</time>
      </trkpt>
      <trkpt lat="47.541004" lon="7.762306">
        <ele>323.394611</ele>
        <time>2021-11-10T22:38:19.217Z</time>
      </trkpt>
      <trkpt lat="47.541023" lon="7.762922">
        <ele>319.794668</ele>
        <time>2021-11-10T22:38:22.801Z</time>
      </trkpt>
      <trkpt lat="47.541219" lon="7.763853">
        <ele>314.289325</ele>
        <time>2021-11-10T22:38:28.424Z</time>
      </trkpt>
      <trkpt lat="47.541334" lon="7.764020">
        <ele>313.045798</ele>
        <time>2021-11-10T22:38:29.891Z</time>
      </trkpt>
      <trkpt lat="47.541377" lon="7.764045">
        <ele>312.689102</ele>
        <time>2021-11-10T22:38:30.263Z</time>
      </trkpt>
      <trkpt lat="47.541364" lon="7.764150">
        <ele>312.132642</ele>
        <time>2021-11-10T22:38:30.875Z</time>
      </trkpt>
      <trkpt lat="47.541443" lon="7.764512">
        <ele>310.149502</ele>
        <time>2021-11-10T22:38:33.185Z</time>
      </trkpt>
      <trkpt lat="47.541552" lon="7.764869">
        <ele>308.107091</ele>
        <time>2021-11-10T22:38:35.479Z</time>
      </trkpt>
      <trkpt lat="47.541697" lon="7.765479">
        <ele>304.736004</ele>
        <time>2021-11-10T22:38:39.361Z</time>
      </trkpt>
      <trkpt lat="47.542317" lon="7.768533">
        <ele>296.079397</ele>
        <time>2021-11-10T22:39:00.834Z</time>
      </trkpt>
      <trkpt lat="47.542450" lon="7.769311">
        <ele>295.959142</ele>
        <time>2021-11-10T22:39:08.549Z</time>
      </trkpt>
      <trkpt lat="47.542720" lon="7.770771">
        <ele>295.757601</ele>
        <time>2021-11-10T22:39:25.093Z</time>
      </trkpt>
      <trkpt lat="47.543108" lon="7.773069">
        <ele>296.136613</ele>
        <time>2021-11-10T22:39:51.945Z</time>
      </trkpt>
      <trkpt lat="47.543145" lon="7.773277">
        <ele>296.182129</ele>
        <time>2021-11-10T22:39:54.071Z</time>
      </trkpt>
      <trkpt lat="47.543350" lon="7.774507">
        <ele>296.404025</ele>
        <time>2021-11-10T22:40:06.534Z</time>
      </trkpt>
      <trkpt lat="47.543402" lon="7.775016">
        <ele>296.484368</ele>
        <time>2021-11-10T22:40:11.597Z</time>
      </trkpt>
      <trkpt lat="47.543449" lon="7.775478">
        <ele>296.557286</ele>
        <time>2021-11-10T22:40:16.290Z</time>
      </trkpt>
      <trkpt lat="47.543482" lon="7.776095">
        <ele>296.653881</ele>
        <time>2021-11-10T22:40:22.998Z</time>
      </trkpt>
      <trkpt lat="47.543527" lon="7.776532">
        <ele>297.050509</ele>
        <time>2021-11-10T22:40:28.157Z</time>
      </trkpt>
      <trkpt lat="47.543707" lon="7.777394">
        <ele>298.597611</ele>
        <time>2021-11-10T22:40:40.444Z</time>
      </trkpt>
      <trkpt lat="47.543933" lon="7.778374">
        <ele>300.373282</ele>
        <time>2021-11-10T22:40:58.770Z</time>
      </trkpt>
      <trkpt lat="47.544100" lon="7.779438">
        <ele>303.590803</ele>
        <time>2021-11-10T22:41:22.971Z</time>
      </trkpt>
      <trkpt lat="47.544461" lon="7.782254">
        <ele>312.632602</ele>
        <time>2021-11-10T22:42:43.572Z</time>
      </trkpt>
      <trkpt lat="47.544469" lon="7.782455">
        <ele>312.784090</ele>
        <time>2021-11-10T22:42:48.606Z</time>
      </trkpt>
      <trkpt lat="47.544474" lon="7.782623">
        <ele>312.910609</ele>
        <time>2021-11-10T22:42:50.994Z</time>
      </trkpt>
      <trkpt lat="47.544490" lon="7.783060">
        <ele>313.239874</ele>
        <time>2021-11-10T22:42:54.885Z</time>
      </trkpt>
      <trkpt lat="47.544555" lon="7.783372">
        <ele>313.485536</ele>
        <time>2021-11-10T22:42:57.370Z</time>
      </trkpt>
      <trkpt lat="47.544627" lon="7.783499">
        <ele>313.610315</ele>
        <time>2021-11-10T22:42:58.767Z</time>
      </trkpt>
      <trkpt lat="47.544950" lon="7.784008">
        <ele>313.602471</ele>
        <time>2021-11-10T22:43:05.579Z</time>
      </trkpt>
      <trkpt lat="47.545054" lon="7.784227">
        <ele>312.520229</ele>
        <time>2021-11-10T22:43:08.151Z</time>
      </trkpt>
      <trkpt lat="47.545240" lon="7.784746">
        <ele>310.145258</ele>
        <time>2021-11-10T22:43:13.306Z</time>
      </trkpt>
      <trkpt lat="47.545250" lon="7.784778">
        <ele>310.002735</ele>
        <time>2021-11-10T22:43:13.579Z</time>
      </trkpt>
      <trkpt lat="47.545624" lon="7.785548">
        <ele>306.168670</ele>
        <time>2021-11-10T22:43:21.743Z</time>
      </trkpt>
      <trkpt lat="47.545672" lon="7.785654">
        <ele>305.652777</ele>
        <time>2021-11-10T22:43:22.752Z</time>
      </trkpt>
      <trkpt lat="47.545856" lon="7.785973">
        <ele>303.956875</ele>
        <time>2021-11-10T22:43:26.593Z</time>
      </trkpt>
      <trkpt lat="47.546102" lon="7.786217">
        <ele>302.890525</ele>
        <time>2021-11-10T22:43:30.578Z</time>
      </trkpt>
      <trkpt lat="47.546417" lon="7.786331">
        <ele>302.197499</ele>
        <time>2021-11-10T22:43:35.152Z</time>
      </trkpt>
      <trkpt lat="47.546464" lon="7.786335">
        <ele>302.096883</ele>
        <time>2021-11-10T22:43:35.914Z</time>
      </trkpt>
      <trkpt lat="47.546526" lon="7.786353">
        <ele>301.961854</ele>
        <time>2021-11-10T22:43:36.911Z</time>
      </trkpt>
      <trkpt lat="47.546913" lon="7.786470">
        <ele>301.117698</ele>
        <time>2021-11-10T22:43:43.069Z</time>
      </trkpt>
      <trkpt lat="47.546952" lon="7.786540">
        <ele>300.986759</ele>
        <time>2021-11-10T22:43:44.007Z</time>
      </trkpt>
      <trkpt lat="47.546959" lon="7.786598">
        <ele>300.901761</ele>
        <time>2021-11-10T22:43:44.708Z</time>
      </trkpt>
      <trkpt lat="47.546897" lon="7.787133">
        <ele>300.118674</ele>
        <time>2021-11-10T22:43:51.898Z</time>
      </trkpt>
      <trkpt lat="47.546695" lon="7.788763">
        <ele>299.910686</ele>
        <time>2021-11-10T22:44:15.885Z</time>
      </trkpt>
      <trkpt lat="47.546673" lon="7.788921">
        <ele>299.974942</ele>
        <time>2021-11-10T22:44:18.498Z</time>
      </trkpt>
      <trkpt lat="47.546486" lon="7.790291">
        <ele>300.551329</ele>
        <time>2021-11-10T22:44:40.510Z</time>
      </trkpt>
      <trkpt lat="47.546253" lon="7.791998">
        <ele>301.672774</ele>
        <time>2021-11-10T22:45:10.775Z</time>
      </trkpt>
      <trkpt lat="47.546027" lon="7.793254">
        <ele>302.110191</ele>
        <time>2021-11-10T22:45:30.288Z</time>
      </trkpt>
      <trkpt lat="47.545969" lon="7.793663">
        <ele>302.013696</ele>
        <time>2021-11-10T22:45:35.425Z</time>
      </trkpt>
      <trkpt lat="47.545945" lon="7.794062">
        <ele>301.921206</ele>
        <time>2021-11-10T22:45:40.200Z</time>
      </trkpt>
      <trkpt lat="47.545921" lon="7.794468">
        <ele>301.827107</ele>
        <time>2021-11-10T22:45:45.272Z</time>
      </trkpt>
      <trkpt lat="47.545947" lon="7.794710">
        <ele>301.770528</ele>
        <time>2021-11-10T22:45:48.106Z</time>
      </trkpt>
      <trkpt lat="47.546019" lon="7.795020">
        <ele>301.694834</ele>
        <time>2021-11-10T22:45:52.133Z</time>
      </trkpt>
      <trkpt lat="47.546165" lon="7.795511">
        <ele>301.593305</ele>
        <time>2021-11-10T22:45:59.047Z</time>
      </trkpt>
      <trkpt lat="47.546170" lon="7.795612">
        <ele>301.587659</ele>
        <time>2021-11-10T22:46:00.096Z</time>
      </trkpt>
      <trkpt lat="47.546154" lon="7.795747">
        <ele>301.580018</ele>
        <time>2021-11-10T22:46:01.922Z</time>
      </trkpt>
      <trkpt lat="47.546105" lon="7.795928">
        <ele>301.569146</ele>
        <time>2021-11-10T22:46:05.061Z</time>
      </trkpt>
      <trkpt lat="47.546038" lon="7.796107">
        <ele>301.557735</ele>
        <time>2021-11-10T22:46:07.382Z</time>
      </trkpt>
      <trkpt lat="47.545928" lon="7.796398">
        <ele>301.539142</ele>
        <time>2021-11-10T22:46:12.781Z</time>
      </trkpt>
      <trkpt lat="47.545889" lon="7.796500">
        <ele>301.532606</ele>
        <time>2021-11-10T22:46:14.276Z</time>
      </trkpt>
      <trkpt lat="47.545788" lon="7.796748">
        <ele>301.516459</ele>
        <time>2021-11-10T22:46:17.924Z</time>
      </trkpt>
      <trkpt lat="47.545728" lon="7.796950">
        <ele>301.504155</ele>
        <time>2021-11-10T22:46:21.251Z</time>
      </trkpt>
      <trkpt lat="47.545689" lon="7.797076">
        <ele>301.496428</ele>
        <time>2021-11-10T22:46:22.710Z</time>
      </trkpt>
      <trkpt lat="47.545670" lon="7.797142">
        <ele>301.492428</ele>
        <time>2021-11-10T22:46:23.768Z</time>
      </trkpt>
      <trkpt lat="47.545645" lon="7.797258">
        <ele>301.485639</ele>
        <time>2021-11-10T22:46:25.525Z</time>
      </trkpt>
      <trkpt lat="47.545637" lon="7.797310">
        <ele>301.482666</ele>
        <time>2021-11-10T22:46:26.870Z</time>
      </trkpt>
      <trkpt lat="47.545558" lon="7.798144">
        <ele>301.418191</ele>
        <time>2021-11-10T22:46:38.157Z</time>
      </trkpt>
      <trkpt lat="47.545511" lon="7.798680">
        <ele>301.355365</ele>
        <time>2021-11-10T22:46:46.229Z</time>
      </trkpt>
      <trkpt lat="47.545581" lon="7.798713">
        <ele>301.342715</ele>
        <time>2021-11-10T22:46:47.740Z</time>
      </trkpt>
      <trkpt lat="47.545731" lon="7.798810">
        <ele>301.314531</ele>
        <time>2021-11-10T22:46:51.746Z</time>
      </trkpt>
      <trkpt lat="47.545807" lon="7.798846">
        <ele>301.300791</ele>
        <time>2021-11-10T22:46:53.084Z</time>
      </trkpt>
      <trkpt lat="47.546418" lon="7.798980">
        <ele>301.194429</ele>
        <time>2021-11-10T22:47:05.139Z</time>
      </trkpt>
      <trkpt lat="47.547540" lon="7.799538">
        <ele>300.715140</ele>
        <time>2021-11-10T22:47:25.780Z</time>
      </trkpt>
      <trkpt lat="47.547912" lon="7.799646">
        <ele>300.531174</ele>
        <time>2021-11-10T22:47:33.161Z</time>
      </trkpt>
      <trkpt lat="47.548459" lon="7.799691">
        <ele>300.268683</ele>
        <time>2021-11-10T22:47:44.099Z</time>
      </trkpt>
      <trkpt lat="47.548535" lon="7.799720">
        <ele>300.263188</ele>
        <time>2021-11-10T22:47:45.619Z</time>
      </trkpt>
      <trkpt lat="47.548514" lon="7.799795">
        <ele>300.259351</ele>
        <time>2021-11-10T22:47:46.682Z</time>
      </trkpt>
      <trkpt lat="47.548519" lon="7.799896">
        <ele>300.254566</ele>
        <time>2021-11-10T22:47:48.037Z</time>
      </trkpt>
      <trkpt lat="47.548545" lon="7.800404">
        <ele>300.230492</ele>
        <time>2021-11-10T22:47:54.828Z</time>
      </trkpt>
      <trkpt lat="47.548560" lon="7.800672">
        <ele>300.217784</ele>
        <time>2021-11-10T22:47:58.520Z</time>
      </trkpt>
      <trkpt lat="47.548569" lon="7.800838">
        <ele>300.209914</ele>
        <time>2021-11-10T22:48:00.764Z</time>
      </trkpt>
      <trkpt lat="47.548576" lon="7.800968">
        <ele>300.203752</ele>
        <time>2021-11-10T22:48:02.540Z</time>
      </trkpt>
      <trkpt lat="47.548596" lon="7.801213">
        <ele>300.192090</ele>
        <time>2021-11-10T22:48:05.919Z</time>
      </trkpt>
      <trkpt lat="47.548607" lon="7.801690">
        <ele>300.169536</ele>
        <time>2021-11-10T22:48:12.419Z</time>
      </trkpt>
      <trkpt lat="47.548626" lon="7.802129">
        <ele>300.148749</ele>
        <time>2021-11-10T22:48:18.338Z</time>
      </trkpt>
      <trkpt lat="47.548877" lon="7.802168">
        <ele>300.092494</ele>
        <time>2021-11-10T22:48:23.330Z</time>
      </trkpt>
      <trkpt lat="47.549074" lon="7.802189">
        <ele>300.035105</ele>
        <time>2021-11-10T22:48:27.271Z</time>
      </trkpt>
      <trkpt lat="47.549410" lon="7.802226">
        <ele>299.937205</ele>
        <time>2021-11-10T22:48:33.750Z</time>
      </trkpt>
      <trkpt lat="47.549481" lon="7.802234">
        <ele>299.916515</ele>
        <time>2021-11-10T22:48:35.088Z</time>
      </trkpt>
      <trkpt lat="47.549879" lon="7.802247">
        <ele>299.800841</ele>
        <time>2021-11-10T22:48:42.554Z</time>
      </trkpt>
      <trkpt lat="47.550146" lon="7.802262">
        <ele>299.723204</ele>
        <time>2021-11-10T22:48:47.628Z</time>
      </trkpt>
      <trkpt lat="47.550134" lon="7.803051">
        <ele>299.588428</ele>
        <time>2021-11-10T22:48:57.852Z</time>
      </trkpt>
      <trkpt lat="47.550196" lon="7.803120">
        <ele>299.574516</ele>
        <time>2021-11-10T22:48:59.311Z</time>
      </trkpt>
      <trkpt lat="47.550981" lon="7.803132">
        <ele>299.433678</ele>
        <time>2021-11-10T22:49:13.958Z</time>
      </trkpt>
      <trkpt lat="47.551163" lon="7.803129">
        <ele>299.401025</ele>
        <time>2021-11-10T22:49:17.361Z</time>
      </trkpt>
      <trkpt lat="47.551598" lon="7.803160">
        <ele>299.322894</ele>
        <time>2021-11-10T22:49:25.935Z</time>
      </trkpt>
      <trkpt lat="47.551666" lon="7.803144">
        <ele>299.310542</ele>
        <time>2021-11-10T22:49:30.679Z</time>
      </trkpt>
      <trkpt lat="47.551732" lon="7.803125">
        <ele>299.298480</ele>
        <time>2021-11-10T22:49:35.346Z</time>
      </trkpt>
      <trkpt lat="47.551744" lon="7.803277">
        <ele>299.374402</ele>
        <time>2021-11-10T22:49:36.905Z</time>
      </trkpt>
      <trkpt lat="47.551751" lon="7.803369">
        <ele>299.421783</ele>
        <time>2021-11-10T22:49:38.208Z</time>
      </trkpt>
      <trkpt lat="47.551692" lon="7.803510">
        <ele>299.506686</ele>
        <time>2021-11-10T22:49:40.816Z</time>
      </trkpt>
      <trkpt lat="47.551741" lon="7.804294">
        <ele>299.909631</ele>
        <time>2021-11-10T22:49:53.609Z</time>
      </trkpt>
      <trkpt lat="47.551744" lon="7.804473">
        <ele>300.001267</ele>
        <time>2021-11-10T22:49:56.441Z</time>
      </trkpt>
      <trkpt lat="47.551731" lon="7.804667">
        <ele>300.101038</ele>
        <time>2021-11-10T22:50:00.248Z</time>
      </trkpt>
      <trkpt lat="47.551709" lon="7.805000">
        <ele>300.272273</ele>
        <time>2021-11-10T22:50:04.913Z</time>
      </trkpt>
      <trkpt lat="47.551683" lon="7.805444">
        <ele>300.500353</ele>
        <time>2021-11-10T22:50:11.798Z</time>
      </trkpt>
      <trkpt lat="47.551681" lon="7.805477">
        <ele>300.517309</ele>
        <time>2021-11-10T22:50:12.649Z</time>
      </trkpt>
      <trkpt lat="47.551671" lon="7.806117">
        <ele>300.683308</ele>
        <time>2021-11-10T22:50:22.692Z</time>
      </trkpt>
      <trkpt lat="47.551651" lon="7.806246">
        <ele>300.691241</ele>
        <time>2021-11-10T22:50:25.478Z</time>
      </trkpt>
      <trkpt lat="47.551895" lon="7.806278">
        <ele>300.712993</ele>
        <time>2021-11-10T22:50:29.145Z</time>
      </trkpt>
      <trkpt lat="47.552015" lon="7.806307">
        <ele>300.723790</ele>
        <time>2021-11-10T22:50:31.856Z</time>
      </trkpt>
      <trkpt lat="47.552068" lon="7.806445">
        <ele>300.733306</ele>
        <time>2021-11-10T22:50:33.227Z</time>
      </trkpt>
      <trkpt lat="47.552398" lon="7.808880">
        <ele>300.385631</ele>
        <time>2021-11-10T22:50:55.564Z</time>
      </trkpt>
      <trkpt lat="47.552566" lon="7.810386">
        <ele>299.727122</ele>
        <time>2021-11-10T22:51:08.575Z</time>
      </trkpt>
      <trkpt lat="47.552711" lon="7.812955">
        <ele>298.600483</ele>
        <time>2021-11-10T22:51:31.183Z</time>
      </trkpt>
      <trkpt lat="47.552844" lon="7.816432">
        <ele>297.430166</ele>
        <time>2021-11-10T22:52:01.676Z</time>
      </trkpt>
      <trkpt lat="47.552948" lon="7.819358">
        <ele>297.814621</ele>
        <time>2021-11-10T22:52:32.906Z</time>
      </trkpt>
      <trkpt lat="47.552896" lon="7.820699">
        <ele>298.354099</ele>
        <time>2021-11-10T22:52:48.989Z</time>
      </trkpt>
      <trkpt lat="47.552567" lon="7.824508">
        <ele>300.240815</ele>
        <time>2021-11-10T22:53:35.475Z</time>
      </trkpt>
      <trkpt lat="47.552491" lon="7.827227">
        <ele>301.772006</ele>
        <time>2021-11-10T22:54:07.215Z</time>
      </trkpt>
      <trkpt lat="47.552515" lon="7.828094">
        <ele>302.504655</ele>
        <time>2021-11-10T22:54:18.925Z</time>
      </trkpt>
      <trkpt lat="47.552477" lon="7.828294">
        <ele>302.680085</ele>
        <time>2021-11-10T22:54:21.542Z</time>
      </trkpt>
      <trkpt lat="47.552421" lon="7.828481">
        <ele>302.852819</ele>
        <time>2021-11-10T22:54:24.472Z</time>
      </trkpt>
      <trkpt lat="47.552404" lon="7.828582">
        <ele>302.940708</ele>
        <time>2021-11-10T22:54:26.158Z</time>
      </trkpt>
      <trkpt lat="47.552416" lon="7.828822">
        <ele>303.143903</ele>
        <time>2021-11-10T22:54:29.390Z</time>
      </trkpt>
      <trkpt lat="47.552554" lon="7.829266">
        <ele>303.755750</ele>
        <time>2021-11-10T22:54:36.743Z</time>
      </trkpt>
      <trkpt lat="47.552645" lon="7.830686">
        <ele>306.217781</ele>
        <time>2021-11-10T22:55:00.049Z</time>
      </trkpt>
      <trkpt lat="47.552690" lon="7.832598">
        <ele>309.757915</ele>
        <time>2021-11-10T22:55:35.525Z</time>
      </trkpt>
      <trkpt lat="47.552616" lon="7.832891">
        <ele>310.380562</ele>
        <time>2021-11-10T22:55:40.890Z</time>
      </trkpt>
      <trkpt lat="47.552556" lon="7.832977">
        <ele>310.626741</ele>
        <time>2021-11-10T22:55:43.621Z</time>
      </trkpt>
      <trkpt lat="47.552511" lon="7.833072">
        <ele>310.857739</ele>
        <time>2021-11-10T22:55:45.647Z</time>
      </trkpt>
      <trkpt lat="47.552467" lon="7.833198">
        <ele>311.140096</ele>
        <time>2021-11-10T22:55:48.049Z</time>
      </trkpt>
      <trkpt lat="47.552452" lon="7.833284">
        <ele>311.316884</ele>
        <time>2021-11-10T22:55:49.659Z</time>
      </trkpt>
      <trkpt lat="47.552696" lon="7.833789">
        <ele>312.552991</ele>
        <time>2021-11-10T22:56:00.691Z</time>
      </trkpt>
      <trkpt lat="47.552700" lon="7.833938">
        <ele>312.849778</ele>
        <time>2021-11-10T22:56:03.635Z</time>
      </trkpt>
      <trkpt lat="47.552714" lon="7.835010">
        <ele>314.404455</ele>
        <time>2021-11-10T22:56:22.112Z</time>
      </trkpt>
      <trkpt lat="47.552719" lon="7.836790">
        <ele>316.749618</ele>
        <time>2021-11-10T22:56:47.396Z</time>
      </trkpt>
      <trkpt lat="47.552697" lon="7.838068">
        <ele>318.041828</ele>
        <time>2021-11-10T22:57:05.038Z</time>
      </trkpt>
      <trkpt lat="47.552736" lon="7.838578">
        <ele>318.557626</ele>
        <time>2021-11-10T22:57:12.165Z</time>
      </trkpt>
      <trkpt lat="47.552802" lon="7.839009">
        <ele>319.001763</ele>
        <time>2021-11-10T22:57:18.384Z</time>
      </trkpt>
      <trkpt lat="47.552939" lon="7.839526">
        <ele>319.567619</ele>
        <time>2021-11-10T22:57:26.173Z</time>
      </trkpt>
      <trkpt lat="47.553231" lon="7.841529">
        <ele>321.784378</ele>
        <time>2021-11-10T22:57:56.303Z</time>
      </trkpt>
      <trkpt lat="47.553216" lon="7.841849">
        <ele>322.131378</ele>
        <time>2021-11-10T22:58:00.827Z</time>
      </trkpt>
      <trkpt lat="47.553123" lon="7.842222">
        <ele>322.474460</ele>
        <time>2021-11-10T22:58:06.057Z</time>
      </trkpt>
      <trkpt lat="47.553133" lon="7.842431">
        <ele>322.611110</ele>
        <time>2021-11-10T22:58:09.186Z</time>
      </trkpt>
      <trkpt lat="47.552833" lon="7.842495">
        <ele>322.904003</ele>
        <time>2021-11-10T22:58:16.495Z</time>
      </trkpt>
      <trkpt lat="47.552380" lon="7.842592">
        <ele>323.346304</ele>
        <time>2021-11-10T22:58:27.544Z</time>
      </trkpt>
      <trkpt lat="47.551922" lon="7.842704">
        <ele>323.794877</ele>
        <time>2021-11-10T22:58:38.110Z</time>
      </trkpt>
      <trkpt lat="47.551668" lon="7.842770">
        <ele>324.044074</ele>
        <time>2021-11-10T22:58:44.068Z</time>
      </trkpt>
      <trkpt lat="47.551454" lon="7.842815">
        <ele>324.244561</ele>
        <time>2021-11-10T22:58:48.755Z</time>
      </trkpt>
      <trkpt lat="47.551344" lon="7.844621">
        <ele>325.369795</ele>
        <time>2021-11-10T22:59:11.270Z</time>
      </trkpt>
      <trkpt lat="47.551205" lon="7.846694">
        <ele>327.171946</ele>
        <time>2021-11-10T22:59:39.257Z</time>
      </trkpt>
      <trkpt lat="47.551184" lon="7.847206">
        <ele>327.664903</ele>
        <time>2021-11-10T22:59:46.643Z</time>
      </trkpt>
      <trkpt lat="47.551196" lon="7.847517">
        <ele>327.964272</ele>
        <time>2021-11-10T22:59:51.207Z</time>
      </trkpt>
      <trkpt lat="47.551669" lon="7.848083">
        <ele>328.868589</ele>
        <time>2021-11-10T23:00:04.268Z</time>
      </trkpt>
      <trkpt lat="47.551242" lon="7.848702">
        <ele>329.780578</ele>
        <time>2021-11-10T23:00:16.876Z</time>
      </trkpt>
      <trkpt lat="47.550975" lon="7.849066">
        <ele>330.334486</ele>
        <time>2021-11-10T23:00:24.192Z</time>
      </trkpt>
      <trkpt lat="47.550869" lon="7.849245">
        <ele>330.579851</ele>
        <time>2021-11-10T23:00:28.222Z</time>
      </trkpt>
      <trkpt lat="47.550810" lon="7.849346">
        <ele>330.717485</ele>
        <time>2021-11-10T23:00:30.585Z</time>
      </trkpt>
      <trkpt lat="47.550488" lon="7.850081">
        <ele>331.380085</ele>
        <time>2021-11-10T23:00:46.025Z</time>
      </trkpt>
      <trkpt lat="47.550333" lon="7.850434">
        <ele>331.634043</ele>
        <time>2021-11-10T23:00:53.372Z</time>
      </trkpt>
      <trkpt lat="47.550009" lon="7.851173">
        <ele>332.165465</ele>
        <time>2021-11-10T23:01:07.918Z</time>
      </trkpt>
      <trkpt lat="47.549652" lon="7.851969">
        <ele>332.622723</ele>
        <time>2021-11-10T23:01:21.802Z</time>
      </trkpt>
      <trkpt lat="47.549535" lon="7.852225">
        <ele>332.572343</ele>
        <time>2021-11-10T23:01:25.854Z</time>
      </trkpt>
      <trkpt lat="47.549285" lon="7.852784">
        <ele>332.463070</ele>
        <time>2021-11-10T23:01:34.503Z</time>
      </trkpt>
      <trkpt lat="47.549423" lon="7.852945">
        <ele>332.420663</ele>
        <time>2021-11-10T23:01:37.817Z</time>
      </trkpt>
      <trkpt lat="47.549708" lon="7.853279">
        <ele>332.332933</ele>
        <time>2021-11-10T23:01:44.875Z</time>
      </trkpt>
      <trkpt lat="47.550221" lon="7.853833">
        <ele>332.135945</ele>
        <time>2021-11-10T23:01:56.809Z</time>
      </trkpt>
      <trkpt lat="47.549883" lon="7.854434">
        <ele>331.845202</ele>
        <time>2021-11-10T23:02:03.488Z</time>
      </trkpt>
      <trkpt lat="47.549566" lon="7.855225">
        <ele>331.503305</ele>
        <time>2021-11-10T23:02:14.667Z</time>
      </trkpt>
      <trkpt lat="47.549362" lon="7.855774">
        <ele>331.270386</ele>
        <time>2021-11-10T23:02:22.589Z</time>
      </trkpt>
      <trkpt lat="47.548887" lon="7.857308">
        <ele>331.194673</ele>
        <time>2021-11-10T23:02:44.697Z</time>
      </trkpt>
      <trkpt lat="47.548743" lon="7.857692">
        <ele>331.186591</ele>
        <time>2021-11-10T23:02:50.669Z</time>
      </trkpt>
      <trkpt lat="47.548701" lon="7.857893">
        <ele>331.182719</ele>
        <time>2021-11-10T23:02:53.640Z</time>
      </trkpt>
      <trkpt lat="47.548686" lon="7.857973">
        <ele>331.181192</ele>
        <time>2021-11-10T23:02:54.764Z</time>
      </trkpt>
      <trkpt lat="47.548611" lon="7.858381">
        <ele>331.208903</ele>
        <time>2021-11-10T23:03:00.978Z</time>
      </trkpt>
      <trkpt lat="47.548334" lon="7.859801">
        <ele>332.189128</ele>
        <time>2021-11-10T23:03:24.015Z</time>
      </trkpt>
      <trkpt lat="47.548049" lon="7.860929">
        <ele>333.021437</ele>
        <time>2021-11-10T23:03:45.033Z</time>
      </trkpt>
      <trkpt lat="47.547930" lon="7.861711">
        <ele>333.938352</ele>
        <time>2021-11-10T23:03:59.797Z</time>
      </trkpt>
      <trkpt lat="47.547568" lon="7.863151">
        <ele>335.695986</ele>
        <time>2021-11-10T23:04:28.925Z</time>
      </trkpt>
      <trkpt lat="47.547320" lon="7.863864">
        <ele>336.100914</ele>
        <time>2021-11-10T23:04:42.865Z</time>
      </trkpt>
      <trkpt lat="47.546974" lon="7.864423">
        <ele>336.255762</ele>
        <time>2021-11-10T23:04:53.688Z</time>
      </trkpt>
      <trkpt lat="47.546885" lon="7.864500">
        <ele>336.286936</ele>
        <time>2021-11-10T23:04:56.773Z</time>
      </trkpt>
      <trkpt lat="47.546894" lon="7.864837">
        <ele>336.355793</ele>
        <time>2021-11-10T23:05:00.657Z</time>
      </trkpt>
      <trkpt lat="47.546889" lon="7.865225">
        <ele>336.435024</ele>
        <time>2021-11-10T23:05:06.082Z</time>
      </trkpt>
      <trkpt lat="47.546819" lon="7.865489">
        <ele>336.492933</ele>
        <time>2021-11-10T23:05:10.027Z</time>
      </trkpt>
      <trkpt lat="47.546510" lon="7.865766">
        <ele>336.341383</ele>
        <time>2021-11-10T23:05:16.660Z</time>
      </trkpt>
      <trkpt lat="47.546327" lon="7.865959">
        <ele>336.150953</ele>
        <time>2021-11-10T23:05:20.176Z</time>
      </trkpt>
      <trkpt lat="47.546096" lon="7.866147">
        <ele>335.927522</ele>
        <time>2021-11-10T23:05:24.732Z</time>
      </trkpt>
      <trkpt lat="47.545240" lon="7.866887">
        <ele>335.087348</ele>
        <time>2021-11-10T23:05:41.405Z</time>
      </trkpt>
      <trkpt lat="47.545160" lon="7.866985">
        <ele>335.019879</ele>
        <time>2021-11-10T23:05:43.361Z</time>
      </trkpt>
      <trkpt lat="47.545003" lon="7.867278">
        <ele>335.269905</ele>
        <time>2021-11-10T23:05:49.029Z</time>
      </trkpt>
      <trkpt lat="47.544568" lon="7.867693">
        <ele>335.782195</ele>
        <time>2021-11-10T23:06:01.820Z</time>
      </trkpt>
      <trkpt lat="47.544469" lon="7.867776">
        <ele>335.894827</ele>
        <time>2021-11-10T23:06:04.682Z</time>
      </trkpt>
      <trkpt lat="47.544410" lon="7.867825">
        <ele>335.961798</ele>
        <time>2021-11-10T23:06:06.770Z</time>
      </trkpt>
      <trkpt lat="47.544246" lon="7.867967">
        <ele>336.149881</ele>
        <time>2021-11-10T23:06:11.454Z</time>
      </trkpt>
      <trkpt lat="47.544214" lon="7.867988">
        <ele>336.184535</ele>
        <time>2021-11-10T23:06:12.302Z</time>
      </trkpt>
      <trkpt lat="47.543801" lon="7.868269">
        <ele>336.634526</ele>
        <time>2021-11-10T23:06:23.905Z</time>
      </trkpt>
      <trkpt lat="47.543657" lon="7.868359">
        <ele>336.789275</ele>
        <time>2021-11-10T23:06:28.254Z</time>
      </trkpt>
      <trkpt lat="47.543201" lon="7.868657">
        <ele>336.789713</ele>
        <time>2021-11-10T23:06:38.455Z</time>
      </trkpt>
      <trkpt lat="47.543105" lon="7.868711">
        <ele>336.789713</ele>
        <time>2021-11-10T23:06:41.039Z</time>
      </trkpt>
      <trkpt lat="47.543049" lon="7.868759">
        <ele>336.789713</ele>
        <time>2021-11-10T23:06:42.416Z</time>
      </trkpt>
      <trkpt lat="47.542722" lon="7.869201">
        <ele>336.789713</ele>
        <time>2021-11-10T23:06:52.192Z</time>
      </trkpt>
      <trkpt lat="47.542696" lon="7.869257">
        <ele>336.789713</ele>
        <time>2021-11-10T23:06:52.986Z</time>
      </trkpt>
      <trkpt lat="47.542657" lon="7.869354">
        <ele>336.789713</ele>
        <time>2021-11-10T23:06:54.389Z</time>
      </trkpt>
      <trkpt lat="47.542372" lon="7.869746">
        <ele>336.789713</ele>
        <time>2021-11-10T23:07:01.496Z</time>
      </trkpt>
      <trkpt lat="47.542329" lon="7.869820">
        <ele>336.789713</ele>
        <time>2021-11-10T23:07:02.728Z</time>
      </trkpt>
      <trkpt lat="47.542348" lon="7.869983">
        <ele>336.789713</ele>
        <time>2021-11-10T23:07:04.381Z</time>
      </trkpt>
      <trkpt lat="47.542317" lon="7.870012">
        <ele>336.789713</ele>
        <time>2021-11-10T23:07:05.046Z</time>
      </trkpt>
      <trkpt lat="47.542181" lon="7.870131">
        <ele>336.789713</ele>
        <time>2021-11-10T23:07:07.431Z</time>
      </trkpt>
      <trkpt lat="47.542118" lon="7.870135">
        <ele>336.789713</ele>
        <time>2021-11-10T23:07:08.493Z</time>
      </trkpt>
      <trkpt lat="47.542014" lon="7.870126">
        <ele>336.789713</ele>
        <time>2021-11-10T23:07:09.929Z</time>
      </trkpt>
      <trkpt lat="47.541964" lon="7.870116">
        <ele>336.789713</ele>
        <time>2021-11-10T23:07:10.727Z</time>
      </trkpt>
    </trkseg>
  </trk>
</gpx>